PWSweather.com
Personal Weather Stations
Station Observations
ESTGRALPAZ
Santa Fe, Santa FeAR 3000

Santa FeSanta FeAR 3000

Lat: -31.6280555556, Lon: -60.6908333333

Elevation: 69

Station Type: WH1081

http://www.estaciongralpaz.com.ar

High Low Average
Temperature 82.0°F27.8°C 69.6°F20.9°C 74.8°F23.8°C
Dew Point 72.2°F22.3°C 66.4°F19.1°C 69.8°F21.0°C
Winds 18.3 mph 29.5 kmh Calm Calm 8.0 mph ENE12.9 kmh ENE
Wind Gusts 26.6 mph42.8 kmh 0.7 mph1.1 kmh 16.0 mph25.7 kmh
Humidity 95% 69% 85%
Pressure 29.61 in1002.7 mb 29.39 in995.3 mb -
Precipitation 1.90 in48.3 mm - -
Hour Temp Dew Point Humidity Winds Wind Gusts Pressure Precip Precip Rate Daily Precip Total
12:00 AM 70.9°F21.6°C 68.5°F20.3°C 92% 9.8 mph SE15.8 kmh SE 22.1 mph35.6 kmh 29.55 in1000.7 mb 0.06 in1.5 mm 0.00 in0.0 mm 0.06 in1.5 mm
12:01 AM 70.9°F21.6°C 68.5°F20.3°C 92% 6.0 mph ESE9.7 kmh ESE 22.1 mph35.6 kmh 29.56 in1001.0 mb 0.06 in1.5 mm 0.00 in0.0 mm 0.06 in1.5 mm
12:02 AM 70.9°F21.6°C 68.5°F20.3°C 92% 6.0 mph ESE9.7 kmh ESE 22.1 mph35.6 kmh 29.56 in1001.0 mb 0.06 in1.5 mm 0.00 in0.0 mm 0.06 in1.5 mm
12:03 AM 70.9°F21.6°C 68.5°F20.3°C 92% 6.0 mph ESE9.7 kmh ESE 22.1 mph35.6 kmh 29.57 in1001.4 mb 0.06 in1.5 mm 0.00 in0.0 mm 0.06 in1.5 mm
12:04 AM 70.9°F21.6°C 68.5°F20.3°C 92% 9.2 mph E14.8 kmh E 22.1 mph35.6 kmh 29.57 in1001.4 mb 0.06 in1.5 mm 0.00 in0.0 mm 0.06 in1.5 mm
12:05 AM 70.9°F21.6°C 68.5°F20.3°C 92% 9.2 mph E14.8 kmh E 22.1 mph35.6 kmh 29.57 in1001.4 mb 0.06 in1.5 mm 0.00 in0.0 mm 0.06 in1.5 mm
12:07 AM 70.9°F21.6°C 68.5°F20.3°C 92% 9.8 mph ESE15.8 kmh ESE 17.5 mph28.2 kmh 29.57 in1001.4 mb 0.07 in1.8 mm 0.30 in7.6 mm 0.01 in0.3 mm
12:08 AM 70.9°F21.6°C 68.5°F20.3°C 92% 7.6 mph ESE12.2 kmh ESE 17.5 mph28.2 kmh 29.57 in1001.4 mb 0.07 in1.8 mm 0.00 in0.0 mm 0.01 in0.3 mm
12:09 AM 70.9°F21.6°C 68.5°F20.3°C 92% 12.1 mph ESE19.5 kmh ESE 16.8 mph27.0 kmh 29.57 in1001.4 mb 0.06 in1.5 mm 0.00 in0.0 mm 0.01 in0.3 mm
12:10 AM 70.9°F21.6°C 68.5°F20.3°C 92% 13.0 mph E20.9 kmh E 19.7 mph31.7 kmh 29.57 in1001.4 mb 0.06 in1.5 mm 0.00 in0.0 mm 0.01 in0.3 mm
12:11 AM 71.1°F21.7°C 68.7°F20.4°C 92% 12.1 mph E19.5 kmh E 19.7 mph31.7 kmh 29.57 in1001.4 mb 0.06 in1.5 mm 0.00 in0.0 mm 0.01 in0.3 mm
12:12 AM 71.1°F21.7°C 68.7°F20.4°C 92% 8.3 mph E13.4 kmh E 19.7 mph31.7 kmh 29.57 in1001.4 mb 0.06 in1.5 mm 0.00 in0.0 mm 0.01 in0.3 mm
12:13 AM 71.1°F21.7°C 68.7°F20.4°C 92% 11.4 mph E18.3 kmh E 19.7 mph31.7 kmh 29.57 in1001.4 mb 0.06 in1.5 mm 0.00 in0.0 mm 0.01 in0.3 mm
12:14 AM 71.1°F21.7°C 68.7°F20.4°C 92% 4.5 mph E7.2 kmh E 19.7 mph31.7 kmh 29.57 in1001.4 mb 0.06 in1.5 mm 0.00 in0.0 mm 0.01 in0.3 mm
12:15 AM 71.1°F21.7°C 68.7°F20.4°C 92% 8.3 mph E13.4 kmh E 19.7 mph31.7 kmh 29.57 in1001.4 mb 0.06 in1.5 mm 0.00 in0.0 mm 0.01 in0.3 mm
12:16 AM 71.2°F21.8°C 68.8°F20.4°C 92% 9.8 mph E15.8 kmh E 19.7 mph31.7 kmh 29.57 in1001.4 mb 0.07 in1.8 mm 0.60 in15.2 mm 0.03 in0.8 mm
12:17 AM 71.2°F21.8°C 68.5°F20.3°C 91% 4.5 mph E7.2 kmh E 19.7 mph31.7 kmh 29.58 in1001.7 mb 0.07 in1.8 mm 0.00 in0.0 mm 0.03 in0.8 mm
12:18 AM 71.2°F21.8°C 68.5°F20.3°C 91% 7.6 mph E12.2 kmh E 19.7 mph31.7 kmh 29.58 in1001.7 mb 0.07 in1.8 mm 0.00 in0.0 mm 0.03 in0.8 mm
12:19 AM 71.2°F21.8°C 68.5°F20.3°C 91% 4.5 mph E7.2 kmh E 19.7 mph31.7 kmh 29.57 in1001.4 mb 0.07 in1.8 mm 0.00 in0.0 mm 0.03 in0.8 mm
12:20 AM 71.2°F21.8°C 68.5°F20.3°C 91% 4.5 mph E7.2 kmh E 19.7 mph31.7 kmh 29.57 in1001.4 mb 0.07 in1.8 mm 0.00 in0.0 mm 0.03 in0.8 mm
12:22 AM 71.2°F21.8°C 68.5°F20.3°C 91% 9.2 mph ESE14.8 kmh ESE 16.8 mph27.0 kmh 29.57 in1001.4 mb 0.10 in2.5 mm 0.90 in22.9 mm 0.06 in1.5 mm
12:23 AM 71.2°F21.8°C 68.5°F20.3°C 91% 6.9 mph ESE11.1 kmh ESE 16.8 mph27.0 kmh 29.58 in1001.7 mb 0.12 in3.0 mm 1.20 in30.5 mm 0.07 in1.8 mm
12:24 AM 71.2°F21.8°C 68.5°F20.3°C 91% 5.4 mph ESE8.7 kmh ESE 16.8 mph27.0 kmh 29.58 in1001.7 mb 0.13 in3.3 mm 0.60 in15.2 mm 0.09 in2.3 mm
12:25 AM 71.1°F21.7°C 68.3°F20.2°C 91% 6.0 mph ESE9.7 kmh ESE 16.8 mph27.0 kmh 29.57 in1001.4 mb 0.14 in3.6 mm 0.60 in15.2 mm 0.10 in2.5 mm
12:26 AM 71.1°F21.7°C 68.3°F20.2°C 91% 8.3 mph ESE13.4 kmh ESE 16.8 mph27.0 kmh 29.58 in1001.7 mb 0.16 in4.1 mm 1.20 in30.5 mm 0.12 in3.0 mm
12:27 AM 71.1°F21.7°C 68.3°F20.2°C 91% 8.3 mph SE13.4 kmh SE 15.2 mph24.5 kmh 29.59 in1002.0 mb 0.16 in4.1 mm 0.00 in0.0 mm 0.12 in3.0 mm
12:28 AM 70.9°F21.6°C 68.2°F20.1°C 91% 7.6 mph SE12.2 kmh SE 15.2 mph24.5 kmh 29.59 in1002.0 mb 0.16 in4.1 mm 0.00 in0.0 mm 0.13 in3.3 mm
12:29 AM 70.9°F21.6°C 68.2°F20.1°C 91% 11.4 mph SE18.3 kmh SE 18.3 mph29.5 kmh 29.59 in1002.0 mb 0.17 in4.3 mm 0.60 in15.2 mm 0.14 in3.6 mm
12:30 AM 70.9°F21.6°C 68.2°F20.1°C 91% 5.4 mph SE8.7 kmh SE 18.3 mph29.5 kmh 29.59 in1002.0 mb 0.19 in4.8 mm 1.20 in30.5 mm 0.16 in4.1 mm
12:31 AM 70.9°F21.6°C 68.2°F20.1°C 91% 6.0 mph SE9.7 kmh SE 18.3 mph29.5 kmh 29.59 in1002.0 mb 0.20 in5.1 mm 0.60 in15.2 mm 0.17 in4.3 mm
12:32 AM 70.9°F21.6°C 68.2°F20.1°C 91% 3.8 mph SE6.1 kmh SE 18.3 mph29.5 kmh 29.59 in1002.0 mb 0.20 in5.1 mm 0.00 in0.0 mm 0.17 in4.3 mm
12:33 AM 70.9°F21.6°C 68.2°F20.1°C 91% 5.4 mph SE8.7 kmh SE 18.3 mph29.5 kmh 29.59 in1002.0 mb 0.19 in4.8 mm 0.00 in0.0 mm 0.17 in4.3 mm
12:34 AM 70.5°F21.4°C 67.8°F19.9°C 91% 6.9 mph SE11.1 kmh SE 18.3 mph29.5 kmh 29.61 in1002.7 mb 0.20 in5.1 mm 0.60 in15.2 mm 0.19 in4.8 mm
12:35 AM 70.5°F21.4°C 67.8°F19.9°C 91% 2.2 mph SE3.5 kmh SE 18.3 mph29.5 kmh 29.61 in1002.7 mb 0.20 in5.1 mm 0.00 in0.0 mm 0.19 in4.8 mm
12:36 AM 70.5°F21.4°C 67.8°F19.9°C 91% 2.2 mph SE3.5 kmh SE 18.3 mph29.5 kmh 29.61 in1002.7 mb 0.20 in5.1 mm 0.00 in0.0 mm 0.19 in4.8 mm
12:37 AM 70.5°F21.4°C 67.8°F19.9°C 91% 0.7 mph SE1.1 kmh SE 18.3 mph29.5 kmh 29.61 in1002.7 mb 0.20 in5.1 mm 0.00 in0.0 mm 0.19 in4.8 mm
12:39 AM 70.5°F21.4°C 67.8°F19.9°C 91% 2.2 mph SE3.5 kmh SE 18.3 mph29.5 kmh 29.60 in1002.4 mb 0.22 in5.6 mm 0.60 in15.2 mm 0.20 in5.1 mm
12:40 AM 70.5°F21.4°C 67.8°F19.9°C 91% 5.4 mph SE8.7 kmh SE 12.1 mph19.5 kmh 29.60 in1002.4 mb 0.23 in5.8 mm 0.60 in15.2 mm 0.22 in5.6 mm
12:41 AM 70.5°F21.4°C 67.5°F19.7°C 90% 2.2 mph ESE3.5 kmh ESE 11.4 mph18.3 kmh 29.60 in1002.4 mb 0.24 in6.1 mm 0.60 in15.2 mm 0.23 in5.8 mm
12:42 AM 70.5°F21.4°C 67.5°F19.7°C 90% 8.3 mph ESE13.4 kmh ESE 11.4 mph18.3 kmh 29.60 in1002.4 mb 0.27 in6.9 mm 1.80 in45.7 mm 0.26 in6.6 mm
12:43 AM 70.5°F21.4°C 67.5°F19.7°C 90% 3.1 mph ESE5.0 kmh ESE 11.4 mph18.3 kmh 29.60 in1002.4 mb 0.30 in7.6 mm 1.80 in45.7 mm 0.29 in7.4 mm
12:44 AM 70.3°F21.3°C 67.3°F19.6°C 90% 6.9 mph SE11.1 kmh SE 11.4 mph18.3 kmh 29.59 in1002.0 mb 0.32 in8.1 mm 1.20 in30.5 mm 0.30 in7.6 mm
12:45 AM 70.3°F21.3°C 67.3°F19.6°C 90% 5.4 mph ESE8.7 kmh ESE 10.7 mph17.2 kmh 29.60 in1002.4 mb 0.33 in8.4 mm 0.60 in15.2 mm 0.32 in8.1 mm
12:46 AM 70.3°F21.3°C 67.3°F19.6°C 90% 3.8 mph ESE6.1 kmh ESE 10.7 mph17.2 kmh 29.60 in1002.4 mb 0.35 in8.9 mm 1.20 in30.5 mm 0.35 in8.9 mm
12:47 AM 70.3°F21.3°C 67.3°F19.6°C 90% 3.1 mph ESE5.0 kmh ESE 10.7 mph17.2 kmh 29.59 in1002.0 mb 0.36 in9.1 mm 0.60 in15.2 mm 0.36 in9.1 mm
12:48 AM 70.3°F21.3°C 67.3°F19.6°C 90% 3.1 mph ESE5.0 kmh ESE 10.7 mph17.2 kmh 29.59 in1002.0 mb 0.36 in9.1 mm 0.00 in0.0 mm 0.36 in9.1 mm
12:50 AM 70.3°F21.3°C 67.6°F19.8°C 91% 3.8 mph SE6.1 kmh SE 10.7 mph17.2 kmh 29.59 in1002.0 mb 0.40 in10.2 mm 1.20 in30.5 mm 0.40 in10.2 mm
12:51 AM 70.3°F21.3°C 67.6°F19.8°C 91% 6.0 mph ESE9.7 kmh ESE 10.7 mph17.2 kmh 29.59 in1002.0 mb 0.42 in10.7 mm 1.20 in30.5 mm 0.42 in10.7 mm
12:52 AM 70.3°F21.3°C 67.6°F19.8°C 91% 5.4 mph E8.7 kmh E 11.4 mph18.3 kmh 29.58 in1001.7 mb 0.42 in10.7 mm 0.00 in0.0 mm 0.42 in10.7 mm
12:53 AM 70.5°F21.4°C 67.8°F19.9°C 91% 5.4 mph E8.7 kmh E 11.4 mph18.3 kmh 29.58 in1001.7 mb 0.42 in10.7 mm 0.00 in0.0 mm 0.42 in10.7 mm
12:54 AM 70.5°F21.4°C 67.8°F19.9°C 91% 4.5 mph E7.2 kmh E 11.4 mph18.3 kmh 29.57 in1001.4 mb 0.43 in10.9 mm 0.60 in15.2 mm 0.43 in10.9 mm
12:56 AM 70.5°F21.4°C 67.8°F19.9°C 91% 7.6 mph E12.2 kmh E 11.4 mph18.3 kmh 29.57 in1001.4 mb 0.43 in10.9 mm 0.00 in0.0 mm 0.43 in10.9 mm
12:57 AM 70.5°F21.4°C 68.1°F20.1°C 92% 8.3 mph E13.4 kmh E 11.4 mph18.3 kmh 29.57 in1001.4 mb 0.45 in11.4 mm 1.20 in30.5 mm 0.45 in11.4 mm
12:58 AM 70.9°F21.6°C 68.5°F20.3°C 92% 4.5 mph E7.2 kmh E 15.2 mph24.5 kmh 29.57 in1001.4 mb 0.45 in11.4 mm 0.00 in0.0 mm 0.45 in11.4 mm
12:59 AM 70.9°F21.6°C 68.5°F20.3°C 92% 7.6 mph E12.2 kmh E 15.2 mph24.5 kmh 29.57 in1001.4 mb 0.45 in11.4 mm 0.00 in0.0 mm 0.45 in11.4 mm
01:00 AM 70.9°F21.6°C 68.5°F20.3°C 92% 6.0 mph E9.7 kmh E 15.2 mph24.5 kmh 29.57 in1001.4 mb 0.46 in11.7 mm 0.01 in0.3 mm 0.46 in11.7 mm
01:01 AM 70.9°F21.6°C 68.5°F20.3°C 92% 7.6 mph E12.2 kmh E 15.2 mph24.5 kmh 29.57 in1001.4 mb 0.46 in11.7 mm 0.00 in0.0 mm 0.46 in11.7 mm
01:03 AM 71.1°F21.7°C 68.7°F20.4°C 92% 6.9 mph E11.1 kmh E 13.0 mph20.9 kmh 29.57 in1001.4 mb 0.46 in11.7 mm 0.00 in0.0 mm 0.46 in11.7 mm
01:04 AM 71.2°F21.8°C 68.8°F20.4°C 92% 8.3 mph ESE13.4 kmh ESE 13.0 mph20.9 kmh 29.57 in1001.4 mb 0.48 in12.2 mm 1.20 in30.5 mm 0.48 in12.2 mm
01:05 AM 71.2°F21.8°C 68.8°F20.4°C 92% 7.6 mph ESE12.2 kmh ESE 13.0 mph20.9 kmh 29.57 in1001.4 mb 0.46 in11.7 mm 0.00 in0.0 mm 0.48 in12.2 mm
01:06 AM 71.2°F21.8°C 68.8°F20.4°C 92% 5.4 mph ESE8.7 kmh ESE 13.0 mph20.9 kmh 29.57 in1001.4 mb 0.46 in11.7 mm 0.00 in0.0 mm 0.48 in12.2 mm
01:07 AM 71.2°F21.8°C 68.8°F20.4°C 92% 6.9 mph ESE11.1 kmh ESE 13.0 mph20.9 kmh 29.57 in1001.4 mb 0.46 in11.7 mm 0.00 in0.0 mm 0.48 in12.2 mm
01:09 AM 71.4°F21.9°C 69.0°F20.6°C 92% 3.8 mph ESE6.1 kmh ESE 13.0 mph20.9 kmh 29.57 in1001.4 mb 0.48 in12.2 mm 0.60 in15.2 mm 0.49 in12.4 mm
01:10 AM 71.4°F21.9°C 69.0°F20.6°C 92% 6.0 mph ESE9.7 kmh ESE 12.1 mph19.5 kmh 29.57 in1001.4 mb 0.49 in12.4 mm 0.60 in15.2 mm 0.50 in12.7 mm
01:11 AM 71.4°F21.9°C 69.0°F20.6°C 92% 9.2 mph E14.8 kmh E 12.1 mph19.5 kmh 29.57 in1001.4 mb 0.50 in12.7 mm 0.60 in15.2 mm 0.52 in13.2 mm
01:12 AM 71.4°F21.9°C 69.0°F20.6°C 92% 4.5 mph E7.2 kmh E 12.1 mph19.5 kmh 29.58 in1001.7 mb 0.52 in13.2 mm 1.20 in30.5 mm 0.53 in13.5 mm
01:14 AM 71.4°F21.9°C 69.0°F20.6°C 92% 6.9 mph E11.1 kmh E 12.1 mph19.5 kmh 29.59 in1002.0 mb 0.56 in14.2 mm 1.20 in30.5 mm 0.58 in14.7 mm
01:15 AM 71.4°F21.9°C 69.0°F20.6°C 92% 6.9 mph E11.1 kmh E 12.1 mph19.5 kmh 29.59 in1002.0 mb 0.56 in14.2 mm 0.00 in0.0 mm 0.59 in15.0 mm
01:16 AM 71.4°F21.9°C 69.0°F20.6°C 92% 4.5 mph E7.2 kmh E 12.1 mph19.5 kmh 29.59 in1002.0 mb 0.58 in14.7 mm 1.20 in30.5 mm 0.60 in15.2 mm
01:17 AM 71.4°F21.9°C 69.0°F20.6°C 92% 5.4 mph E8.7 kmh E 12.1 mph19.5 kmh 29.59 in1002.0 mb 0.59 in15.0 mm 0.60 in15.2 mm 0.62 in15.7 mm
01:18 AM 71.4°F21.9°C 69.0°F20.6°C 92% 6.0 mph E9.7 kmh E 12.1 mph19.5 kmh 29.59 in1002.0 mb 0.62 in15.7 mm 1.80 in45.7 mm 0.65 in16.5 mm
01:20 AM 71.2°F21.8°C 68.8°F20.4°C 92% 5.4 mph E8.7 kmh E 12.1 mph19.5 kmh 29.59 in1002.0 mb 0.66 in16.8 mm 1.20 in30.5 mm 0.72 in18.3 mm
01:21 AM 71.2°F21.8°C 68.8°F20.4°C 92% 3.1 mph E5.0 kmh E 12.1 mph19.5 kmh 29.59 in1002.0 mb 0.68 in17.3 mm 1.20 in30.5 mm 0.73 in18.5 mm
01:22 AM 71.2°F21.8°C 68.8°F20.4°C 92% 4.5 mph E7.2 kmh E 9.8 mph15.8 kmh 29.58 in1001.7 mb 0.69 in17.5 mm 0.60 in15.2 mm 0.76 in19.3 mm
01:23 AM 71.2°F21.8°C 68.8°F20.4°C 92% 4.5 mph E7.2 kmh E 9.8 mph15.8 kmh 29.58 in1001.7 mb 0.69 in17.5 mm 0.00 in0.0 mm 0.78 in19.8 mm
01:24 AM 71.2°F21.8°C 68.8°F20.4°C 92% 5.4 mph E8.7 kmh E 9.8 mph15.8 kmh 29.58 in1001.7 mb 0.71 in18.0 mm 1.20 in30.5 mm 0.81 in20.6 mm
01:25 AM 71.2°F21.8°C 68.8°F20.4°C 92% 7.6 mph ESE12.2 kmh ESE 13.0 mph20.9 kmh 29.57 in1001.4 mb 0.69 in17.5 mm 0.00 in0.0 mm 0.81 in20.6 mm
01:26 AM 71.2°F21.8°C 68.8°F20.4°C 92% 8.3 mph ESE13.4 kmh ESE 15.2 mph24.5 kmh 29.56 in1001.0 mb 0.71 in18.0 mm 1.20 in30.5 mm 0.82 in20.8 mm
01:27 AM 71.1°F21.7°C 68.7°F20.4°C 92% 9.2 mph ESE14.8 kmh ESE 15.2 mph24.5 kmh 29.56 in1001.0 mb 0.71 in18.0 mm 0.00 in0.0 mm 0.84 in21.3 mm
01:28 AM 71.1°F21.7°C 68.7°F20.4°C 92% 6.0 mph ESE9.7 kmh ESE 15.2 mph24.5 kmh 29.55 in1000.7 mb 0.71 in18.0 mm 0.00 in0.0 mm 0.85 in21.6 mm
01:29 AM 71.1°F21.7°C 68.7°F20.4°C 92% 7.6 mph ESE12.2 kmh ESE 15.2 mph24.5 kmh 29.55 in1000.7 mb 0.71 in18.0 mm 0.00 in0.0 mm 0.86 in21.8 mm
01:30 AM 70.9°F21.6°C 68.5°F20.3°C 92% 10.7 mph ESE17.2 kmh ESE 15.9 mph25.6 kmh 29.54 in1000.3 mb 0.73 in18.5 mm 1.20 in30.5 mm 0.91 in23.1 mm
01:31 AM 70.9°F21.6°C 68.5°F20.3°C 92% 8.3 mph ESE13.4 kmh ESE 15.9 mph25.6 kmh 29.53 in1000.0 mb 0.75 in19.1 mm 1.20 in30.5 mm 0.92 in23.4 mm
01:32 AM 70.9°F21.6°C 68.5°F20.3°C 92% 8.3 mph ESE13.4 kmh ESE 15.9 mph25.6 kmh 29.53 in1000.0 mb 0.75 in19.1 mm 0.00 in0.0 mm 0.92 in23.4 mm
01:34 AM 70.9°F21.6°C 68.5°F20.3°C 92% 7.6 mph ESE12.2 kmh ESE 15.9 mph25.6 kmh 29.54 in1000.3 mb 0.76 in19.3 mm 0.30 in7.6 mm 0.95 in24.1 mm
01:35 AM 70.9°F21.6°C 68.5°F20.3°C 92% 7.6 mph E12.2 kmh E 15.9 mph25.6 kmh 29.54 in1000.3 mb 0.78 in19.8 mm 1.20 in30.5 mm 0.96 in24.4 mm
01:36 AM 70.9°F21.6°C 68.5°F20.3°C 92% 11.4 mph E18.3 kmh E 15.9 mph25.6 kmh 29.54 in1000.3 mb 0.79 in20.1 mm 0.60 in15.2 mm 0.98 in24.9 mm
01:37 AM 70.9°F21.6°C 68.5°F20.3°C 92% 8.3 mph E13.4 kmh E 15.9 mph25.6 kmh 29.53 in1000.0 mb 0.78 in19.8 mm 0.00 in0.0 mm 0.98 in24.9 mm
01:38 AM 70.9°F21.6°C 68.5°F20.3°C 92% 6.9 mph E11.1 kmh E 15.9 mph25.6 kmh 29.53 in1000.0 mb 0.79 in20.1 mm 0.60 in15.2 mm 0.99 in25.1 mm
01:39 AM 70.9°F21.6°C 68.5°F20.3°C 92% 7.6 mph E12.2 kmh E 15.9 mph25.6 kmh 29.53 in1000.0 mb 0.78 in19.8 mm 0.00 in0.0 mm 0.99 in25.1 mm
01:41 AM 70.9°F21.6°C 68.8°F20.4°C 93% 6.9 mph E11.1 kmh E 15.9 mph25.6 kmh 29.54 in1000.3 mb 0.73 in18.5 mm 0.00 in0.0 mm 0.99 in25.1 mm
01:42 AM 70.9°F21.6°C 68.8°F20.4°C 93% 6.0 mph ENE9.7 kmh ENE 15.9 mph25.6 kmh 29.53 in1000.0 mb 0.71 in18.0 mm 0.00 in0.0 mm 0.99 in25.1 mm
01:43 AM 71.1°F21.7°C 69.0°F20.6°C 93% 6.0 mph E9.7 kmh E 15.9 mph25.6 kmh 29.53 in1000.0 mb 0.71 in18.0 mm 0.00 in0.0 mm 1.01 in25.7 mm
01:44 AM 71.1°F21.7°C 69.0°F20.6°C 93% 7.6 mph E12.2 kmh E 15.9 mph25.6 kmh 29.54 in1000.3 mb 0.69 in17.5 mm 0.00 in0.0 mm 1.01 in25.7 mm
01:45 AM 71.1°F21.7°C 69.0°F20.6°C 93% 9.2 mph ENE14.8 kmh ENE 17.4 mph28.0 kmh 29.53 in1000.0 mb 0.66 in16.8 mm 0.00 in0.0 mm 1.01 in25.7 mm
01:47 AM 71.2°F21.8°C 69.1°F20.6°C 93% 8.3 mph ENE13.4 kmh ENE 17.5 mph28.2 kmh 29.54 in1000.3 mb 0.66 in16.8 mm 0.00 in0.0 mm 1.02 in25.9 mm
01:48 AM 71.2°F21.8°C 69.1°F20.6°C 93% 9.2 mph ENE14.8 kmh ENE 17.5 mph28.2 kmh 29.54 in1000.3 mb 0.62 in15.7 mm 0.00 in0.0 mm 1.02 in25.9 mm
01:49 AM 71.4°F21.9°C 69.3°F20.7°C 93% 9.8 mph E15.8 kmh E 17.5 mph28.2 kmh 29.53 in1000.0 mb 0.62 in15.7 mm 0.00 in0.0 mm 1.02 in25.9 mm
01:50 AM 71.4°F21.9°C 69.3°F20.7°C 93% 13.0 mph E20.9 kmh E 19.0 mph30.6 kmh 29.53 in1000.0 mb 0.60 in15.2 mm 0.00 in0.0 mm 1.02 in25.9 mm
01:51 AM 71.4°F21.9°C 69.3°F20.7°C 93% 9.8 mph E15.8 kmh E 19.0 mph30.6 kmh 29.53 in1000.0 mb 0.60 in15.2 mm 0.00 in0.0 mm 1.02 in25.9 mm
01:52 AM 71.4°F21.9°C 69.3°F20.7°C 93% 9.8 mph E15.8 kmh E 19.0 mph30.6 kmh 29.53 in1000.0 mb 0.60 in15.2 mm 0.00 in0.0 mm 1.02 in25.9 mm
01:54 AM 71.4°F21.9°C 69.3°F20.7°C 93% 12.1 mph ENE19.5 kmh ENE 22.1 mph35.6 kmh 29.52 in999.7 mb 0.59 in15.0 mm 0.00 in0.0 mm 1.02 in25.9 mm
01:55 AM 71.4°F21.9°C 69.3°F20.7°C 93% 11.4 mph NE18.3 kmh NE 22.1 mph35.6 kmh 29.52 in999.7 mb 0.62 in15.7 mm 1.80 in45.7 mm 1.05 in26.7 mm
01:56 AM 71.2°F21.8°C 69.1°F20.6°C 93% 15.2 mph NE24.5 kmh NE 22.1 mph35.6 kmh 29.53 in1000.0 mb 0.62 in15.7 mm 0.00 in0.0 mm 1.07 in27.2 mm
01:57 AM 70.9°F21.6°C 68.8°F20.4°C 93% 11.4 mph NE18.3 kmh NE 22.1 mph35.6 kmh 29.53 in1000.0 mb 0.63 in16.0 mm 0.60 in15.2 mm 1.08 in27.4 mm
01:58 AM 70.9°F21.6°C 68.8°F20.4°C 93% 7.6 mph NE12.2 kmh NE 22.1 mph35.6 kmh 29.52 in999.7 mb 0.65 in16.5 mm 1.20 in30.5 mm 1.09 in27.7 mm
02:00 AM 70.5°F21.4°C 68.4°F20.2°C 93% 9.8 mph ENE15.8 kmh ENE 22.1 mph35.6 kmh 29.52 in999.7 mb 0.65 in16.5 mm 0.00 in0.0 mm 1.11 in28.2 mm
02:01 AM 70.5°F21.4°C 68.4°F20.2°C 93% 13.0 mph E20.9 kmh E 22.1 mph35.6 kmh 29.52 in999.7 mb 0.66 in16.8 mm 0.60 in15.2 mm 1.12 in28.4 mm
02:02 AM 70.5°F21.4°C 68.4°F20.2°C 93% 10.7 mph E17.2 kmh E 22.1 mph35.6 kmh 29.52 in999.7 mb 0.66 in16.8 mm 0.00 in0.0 mm 1.12 in28.4 mm
02:03 AM 70.5°F21.4°C 68.4°F20.2°C 93% 13.0 mph E20.9 kmh E 22.1 mph35.6 kmh 29.52 in999.7 mb 0.66 in16.8 mm 0.00 in0.0 mm 1.14 in29.0 mm
02:04 AM 70.5°F21.4°C 68.4°F20.2°C 93% 12.1 mph E19.5 kmh E 23.5 mph37.8 kmh 29.52 in999.7 mb 0.66 in16.8 mm 0.00 in0.0 mm 1.14 in29.0 mm
02:05 AM 70.5°F21.4°C 68.4°F20.2°C 93% 9.2 mph ENE14.8 kmh ENE 23.5 mph37.8 kmh 29.52 in999.7 mb 0.68 in17.3 mm 1.20 in30.5 mm 1.15 in29.2 mm
02:06 AM 70.5°F21.4°C 68.4°F20.2°C 93% 11.4 mph E18.3 kmh E 23.5 mph37.8 kmh 29.52 in999.7 mb 0.68 in17.3 mm 0.00 in0.0 mm 1.15 in29.2 mm
02:08 AM 70.5°F21.4°C 68.4°F20.2°C 93% 8.3 mph ENE13.4 kmh ENE 23.5 mph37.8 kmh 29.52 in999.7 mb 0.66 in16.8 mm 0.00 in0.0 mm 1.15 in29.2 mm
02:09 AM 70.5°F21.4°C 68.4°F20.2°C 93% 13.0 mph NE20.9 kmh NE 23.5 mph37.8 kmh 29.52 in999.7 mb 0.66 in16.8 mm 0.00 in0.0 mm 1.17 in29.7 mm
02:10 AM 70.5°F21.4°C 68.4°F20.2°C 93% 16.8 mph NE27.0 kmh NE 23.5 mph37.8 kmh 29.52 in999.7 mb 0.65 in16.5 mm 0.00 in0.0 mm 1.17 in29.7 mm
02:11 AM 70.3°F21.3°C 68.3°F20.2°C 93% 9.8 mph ENE15.8 kmh ENE 23.5 mph37.8 kmh 29.52 in999.7 mb 0.63 in16.0 mm 0.00 in0.0 mm 1.17 in29.7 mm
02:12 AM 70.3°F21.3°C 67.9°F19.9°C 92% 10.7 mph ENE17.2 kmh ENE 23.5 mph37.8 kmh 29.53 in1000.0 mb 0.59 in15.0 mm 0.00 in0.0 mm 1.17 in29.7 mm
02:13 AM 70.3°F21.3°C 67.9°F19.9°C 92% 14.5 mph ENE23.3 kmh ENE 23.5 mph37.8 kmh 29.53 in1000.0 mb 0.59 in15.0 mm 0.00 in0.0 mm 1.17 in29.7 mm
02:15 AM 70.3°F21.3°C 67.9°F19.9°C 92% 10.7 mph ENE17.2 kmh ENE 21.3 mph34.3 kmh 29.54 in1000.3 mb 0.56 in14.2 mm 0.00 in0.0 mm 1.17 in29.7 mm
02:16 AM 70.3°F21.3°C 67.9°F19.9°C 92% 11.4 mph NE18.3 kmh NE 21.3 mph34.3 kmh 29.55 in1000.7 mb 0.55 in14.0 mm 0.00 in0.0 mm 1.17 in29.7 mm
02:17 AM 70.3°F21.3°C 67.9°F19.9°C 92% 13.0 mph NE20.9 kmh NE 21.3 mph34.3 kmh 29.54 in1000.3 mb 0.53 in13.5 mm 0.00 in0.0 mm 1.18 in30.0 mm
02:18 AM 70.3°F21.3°C 67.9°F19.9°C 92% 9.8 mph NE15.8 kmh NE 21.3 mph34.3 kmh 29.54 in1000.3 mb 0.46 in11.7 mm 0.00 in0.0 mm 1.18 in30.0 mm
02:19 AM 70.3°F21.3°C 67.9°F19.9°C 92% 13.6 mph ENE21.9 kmh ENE 21.3 mph34.3 kmh 29.54 in1000.3 mb 0.46 in11.7 mm 0.00 in0.0 mm 1.18 in30.0 mm
02:20 AM 70.3°F21.3°C 67.9°F19.9°C 92% 10.7 mph ENE17.2 kmh ENE 21.3 mph34.3 kmh 29.54 in1000.3 mb 0.45 in11.4 mm 0.00 in0.0 mm 1.18 in30.0 mm
02:22 AM 70.3°F21.3°C 67.6°F19.8°C 91% 12.1 mph ENE19.5 kmh ENE 21.3 mph34.3 kmh 29.52 in999.7 mb 0.42 in10.7 mm 0.00 in0.0 mm 1.20 in30.5 mm
02:23 AM 70.3°F21.3°C 67.6°F19.8°C 91% 8.3 mph ENE13.4 kmh ENE 21.3 mph34.3 kmh 29.53 in1000.0 mb 0.39 in9.9 mm 0.00 in0.0 mm 1.20 in30.5 mm
02:24 AM 70.3°F21.3°C 67.6°F19.8°C 91% 12.1 mph ENE19.5 kmh ENE 20.6 mph33.2 kmh 29.52 in999.7 mb 0.39 in9.9 mm 0.00 in0.0 mm 1.20 in30.5 mm
02:25 AM 70.3°F21.3°C 67.3°F19.6°C 90% 8.3 mph ENE13.4 kmh ENE 20.6 mph33.2 kmh 29.52 in999.7 mb 0.37 in9.4 mm 0.00 in0.0 mm 1.20 in30.5 mm
02:26 AM 70.2°F21.2°C 67.1°F19.5°C 90% 10.7 mph ENE17.2 kmh ENE 20.6 mph33.2 kmh 29.52 in999.7 mb 0.37 in9.4 mm 0.00 in0.0 mm 1.21 in30.7 mm
02:27 AM 70.2°F21.2°C 67.1°F19.5°C 90% 8.3 mph ENE13.4 kmh ENE 20.6 mph33.2 kmh 29.52 in999.7 mb 0.36 in9.1 mm 0.00 in0.0 mm 1.21 in30.7 mm
02:28 AM 70.2°F21.2°C 67.1°F19.5°C 90% 8.3 mph ENE13.4 kmh ENE 20.6 mph33.2 kmh 29.52 in999.7 mb 0.35 in8.9 mm 0.00 in0.0 mm 1.21 in30.7 mm
02:30 AM 70.0°F21.1°C 66.6°F19.2°C 89% 10.7 mph ENE17.2 kmh ENE 20.6 mph33.2 kmh 29.51 in999.3 mb 0.30 in7.6 mm 0.00 in0.0 mm 1.22 in31.0 mm
02:31 AM 69.8°F21.0°C 66.4°F19.1°C 89% 13.6 mph E21.9 kmh E 22.8 mph36.7 kmh 29.50 in999.0 mb 0.30 in7.6 mm 0.00 in0.0 mm 1.22 in31.0 mm
02:32 AM 69.8°F21.0°C 66.4°F19.1°C 89% 10.7 mph E17.2 kmh E 22.8 mph36.7 kmh 29.50 in999.0 mb 0.27 in6.9 mm 0.00 in0.0 mm 1.22 in31.0 mm
02:33 AM 69.8°F21.0°C 66.4°F19.1°C 89% 11.4 mph E18.3 kmh E 22.8 mph36.7 kmh 29.50 in999.0 mb 0.29 in7.4 mm 1.20 in30.5 mm 1.24 in31.5 mm
02:34 AM 69.8°F21.0°C 66.4°F19.1°C 89% 9.8 mph E15.8 kmh E 22.8 mph36.7 kmh 29.50 in999.0 mb 0.27 in6.9 mm 0.00 in0.0 mm 1.24 in31.5 mm
02:35 AM 69.8°F21.0°C 66.4°F19.1°C 89% 15.9 mph E25.6 kmh E 25.1 mph40.4 kmh 29.51 in999.3 mb 0.26 in6.6 mm 0.00 in0.0 mm 1.24 in31.5 mm
02:36 AM 69.8°F21.0°C 66.4°F19.1°C 89% 15.9 mph E25.6 kmh E 25.1 mph40.4 kmh 29.51 in999.3 mb 0.26 in6.6 mm 0.00 in0.0 mm 1.24 in31.5 mm
02:38 AM 69.8°F21.0°C 66.4°F19.1°C 89% 12.1 mph ENE19.5 kmh ENE 25.1 mph40.4 kmh 29.50 in999.0 mb 0.26 in6.6 mm 0.00 in0.0 mm 1.25 in31.8 mm
02:39 AM 69.8°F21.0°C 66.4°F19.1°C 89% 9.2 mph E14.8 kmh E 25.1 mph40.4 kmh 29.50 in999.0 mb 0.26 in6.6 mm 0.00 in0.0 mm 1.25 in31.8 mm
02:40 AM 69.8°F21.0°C 66.4°F19.1°C 89% 9.2 mph E14.8 kmh E 25.1 mph40.4 kmh 29.51 in999.3 mb 0.27 in6.9 mm 0.60 in15.2 mm 1.27 in32.3 mm
02:41 AM 69.8°F21.0°C 66.4°F19.1°C 89% 6.9 mph E11.1 kmh E 25.1 mph40.4 kmh 29.50 in999.0 mb 0.27 in6.9 mm 0.00 in0.0 mm 1.27 in32.3 mm
02:42 AM 69.6°F20.9°C 66.6°F19.2°C 90% 6.0 mph E9.7 kmh E 25.1 mph40.4 kmh 29.50 in999.0 mb 0.26 in6.6 mm 0.00 in0.0 mm 1.27 in32.3 mm
02:43 AM 69.6°F20.9°C 66.6°F19.2°C 90% 8.3 mph E13.4 kmh E 25.1 mph40.4 kmh 29.50 in999.0 mb 0.26 in6.6 mm 0.00 in0.0 mm 1.27 in32.3 mm
02:45 AM 69.6°F20.9°C 66.6°F19.2°C 90% 6.9 mph E11.1 kmh E 25.0 mph40.2 kmh 29.50 in999.0 mb 0.24 in6.1 mm 0.00 in0.0 mm 1.27 in32.3 mm
02:46 AM 69.6°F20.9°C 66.6°F19.2°C 90% 3.8 mph E6.1 kmh E 25.0 mph40.2 kmh 29.49 in998.6 mb 0.24 in6.1 mm 0.00 in0.0 mm 1.27 in32.3 mm
02:47 AM 69.6°F20.9°C 66.6°F19.2°C 90% 8.3 mph E13.4 kmh E 25.0 mph40.2 kmh 29.50 in999.0 mb 0.24 in6.1 mm 0.00 in0.0 mm 1.27 in32.3 mm
02:48 AM 69.6°F20.9°C 66.6°F19.2°C 90% 11.4 mph E18.3 kmh E 25.0 mph40.2 kmh 29.50 in999.0 mb 0.24 in6.1 mm 0.00 in0.0 mm 1.27 in32.3 mm
02:49 AM 69.8°F21.0°C 66.8°F19.3°C 90% 8.3 mph E13.4 kmh E 19.0 mph30.6 kmh 29.50 in999.0 mb 0.24 in6.1 mm 0.00 in0.0 mm 1.27 in32.3 mm
02:50 AM 69.8°F21.0°C 66.8°F19.3°C 90% 12.1 mph E19.5 kmh E 17.4 mph28.0 kmh 29.50 in999.0 mb 0.24 in6.1 mm 0.00 in0.0 mm 1.27 in32.3 mm
02:51 AM 69.8°F21.0°C 66.8°F19.3°C 90% 12.1 mph E19.5 kmh E 17.4 mph28.0 kmh 29.50 in999.0 mb 0.24 in6.1 mm 0.00 in0.0 mm 1.27 in32.3 mm
02:53 AM 70.0°F21.1°C 66.9°F19.4°C 90% 11.4 mph ENE18.3 kmh ENE 17.5 mph28.2 kmh 29.49 in998.6 mb 0.26 in6.6 mm 0.60 in15.2 mm 1.28 in32.5 mm
02:54 AM 70.0°F21.1°C 66.9°F19.4°C 90% 10.7 mph NE17.2 kmh NE 19.0 mph30.6 kmh 29.49 in998.6 mb 0.23 in5.8 mm 0.00 in0.0 mm 1.28 in32.5 mm
02:55 AM 70.0°F21.1°C 66.9°F19.4°C 90% 9.2 mph NE14.8 kmh NE 19.0 mph30.6 kmh 29.48 in998.3 mb 0.22 in5.6 mm 0.00 in0.0 mm 1.28 in32.5 mm
02:56 AM 70.2°F21.2°C 67.1°F19.5°C 90% 8.3 mph NE13.4 kmh NE 19.0 mph30.6 kmh 29.48 in998.3 mb 0.20 in5.1 mm 0.00 in0.0 mm 1.28 in32.5 mm
02:57 AM 70.2°F21.2°C 67.1°F19.5°C 90% 10.7 mph ENE17.2 kmh ENE 19.0 mph30.6 kmh 29.48 in998.3 mb 0.19 in4.8 mm 0.00 in0.0 mm 1.28 in32.5 mm
02:58 AM 70.2°F21.2°C 67.1°F19.5°C 90% 7.6 mph ENE12.2 kmh ENE 19.0 mph30.6 kmh 29.47 in998.0 mb 0.17 in4.3 mm 0.00 in0.0 mm 1.28 in32.5 mm
03:00 AM 70.2°F21.2°C 67.1°F19.5°C 90% 14.5 mph E23.3 kmh E 23.5 mph37.8 kmh 29.47 in998.0 mb 0.16 in4.1 mm 0.00 in0.0 mm 1.28 in32.5 mm
03:01 AM 70.3°F21.3°C 67.3°F19.6°C 90% 13.6 mph E21.9 kmh E 23.5 mph37.8 kmh 29.46 in997.6 mb 0.16 in4.1 mm 0.00 in0.0 mm 1.28 in32.5 mm
03:02 AM 70.5°F21.4°C 67.5°F19.7°C 90% 9.8 mph E15.8 kmh E 23.5 mph37.8 kmh 29.47 in998.0 mb 0.14 in3.6 mm 0.00 in0.0 mm 1.28 in32.5 mm
03:03 AM 70.5°F21.4°C 67.5°F19.7°C 90% 10.7 mph ESE17.2 kmh ESE 23.5 mph37.8 kmh 29.46 in997.6 mb 0.14 in3.6 mm 0.00 in0.0 mm 1.28 in32.5 mm
03:04 AM 70.5°F21.4°C 67.5°F19.7°C 90% 11.4 mph ESE18.3 kmh ESE 23.5 mph37.8 kmh 29.46 in997.6 mb 0.13 in3.3 mm 0.00 in0.0 mm 1.28 in32.5 mm
03:05 AM 70.5°F21.4°C 67.5°F19.7°C 90% 13.0 mph E20.9 kmh E 23.5 mph37.8 kmh 29.46 in997.6 mb 0.13 in3.3 mm 0.00 in0.0 mm 1.28 in32.5 mm
03:07 AM 70.9°F21.6°C 67.5°F19.7°C 89% 15.9 mph E25.6 kmh E 23.5 mph37.8 kmh 29.45 in997.3 mb 0.13 in3.3 mm 0.00 in0.0 mm 1.28 in32.5 mm
03:08 AM 71.1°F21.7°C 67.7°F19.8°C 89% 16.8 mph E27.0 kmh E 23.5 mph37.8 kmh 29.46 in997.6 mb 0.13 in3.3 mm 0.00 in0.0 mm 1.30 in33.0 mm
03:09 AM 71.2°F21.8°C 67.9°F19.9°C 89% 13.0 mph E20.9 kmh E 25.1 mph40.4 kmh 29.46 in997.6 mb 0.13 in3.3 mm 0.00 in0.0 mm 1.30 in33.0 mm
03:10 AM 71.4°F21.9°C 67.7°F19.8°C 88% 12.1 mph E19.5 kmh E 25.1 mph40.4 kmh 29.45 in997.3 mb 0.13 in3.3 mm 0.00 in0.0 mm 1.30 in33.0 mm
03:11 AM 71.4°F21.9°C 67.7°F19.8°C 88% 12.1 mph E19.5 kmh E 25.1 mph40.4 kmh 29.45 in997.3 mb 0.13 in3.3 mm 0.00 in0.0 mm 1.30 in33.0 mm
03:13 AM 71.6°F22.0°C 67.2°F19.6°C 86% 8.3 mph E13.4 kmh E 25.0 mph40.2 kmh 29.47 in998.0 mb 0.13 in3.3 mm 0.00 in0.0 mm 1.30 in33.0 mm
03:14 AM 71.8°F22.1°C 67.4°F19.7°C 86% 12.1 mph E19.5 kmh E 25.0 mph40.2 kmh 29.48 in998.3 mb 0.13 in3.3 mm 0.00 in0.0 mm 1.30 in33.0 mm
03:15 AM 71.8°F22.1°C 67.4°F19.7°C 86% 10.7 mph E17.2 kmh E 25.0 mph40.2 kmh 29.47 in998.0 mb 0.13 in3.3 mm 0.00 in0.0 mm 1.30 in33.0 mm
03:16 AM 71.8°F22.1°C 67.4°F19.7°C 86% 10.7 mph E17.2 kmh E 25.0 mph40.2 kmh 29.48 in998.3 mb 0.12 in3.0 mm 0.00 in0.0 mm 1.30 in33.0 mm
03:17 AM 72.0°F22.2°C 67.6°F19.8°C 86% 9.8 mph E15.8 kmh E 25.0 mph40.2 kmh 29.48 in998.3 mb 0.12 in3.0 mm 0.00 in0.0 mm 1.30 in33.0 mm
03:18 AM 72.0°F22.2°C 67.2°F19.6°C 85% 14.5 mph E23.3 kmh E 25.0 mph40.2 kmh 29.48 in998.3 mb 0.12 in3.0 mm 0.00 in0.0 mm 1.30 in33.0 mm
03:20 AM 72.0°F22.2°C 67.2°F19.6°C 85% 8.3 mph E13.4 kmh E 22.1 mph35.6 kmh 29.48 in998.3 mb 0.10 in2.5 mm 0.00 in0.0 mm 1.30 in33.0 mm
03:21 AM 72.0°F22.2°C 66.9°F19.4°C 84% 12.1 mph E19.5 kmh E 24.4 mph39.3 kmh 29.48 in998.3 mb 0.10 in2.5 mm 0.00 in0.0 mm 1.30 in33.0 mm
03:22 AM 72.1°F22.3°C 67.1°F19.5°C 84% 9.2 mph ESE14.8 kmh ESE 24.4 mph39.3 kmh 29.49 in998.6 mb 0.10 in2.5 mm 0.00 in0.0 mm 1.30 in33.0 mm
03:23 AM 72.1°F22.3°C 67.1°F19.5°C 84% 9.8 mph SE15.8 kmh SE 24.4 mph39.3 kmh 29.49 in998.6 mb 0.10 in2.5 mm 0.00 in0.0 mm 1.30 in33.0 mm
03:24 AM 72.1°F22.3°C 67.1°F19.5°C 84% 5.4 mph SE8.7 kmh SE 24.4 mph39.3 kmh 29.50 in999.0 mb 0.10 in2.5 mm 0.00 in0.0 mm 1.30 in33.0 mm
03:25 AM 72.1°F22.3°C 67.1°F19.5°C 84% 9.2 mph SE14.8 kmh SE 24.4 mph39.3 kmh 29.49 in998.6 mb 0.09 in2.3 mm 0.00 in0.0 mm 1.30 in33.0 mm
03:26 AM 72.1°F22.3°C 66.7°F19.3°C 83% 9.8 mph SSE15.8 kmh SSE 24.4 mph39.3 kmh 29.49 in998.6 mb 0.09 in2.3 mm 0.00 in0.0 mm 1.30 in33.0 mm
03:28 AM 72.1°F22.3°C 66.7°F19.3°C 83% 10.7 mph SE17.2 kmh SE 24.4 mph39.3 kmh 29.49 in998.6 mb 0.07 in1.8 mm 0.00 in0.0 mm 1.30 in33.0 mm
03:29 AM 72.1°F22.3°C 66.7°F19.3°C 83% 9.8 mph SE15.8 kmh SE 24.4 mph39.3 kmh 29.50 in999.0 mb 0.07 in1.8 mm 0.00 in0.0 mm 1.30 in33.0 mm
03:30 AM 72.1°F22.3°C 66.7°F19.3°C 83% 9.2 mph ESE14.8 kmh ESE 24.4 mph39.3 kmh 29.50 in999.0 mb 0.07 in1.8 mm 0.00 in0.0 mm 1.30 in33.0 mm
03:31 AM 72.3°F22.4°C 66.9°F19.4°C 83% 9.8 mph ESE15.8 kmh ESE 24.4 mph39.3 kmh 29.50 in999.0 mb 0.07 in1.8 mm 0.00 in0.0 mm 1.30 in33.0 mm
03:32 AM 72.1°F22.3°C 66.7°F19.3°C 83% 9.2 mph ESE14.8 kmh ESE 22.1 mph35.6 kmh 29.50 in999.0 mb 0.07 in1.8 mm 0.00 in0.0 mm 1.31 in33.3 mm
03:33 AM 72.1°F22.3°C 66.7°F19.3°C 83% 10.7 mph ESE17.2 kmh ESE 22.1 mph35.6 kmh 29.51 in999.3 mb 0.07 in1.8 mm 0.00 in0.0 mm 1.31 in33.3 mm
03:35 AM 72.1°F22.3°C 66.7°F19.3°C 83% 8.3 mph SE13.4 kmh SE 20.6 mph33.2 kmh 29.52 in999.7 mb 0.07 in1.8 mm 0.00 in0.0 mm 1.31 in33.3 mm
03:36 AM 72.1°F22.3°C 66.7°F19.3°C 83% 6.9 mph ESE11.1 kmh ESE 20.6 mph33.2 kmh 29.52 in999.7 mb 0.06 in1.5 mm 0.00 in0.0 mm 1.31 in33.3 mm
03:37 AM 72.1°F22.3°C 66.7°F19.3°C 83% 13.0 mph E20.9 kmh E 21.3 mph34.3 kmh 29.52 in999.7 mb 0.06 in1.5 mm 0.00 in0.0 mm 1.31 in33.3 mm
03:38 AM 72.1°F22.3°C 66.7°F19.3°C 83% 6.9 mph E11.1 kmh E 21.3 mph34.3 kmh 29.53 in1000.0 mb 0.06 in1.5 mm 0.00 in0.0 mm 1.31 in33.3 mm
03:39 AM 72.1°F22.3°C 66.7°F19.3°C 83% 3.8 mph E6.1 kmh E 21.3 mph34.3 kmh 29.53 in1000.0 mb 0.04 in1.0 mm 0.00 in0.0 mm 1.31 in33.3 mm
03:40 AM 72.1°F22.3°C 67.1°F19.5°C 84% 5.4 mph E8.7 kmh E 21.3 mph34.3 kmh 29.53 in1000.0 mb 0.04 in1.0 mm 0.00 in0.0 mm 1.31 in33.3 mm
03:41 AM 72.1°F22.3°C 67.1°F19.5°C 84% 5.4 mph E8.7 kmh E 21.3 mph34.3 kmh 29.53 in1000.0 mb 0.04 in1.0 mm 0.00 in0.0 mm 1.31 in33.3 mm
03:43 AM 72.1°F22.3°C 67.1°F19.5°C 84% 13.0 mph ESE20.9 kmh ESE 21.3 mph34.3 kmh 29.53 in1000.0 mb 0.06 in1.5 mm 0.60 in15.2 mm 1.32 in33.5 mm
03:44 AM 72.1°F22.3°C 67.1°F19.5°C 84% 9.2 mph ESE14.8 kmh ESE 21.3 mph34.3 kmh 29.53 in1000.0 mb 0.06 in1.5 mm 0.00 in0.0 mm 1.32 in33.5 mm
03:45 AM 72.1°F22.3°C 67.4°F19.7°C 85% 6.9 mph E11.1 kmh E 21.3 mph34.3 kmh 29.54 in1000.3 mb 0.07 in1.8 mm 0.60 in15.2 mm 1.34 in34.0 mm
03:46 AM 72.1°F22.3°C 67.4°F19.7°C 85% 9.2 mph E14.8 kmh E 21.3 mph34.3 kmh 29.54 in1000.3 mb 0.07 in1.8 mm 0.00 in0.0 mm 1.34 in34.0 mm
03:47 AM 72.1°F22.3°C 67.4°F19.7°C 85% 6.0 mph E9.7 kmh E 21.3 mph34.3 kmh 29.55 in1000.7 mb 0.07 in1.8 mm 0.00 in0.0 mm 1.34 in34.0 mm
03:48 AM 72.1°F22.3°C 67.4°F19.7°C 85% 6.0 mph E9.7 kmh E 17.4 mph28.0 kmh 29.55 in1000.7 mb 0.07 in1.8 mm 0.00 in0.0 mm 1.34 in34.0 mm
03:50 AM 72.3°F22.4°C 67.9°F19.9°C 86% 8.3 mph E13.4 kmh E 17.5 mph28.2 kmh 29.53 in1000.0 mb 0.10 in2.5 mm 0.90 in22.9 mm 1.37 in34.8 mm
03:51 AM 72.3°F22.4°C 67.9°F19.9°C 86% 6.9 mph ENE11.1 kmh ENE 17.5 mph28.2 kmh 29.53 in1000.0 mb 0.10 in2.5 mm 0.00 in0.0 mm 1.38 in35.1 mm
03:52 AM 72.1°F22.3°C 67.8°F19.9°C 86% 6.9 mph ENE11.1 kmh ENE 17.5 mph28.2 kmh 29.52 in999.7 mb 0.10 in2.5 mm 0.00 in0.0 mm 1.38 in35.1 mm
03:53 AM 72.1°F22.3°C 67.8°F19.9°C 86% 5.4 mph NE8.7 kmh NE 17.5 mph28.2 kmh 29.52 in999.7 mb 0.10 in2.5 mm 0.00 in0.0 mm 1.38 in35.1 mm
03:54 AM 72.1°F22.3°C 67.8°F19.9°C 86% 9.2 mph NE14.8 kmh NE 17.5 mph28.2 kmh 29.53 in1000.0 mb 0.12 in3.0 mm 1.20 in30.5 mm 1.40 in35.6 mm
03:55 AM 72.1°F22.3°C 67.8°F19.9°C 86% 9.2 mph NE14.8 kmh NE 17.4 mph28.0 kmh 29.53 in1000.0 mb 0.12 in3.0 mm 0.00 in0.0 mm 1.40 in35.6 mm
03:57 AM 72.1°F22.3°C 68.1°F20.1°C 87% 6.0 mph ENE9.7 kmh ENE 14.5 mph23.3 kmh 29.52 in999.7 mb 0.13 in3.3 mm 0.30 in7.6 mm 1.41 in35.8 mm
03:58 AM 72.1°F22.3°C 68.1°F20.1°C 87% 8.3 mph E13.4 kmh E 19.0 mph30.6 kmh 29.52 in999.7 mb 0.13 in3.3 mm 0.00 in0.0 mm 1.41 in35.8 mm
03:59 AM 72.1°F22.3°C 68.1°F20.1°C 87% 7.6 mph E12.2 kmh E 19.0 mph30.6 kmh 29.51 in999.3 mb 0.13 in3.3 mm 0.00 in0.0 mm 1.41 in35.8 mm
04:00 AM 72.1°F22.3°C 68.4°F20.2°C 88% 6.9 mph E11.1 kmh E 19.0 mph30.6 kmh 29.51 in999.3 mb 0.14 in3.6 mm 0.01 in0.3 mm 1.43 in36.3 mm
04:01 AM 72.0°F22.2°C 68.2°F20.1°C 88% 6.0 mph ENE9.7 kmh ENE 19.0 mph30.6 kmh 29.52 in999.7 mb 0.14 in3.6 mm 0.00 in0.0 mm 1.43 in36.3 mm
04:02 AM 72.0°F22.2°C 68.2°F20.1°C 88% 6.0 mph E9.7 kmh E 19.0 mph30.6 kmh 29.52 in999.7 mb 0.14 in3.6 mm 0.00 in0.0 mm 1.43 in36.3 mm
04:04 AM 72.0°F22.2°C 68.2°F20.1°C 88% 8.3 mph ENE13.4 kmh ENE 19.0 mph30.6 kmh 29.52 in999.7 mb 0.14 in3.6 mm 0.00 in0.0 mm 1.43 in36.3 mm
04:05 AM 71.8°F22.1°C 68.1°F20.1°C 88% 6.9 mph ENE11.1 kmh ENE 19.0 mph30.6 kmh 29.52 in999.7 mb 0.14 in3.6 mm 0.00 in0.0 mm 1.43 in36.3 mm
04:06 AM 71.8°F22.1°C 68.1°F20.1°C 88% 6.0 mph ENE9.7 kmh ENE 19.0 mph30.6 kmh 29.51 in999.3 mb 0.16 in4.1 mm 1.20 in30.5 mm 1.44 in36.6 mm
04:07 AM 71.8°F22.1°C 68.4°F20.2°C 89% 5.4 mph ENE8.7 kmh ENE 19.0 mph30.6 kmh 29.52 in999.7 mb 0.14 in3.6 mm 0.00 in0.0 mm 1.44 in36.6 mm
04:08 AM 71.8°F22.1°C 68.4°F20.2°C 89% 7.6 mph ENE12.2 kmh ENE 19.0 mph30.6 kmh 29.52 in999.7 mb 0.14 in3.6 mm 0.00 in0.0 mm 1.44 in36.6 mm
04:09 AM 71.8°F22.1°C 68.4°F20.2°C 89% 4.5 mph ENE7.2 kmh ENE 15.2 mph24.5 kmh 29.52 in999.7 mb 0.14 in3.6 mm 0.00 in0.0 mm 1.44 in36.6 mm
04:11 AM 72.0°F22.2°C 68.6°F20.3°C 89% 9.2 mph ENE14.8 kmh ENE 18.3 mph29.5 kmh 29.54 in1000.3 mb 0.14 in3.6 mm 0.00 in0.0 mm 1.44 in36.6 mm
04:12 AM 72.0°F22.2°C 68.6°F20.3°C 89% 8.3 mph NE13.4 kmh NE 18.3 mph29.5 kmh 29.54 in1000.3 mb 0.14 in3.6 mm 0.00 in0.0 mm 1.44 in36.6 mm
04:13 AM 72.1°F22.3°C 68.8°F20.4°C 89% 11.4 mph ENE18.3 kmh ENE 18.3 mph29.5 kmh 29.53 in1000.0 mb 0.14 in3.6 mm 0.00 in0.0 mm 1.44 in36.6 mm
04:14 AM 72.1°F22.3°C 69.1°F20.6°C 90% 9.2 mph ENE14.8 kmh ENE 19.0 mph30.6 kmh 29.53 in1000.0 mb 0.14 in3.6 mm 0.00 in0.0 mm 1.44 in36.6 mm
04:15 AM 72.1°F22.3°C 69.1°F20.6°C 90% 13.0 mph ENE20.9 kmh ENE 19.0 mph30.6 kmh 29.53 in1000.0 mb 0.14 in3.6 mm 0.00 in0.0 mm 1.44 in36.6 mm
04:17 AM 72.3°F22.4°C 69.3°F20.7°C 90% 9.8 mph ENE15.8 kmh ENE 19.0 mph30.6 kmh 29.52 in999.7 mb 0.14 in3.6 mm 0.00 in0.0 mm 1.44 in36.6 mm
04:18 AM 72.5°F22.5°C 69.4°F20.8°C 90% 11.4 mph NE18.3 kmh NE 19.0 mph30.6 kmh 29.52 in999.7 mb 0.14 in3.6 mm 0.00 in0.0 mm 1.44 in36.6 mm
04:19 AM 72.5°F22.5°C 69.4°F20.8°C 90% 6.9 mph NE11.1 kmh NE 19.0 mph30.6 kmh 29.51 in999.3 mb 0.14 in3.6 mm 0.00 in0.0 mm 1.44 in36.6 mm
04:20 AM 72.5°F22.5°C 69.4°F20.8°C 90% 6.9 mph NE11.1 kmh NE 19.0 mph30.6 kmh 29.51 in999.3 mb 0.14 in3.6 mm 0.00 in0.0 mm 1.44 in36.6 mm
04:21 AM 72.5°F22.5°C 69.4°F20.8°C 90% 8.3 mph NE13.4 kmh NE 19.0 mph30.6 kmh 29.51 in999.3 mb 0.14 in3.6 mm 0.00 in0.0 mm 1.44 in36.6 mm
04:22 AM 72.5°F22.5°C 69.1°F20.6°C 89% 10.7 mph NE17.2 kmh NE 19.0 mph30.6 kmh 29.50 in999.0 mb 0.14 in3.6 mm 0.00 in0.0 mm 1.44 in36.6 mm
04:24 AM 72.5°F22.5°C 69.1°F20.6°C 89% 9.2 mph NE14.8 kmh NE 19.0 mph30.6 kmh 29.50 in999.0 mb 0.14 in3.6 mm 0.00 in0.0 mm 1.44 in36.6 mm
04:25 AM 72.5°F22.5°C 69.1°F20.6°C 89% 10.7 mph ENE17.2 kmh ENE 19.0 mph30.6 kmh 29.50 in999.0 mb 0.14 in3.6 mm 0.00 in0.0 mm 1.44 in36.6 mm
04:26 AM 72.3°F22.4°C 68.9°F20.5°C 89% 12.1 mph ENE19.5 kmh ENE 19.0 mph30.6 kmh 29.50 in999.0 mb 0.14 in3.6 mm 0.00 in0.0 mm 1.44 in36.6 mm
04:27 AM 72.3°F22.4°C 68.9°F20.5°C 89% 10.7 mph ENE17.2 kmh ENE 19.0 mph30.6 kmh 29.50 in999.0 mb 0.14 in3.6 mm 0.00 in0.0 mm 1.44 in36.6 mm
04:28 AM 72.3°F22.4°C 68.9°F20.5°C 89% 13.0 mph NE20.9 kmh NE 19.0 mph30.6 kmh 29.50 in999.0 mb 0.14 in3.6 mm 0.00 in0.0 mm 1.44 in36.6 mm
04:29 AM 72.3°F22.4°C 68.9°F20.5°C 89% 11.4 mph ENE18.3 kmh ENE 19.0 mph30.6 kmh 29.49 in998.6 mb 0.14 in3.6 mm 0.00 in0.0 mm 1.44 in36.6 mm
04:31 AM 72.3°F22.4°C 68.9°F20.5°C 89% 14.5 mph ENE23.3 kmh ENE 20.6 mph33.2 kmh 29.50 in999.0 mb 0.13 in3.3 mm 0.00 in0.0 mm 1.44 in36.6 mm
04:32 AM 72.3°F22.4°C 68.9°F20.5°C 89% 9.2 mph ENE14.8 kmh ENE 20.6 mph33.2 kmh 29.50 in999.0 mb 0.13 in3.3 mm 0.00 in0.0 mm 1.44 in36.6 mm
04:33 AM 72.3°F22.4°C 68.9°F20.5°C 89% 12.1 mph ENE19.5 kmh ENE 21.3 mph34.3 kmh 29.49 in998.6 mb 0.13 in3.3 mm 0.00 in0.0 mm 1.44 in36.6 mm
04:34 AM 72.1°F22.3°C 68.8°F20.4°C 89% 9.8 mph ENE15.8 kmh ENE 21.3 mph34.3 kmh 29.50 in999.0 mb 0.13 in3.3 mm 0.00 in0.0 mm 1.44 in36.6 mm
04:35 AM 72.1°F22.3°C 68.8°F20.4°C 89% 7.6 mph ENE12.2 kmh ENE 21.3 mph34.3 kmh 29.49 in998.6 mb 0.13 in3.3 mm 0.00 in0.0 mm 1.44 in36.6 mm
04:36 AM 72.1°F22.3°C 68.8°F20.4°C 89% 6.9 mph ENE11.1 kmh ENE 21.3 mph34.3 kmh 29.49 in998.6 mb 0.13 in3.3 mm 0.00 in0.0 mm 1.44 in36.6 mm
04:37 AM 72.1°F22.3°C 68.8°F20.4°C 89% 9.2 mph ENE14.8 kmh ENE 21.3 mph34.3 kmh 29.49 in998.6 mb 0.13 in3.3 mm 0.00 in0.0 mm 1.44 in36.6 mm
04:39 AM 72.1°F22.3°C 68.8°F20.4°C 89% 10.7 mph ENE17.2 kmh ENE 22.1 mph35.6 kmh 29.48 in998.3 mb 0.13 in3.3 mm 0.00 in0.0 mm 1.44 in36.6 mm
04:40 AM 72.1°F22.3°C 68.8°F20.4°C 89% 11.4 mph ENE18.3 kmh ENE 22.1 mph35.6 kmh 29.48 in998.3 mb 0.13 in3.3 mm 0.00 in0.0 mm 1.44 in36.6 mm
04:41 AM 72.1°F22.3°C 68.8°F20.4°C 89% 8.3 mph E13.4 kmh E 22.1 mph35.6 kmh 29.47 in998.0 mb 0.12 in3.0 mm 0.00 in0.0 mm 1.44 in36.6 mm
04:42 AM 72.1°F22.3°C 68.8°F20.4°C 89% 9.2 mph ENE14.8 kmh ENE 22.1 mph35.6 kmh 29.48 in998.3 mb 0.12 in3.0 mm 0.00 in0.0 mm 1.44 in36.6 mm
04:43 AM 72.1°F22.3°C 68.8°F20.4°C 89% 8.3 mph E13.4 kmh E 22.1 mph35.6 kmh 29.48 in998.3 mb 0.12 in3.0 mm 0.00 in0.0 mm 1.44 in36.6 mm
04:44 AM 72.1°F22.3°C 68.8°F20.4°C 89% 6.0 mph E9.7 kmh E 22.1 mph35.6 kmh 29.48 in998.3 mb 0.10 in2.5 mm 0.00 in0.0 mm 1.44 in36.6 mm
04:46 AM 72.1°F22.3°C 68.8°F20.4°C 89% 9.8 mph E15.8 kmh E 17.4 mph28.0 kmh 29.48 in998.3 mb 0.10 in2.5 mm 0.00 in0.0 mm 1.44 in36.6 mm
04:47 AM 72.1°F22.3°C 68.8°F20.4°C 89% 9.8 mph E15.8 kmh E 17.4 mph28.0 kmh 29.47 in998.0 mb 0.10 in2.5 mm 0.00 in0.0 mm 1.44 in36.6 mm
04:48 AM 72.0°F22.2°C 68.6°F20.3°C 89% 8.3 mph E13.4 kmh E 25.1 mph40.4 kmh 29.47 in998.0 mb 0.07 in1.8 mm 0.00 in0.0 mm 1.44 in36.6 mm
04:49 AM 72.0°F22.2°C 68.6°F20.3°C 89% 9.8 mph ENE15.8 kmh ENE 25.1 mph40.4 kmh 29.47 in998.0 mb 0.07 in1.8 mm 0.00 in0.0 mm 1.44 in36.6 mm
04:50 AM 72.0°F22.2°C 68.6°F20.3°C 89% 10.7 mph ENE17.2 kmh ENE 25.1 mph40.4 kmh 29.47 in998.0 mb 0.06 in1.5 mm 0.00 in0.0 mm 1.44 in36.6 mm
04:51 AM 72.0°F22.2°C 68.6°F20.3°C 89% 8.3 mph E13.4 kmh E 25.1 mph40.4 kmh 29.47 in998.0 mb 0.06 in1.5 mm 0.00 in0.0 mm 1.44 in36.6 mm
04:52 AM 72.0°F22.2°C 68.6°F20.3°C 89% 8.3 mph E13.4 kmh E 25.1 mph40.4 kmh 29.47 in998.0 mb 0.06 in1.5 mm 0.00 in0.0 mm 1.44 in36.6 mm
04:54 AM 72.0°F22.2°C 68.6°F20.3°C 89% 5.4 mph E8.7 kmh E 25.0 mph40.2 kmh 29.47 in998.0 mb 0.04 in1.0 mm 0.00 in0.0 mm 1.44 in36.6 mm
04:55 AM 72.0°F22.2°C 68.6°F20.3°C 89% 5.4 mph E8.7 kmh E 25.0 mph40.2 kmh 29.47 in998.0 mb 0.03 in0.8 mm 0.00 in0.0 mm 1.44 in36.6 mm
04:56 AM 72.0°F22.2°C 68.6°F20.3°C 89% 5.4 mph E8.7 kmh E 25.0 mph40.2 kmh 29.48 in998.3 mb 0.03 in0.8 mm 0.00 in0.0 mm 1.44 in36.6 mm
04:57 AM 72.0°F22.2°C 68.6°F20.3°C 89% 6.9 mph E11.1 kmh E 25.0 mph40.2 kmh 29.48 in998.3 mb 0.03 in0.8 mm 0.00 in0.0 mm 1.44 in36.6 mm
04:58 AM 72.0°F22.2°C 68.6°F20.3°C 89% 6.9 mph E11.1 kmh E 25.0 mph40.2 kmh 29.48 in998.3 mb 0.03 in0.8 mm 0.00 in0.0 mm 1.44 in36.6 mm
04:59 AM 72.0°F22.2°C 68.6°F20.3°C 89% 6.9 mph E11.1 kmh E 15.2 mph24.5 kmh 29.48 in998.3 mb 0.01 in0.3 mm 0.00 in0.0 mm 1.44 in36.6 mm
05:01 AM 72.0°F22.2°C 68.6°F20.3°C 89% 7.6 mph E12.2 kmh E 15.2 mph24.5 kmh 29.49 in998.6 mb 0.01 in0.3 mm 0.00 in0.0 mm 1.44 in36.6 mm
05:02 AM 72.0°F22.2°C 68.6°F20.3°C 89% 7.6 mph E12.2 kmh E 15.2 mph24.5 kmh 29.50 in999.0 mb 0.01 in0.3 mm 0.00 in0.0 mm 1.44 in36.6 mm
05:03 AM 72.0°F22.2°C 68.6°F20.3°C 89% 7.6 mph E12.2 kmh E 15.2 mph24.5 kmh 29.50 in999.0 mb 0.01 in0.3 mm 0.00 in0.0 mm 1.44 in36.6 mm
05:04 AM 72.0°F22.2°C 68.6°F20.3°C 89% 7.6 mph E12.2 kmh E 15.2 mph24.5 kmh 29.50 in999.0 mb 0.01 in0.3 mm 0.00 in0.0 mm 1.44 in36.6 mm
05:05 AM 72.0°F22.2°C 68.6°F20.3°C 89% 7.6 mph E12.2 kmh E 15.2 mph24.5 kmh 29.50 in999.0 mb 0.00 in0.0 mm 0.00 in0.0 mm 1.44 in36.6 mm
05:06 AM 72.0°F22.2°C 68.6°F20.3°C 89% 7.6 mph E12.2 kmh E 15.2 mph24.5 kmh 29.50 in999.0 mb 0.00 in0.0 mm 0.00 in0.0 mm 1.44 in36.6 mm
05:08 AM 72.0°F22.2°C 68.6°F20.3°C 89% 7.6 mph E12.2 kmh E 15.2 mph24.5 kmh 29.50 in999.0 mb 0.00 in0.0 mm 0.00 in0.0 mm 1.44 in36.6 mm
05:09 AM 72.0°F22.2°C 68.6°F20.3°C 89% 7.6 mph E12.2 kmh E 15.2 mph24.5 kmh 29.50 in999.0 mb 0.00 in0.0 mm 0.00 in0.0 mm 1.44 in36.6 mm
05:10 AM 72.0°F22.2°C 68.6°F20.3°C 89% 7.6 mph E12.2 kmh E 15.2 mph24.5 kmh 29.49 in998.6 mb 0.00 in0.0 mm 0.00 in0.0 mm 1.44 in36.6 mm
05:11 AM 72.0°F22.2°C 68.6°F20.3°C 89% 7.6 mph E12.2 kmh E 15.2 mph24.5 kmh 29.50 in999.0 mb 0.00 in0.0 mm 0.00 in0.0 mm 1.44 in36.6 mm
05:12 AM 72.0°F22.2°C 68.6°F20.3°C 89% 7.6 mph E12.2 kmh E 15.2 mph24.5 kmh 29.50 in999.0 mb 0.00 in0.0 mm 0.00 in0.0 mm 1.44 in36.6 mm
05:13 AM 72.5°F22.5°C 68.8°F20.4°C 88% 4.5 mph E7.2 kmh E 11.4 mph18.3 kmh 29.50 in999.0 mb 0.00 in0.0 mm 0.00 in0.0 mm 1.44 in36.6 mm
05:15 AM 72.7°F22.6°C 69.0°F20.6°C 88% 5.4 mph E8.7 kmh E 11.4 mph18.3 kmh 29.50 in999.0 mb 0.00 in0.0 mm 0.00 in0.0 mm 1.44 in36.6 mm
05:16 AM 72.7°F22.6°C 69.0°F20.6°C 88% 4.5 mph E7.2 kmh E 11.4 mph18.3 kmh 29.51 in999.3 mb 0.00 in0.0 mm 0.00 in0.0 mm 1.44 in36.6 mm
05:17 AM 72.7°F22.6°C 69.0°F20.6°C 88% 8.3 mph E13.4 kmh E 13.0 mph20.9 kmh 29.51 in999.3 mb 0.00 in0.0 mm 0.00 in0.0 mm 1.44 in36.6 mm
05:18 AM 72.7°F22.6°C 68.6°F20.3°C 87% 3.8 mph ENE6.1 kmh ENE 13.0 mph20.9 kmh 29.51 in999.3 mb 0.00 in0.0 mm 0.00 in0.0 mm 1.44 in36.6 mm
05:19 AM 72.9°F22.7°C 68.8°F20.4°C 87% 6.0 mph ENE9.7 kmh ENE 13.0 mph20.9 kmh 29.51 in999.3 mb 0.00 in0.0 mm 0.00 in0.0 mm 1.44 in36.6 mm
05:20 AM 72.9°F22.7°C 68.8°F20.4°C 87% 3.8 mph E6.1 kmh E 13.0 mph20.9 kmh 29.51 in999.3 mb 0.00 in0.0 mm 0.00 in0.0 mm 1.44 in36.6 mm
05:21 AM 72.9°F22.7°C 68.8°F20.4°C 87% 6.0 mph E9.7 kmh E 13.0 mph20.9 kmh 29.50 in999.0 mb 0.00 in0.0 mm 0.00 in0.0 mm 1.44 in36.6 mm
05:23 AM 73.0°F22.8°C 68.6°F20.3°C 86% 5.4 mph ENE8.7 kmh ENE 15.2 mph24.5 kmh 29.51 in999.3 mb 0.00 in0.0 mm 0.00 in0.0 mm 1.44 in36.6 mm
05:24 AM 73.0°F22.8°C 68.6°F20.3°C 86% 5.4 mph ENE8.7 kmh ENE 15.2 mph24.5 kmh 29.51 in999.3 mb 0.00 in0.0 mm 0.00 in0.0 mm 1.44 in36.6 mm
05:25 AM 73.0°F22.8°C 68.6°F20.3°C 86% 6.0 mph ENE9.7 kmh ENE 15.2 mph24.5 kmh 29.50 in999.0 mb 0.00 in0.0 mm 0.00 in0.0 mm 1.44 in36.6 mm
05:26 AM 73.0°F22.8°C 68.6°F20.3°C 86% 4.5 mph ENE7.2 kmh ENE 15.2 mph24.5 kmh 29.51 in999.3 mb 0.00 in0.0 mm 0.00 in0.0 mm 1.44 in36.6 mm
05:27 AM 73.0°F22.8°C 68.3°F20.2°C 85% 3.8 mph NE6.1 kmh NE 15.2 mph24.5 kmh 29.51 in999.3 mb 0.00 in0.0 mm 0.00 in0.0 mm 1.44 in36.6 mm
05:28 AM 73.0°F22.8°C 68.3°F20.2°C 85% 3.8 mph NE6.1 kmh NE 15.2 mph24.5 kmh 29.51 in999.3 mb 0.00 in0.0 mm 0.00 in0.0 mm 1.44 in36.6 mm
05:29 AM 73.0°F22.8°C 68.3°F20.2°C 85% 6.9 mph NE11.1 kmh NE 15.2 mph24.5 kmh 29.51 in999.3 mb 0.00 in0.0 mm 0.00 in0.0 mm 1.44 in36.6 mm
05:31 AM 73.2°F22.9°C 68.5°F20.3°C 85% 6.9 mph NE11.1 kmh NE 10.7 mph17.2 kmh 29.51 in999.3 mb 0.00 in0.0 mm 0.00 in0.0 mm 1.44 in36.6 mm
05:32 AM 73.2°F22.9°C 68.5°F20.3°C 85% 6.9 mph NE11.1 kmh NE 12.1 mph19.5 kmh 29.51 in999.3 mb 0.00 in0.0 mm 0.00 in0.0 mm 1.44 in36.6 mm
05:33 AM 73.4°F23.0°C 69.0°F20.6°C 86% 4.5 mph NE7.2 kmh NE 12.1 mph19.5 kmh 29.51 in999.3 mb 0.00 in0.0 mm 0.00 in0.0 mm 1.44 in36.6 mm
05:34 AM 73.4°F23.0°C 69.0°F20.6°C 86% 6.0 mph NE9.7 kmh NE 15.9 mph25.6 kmh 29.52 in999.7 mb 0.00 in0.0 mm 0.00 in0.0 mm 1.44 in36.6 mm
05:35 AM 73.6°F23.1°C 69.2°F20.7°C 86% 6.9 mph NE11.1 kmh NE 15.9 mph25.6 kmh 29.52 in999.7 mb 0.00 in0.0 mm 0.00 in0.0 mm 1.44 in36.6 mm
05:36 AM 73.6°F23.1°C 69.2°F20.7°C 86% 6.9 mph NE11.1 kmh NE 15.9 mph25.6 kmh 29.52 in999.7 mb 0.00 in0.0 mm 0.00 in0.0 mm 1.44 in36.6 mm
05:38 AM 73.8°F23.2°C 69.0°F20.6°C 85% 6.9 mph NE11.1 kmh NE 13.0 mph20.9 kmh 29.52 in999.7 mb 0.00 in0.0 mm 0.00 in0.0 mm 1.44 in36.6 mm
05:39 AM 73.9°F23.3°C 69.2°F20.7°C 85% 5.4 mph NE8.7 kmh NE 13.0 mph20.9 kmh 29.52 in999.7 mb 0.00 in0.0 mm 0.00 in0.0 mm 1.44 in36.6 mm
05:40 AM 73.9°F23.3°C 69.2°F20.7°C 85% 3.8 mph NE6.1 kmh NE 13.0 mph20.9 kmh 29.52 in999.7 mb 0.00 in0.0 mm 0.00 in0.0 mm 1.44 in36.6 mm
05:41 AM 73.9°F23.3°C 69.2°F20.7°C 85% 5.4 mph NE8.7 kmh NE 13.0 mph20.9 kmh 29.52 in999.7 mb 0.00 in0.0 mm 0.00 in0.0 mm 1.44 in36.6 mm
05:42 AM 73.9°F23.3°C 69.2°F20.7°C 85% 7.6 mph NE12.2 kmh NE 13.0 mph20.9 kmh 29.52 in999.7 mb 0.00 in0.0 mm 0.00 in0.0 mm 1.44 in36.6 mm
05:43 AM 73.9°F23.3°C 69.2°F20.7°C 85% 6.9 mph NE11.1 kmh NE 13.0 mph20.9 kmh 29.52 in999.7 mb 0.00 in0.0 mm 0.00 in0.0 mm 1.44 in36.6 mm
05:45 AM 73.9°F23.3°C 69.2°F20.7°C 85% 4.5 mph ENE7.2 kmh ENE 13.0 mph20.9 kmh 29.52 in999.7 mb 0.00 in0.0 mm 0.00 in0.0 mm 1.44 in36.6 mm
05:46 AM 73.8°F23.2°C 69.0°F20.6°C 85% 5.4 mph E8.7 kmh E 13.0 mph20.9 kmh 29.53 in1000.0 mb 0.00 in0.0 mm 0.00 in0.0 mm 1.44 in36.6 mm
05:47 AM 73.8°F23.2°C 69.0°F20.6°C 85% 4.5 mph ENE7.2 kmh ENE 12.1 mph19.5 kmh 29.53 in1000.0 mb 0.00 in0.0 mm 0.00 in0.0 mm 1.44 in36.6 mm
05:48 AM 73.8°F23.2°C 69.0°F20.6°C 85% 4.5 mph E7.2 kmh E 12.1 mph19.5 kmh 29.53 in1000.0 mb 0.00 in0.0 mm 0.00 in0.0 mm 1.44 in36.6 mm
05:49 AM 73.8°F23.2°C 69.0°F20.6°C 85% 3.1 mph E5.0 kmh E 12.1 mph19.5 kmh 29.53 in1000.0 mb 0.00 in0.0 mm 0.00 in0.0 mm 1.44 in36.6 mm
05:50 AM 73.8°F23.2°C 69.0°F20.6°C 85% 8.3 mph ENE13.4 kmh ENE 12.1 mph19.5 kmh 29.53 in1000.0 mb 0.00 in0.0 mm 0.00 in0.0 mm 1.44 in36.6 mm
05:51 AM 73.8°F23.2°C 69.0°F20.6°C 85% 4.5 mph ENE7.2 kmh ENE 12.1 mph19.5 kmh 29.52 in999.7 mb 0.00 in0.0 mm 0.00 in0.0 mm 1.44 in36.6 mm
05:53 AM 73.6°F23.1°C 68.8°F20.4°C 85% 8.3 mph ENE13.4 kmh ENE 13.6 mph21.9 kmh 29.53 in1000.0 mb 0.01 in0.3 mm 0.30 in7.6 mm 1.45 in36.8 mm
05:54 AM 73.6°F23.1°C 68.8°F20.4°C 85% 8.3 mph NE13.4 kmh NE 13.6 mph21.9 kmh 29.53 in1000.0 mb 0.01 in0.3 mm 0.00 in0.0 mm 1.45 in36.8 mm
05:55 AM 73.6°F23.1°C 68.8°F20.4°C 85% 7.6 mph NE12.2 kmh NE 13.6 mph21.9 kmh 29.53 in1000.0 mb 0.01 in0.3 mm 0.00 in0.0 mm 1.45 in36.8 mm
05:56 AM 73.6°F23.1°C 68.8°F20.4°C 85% 8.3 mph NE13.4 kmh NE 16.8 mph27.0 kmh 29.52 in999.7 mb 0.01 in0.3 mm 0.00 in0.0 mm 1.45 in36.8 mm
05:57 AM 73.6°F23.1°C 68.8°F20.4°C 85% 8.3 mph NE13.4 kmh NE 16.8 mph27.0 kmh 29.52 in999.7 mb 0.01 in0.3 mm 0.00 in0.0 mm 1.45 in36.8 mm
05:58 AM 73.6°F23.1°C 68.8°F20.4°C 85% 7.6 mph NE12.2 kmh NE 16.8 mph27.0 kmh 29.52 in999.7 mb 0.01 in0.3 mm 0.00 in0.0 mm 1.45 in36.8 mm
05:59 AM 73.6°F23.1°C 68.8°F20.4°C 85% 9.2 mph NE14.8 kmh NE 18.3 mph29.5 kmh 29.52 in999.7 mb 0.01 in0.3 mm 0.00 in0.0 mm 1.45 in36.8 mm
06:00 AM 73.6°F23.1°C 68.8°F20.4°C 85% 9.2 mph NE14.8 kmh NE 18.3 mph29.5 kmh 29.52 in999.7 mb 0.01 in0.3 mm 0.00 in0.0 mm 1.45 in36.8 mm
06:02 AM 73.6°F23.1°C 68.8°F20.4°C 85% 6.9 mph ENE11.1 kmh ENE 18.3 mph29.5 kmh 29.52 in999.7 mb 0.01 in0.3 mm 0.00 in0.0 mm 1.45 in36.8 mm
06:03 AM 73.6°F23.1°C 68.8°F20.4°C 85% 9.2 mph ENE14.8 kmh ENE 18.3 mph29.5 kmh 29.51 in999.3 mb 0.01 in0.3 mm 0.00 in0.0 mm 1.45 in36.8 mm
06:04 AM 73.6°F23.1°C 68.8°F20.4°C 85% 9.2 mph ENE14.8 kmh ENE 18.3 mph29.5 kmh 29.52 in999.7 mb 0.01 in0.3 mm 0.00 in0.0 mm 1.45 in36.8 mm
06:05 AM 73.6°F23.1°C 68.8°F20.4°C 85% 10.7 mph ENE17.2 kmh ENE 18.3 mph29.5 kmh 29.52 in999.7 mb 0.01 in0.3 mm 0.00 in0.0 mm 1.45 in36.8 mm
06:06 AM 73.6°F23.1°C 68.8°F20.4°C 85% 4.5 mph ENE7.2 kmh ENE 18.3 mph29.5 kmh 29.51 in999.3 mb 0.01 in0.3 mm 0.00 in0.0 mm 1.45 in36.8 mm
06:07 AM 73.6°F23.1°C 68.8°F20.4°C 85% 6.9 mph NE11.1 kmh NE 18.3 mph29.5 kmh 29.52 in999.7 mb 0.01 in0.3 mm 0.00 in0.0 mm 1.45 in36.8 mm
06:08 AM 73.6°F23.1°C 68.8°F20.4°C 85% 6.9 mph NE11.1 kmh NE 18.3 mph29.5 kmh 29.52 in999.7 mb 0.01 in0.3 mm 0.00 in0.0 mm 1.45 in36.8 mm
06:10 AM 73.6°F23.1°C 68.8°F20.4°C 85% 11.4 mph NE18.3 kmh NE 20.6 mph33.2 kmh 29.52 in999.7 mb 0.01 in0.3 mm 0.00 in0.0 mm 1.45 in36.8 mm
06:11 AM 73.8°F23.2°C 69.0°F20.6°C 85% 8.3 mph NE13.4 kmh NE 20.6 mph33.2 kmh 29.52 in999.7 mb 0.01 in0.3 mm 0.00 in0.0 mm 1.45 in36.8 mm
06:12 AM 73.8°F23.2°C 69.0°F20.6°C 85% 6.9 mph NE11.1 kmh NE 20.6 mph33.2 kmh 29.52 in999.7 mb 0.01 in0.3 mm 0.00 in0.0 mm 1.45 in36.8 mm
06:13 AM 73.8°F23.2°C 69.0°F20.6°C 85% 6.0 mph NE9.7 kmh NE 20.6 mph33.2 kmh 29.52 in999.7 mb 0.01 in0.3 mm 0.00 in0.0 mm 1.45 in36.8 mm
06:14 AM 73.8°F23.2°C 69.0°F20.6°C 85% 5.4 mph NE8.7 kmh NE 20.6 mph33.2 kmh 29.52 in999.7 mb 0.01 in0.3 mm 0.00 in0.0 mm 1.45 in36.8 mm
06:15 AM 73.8°F23.2°C 69.0°F20.6°C 85% 4.5 mph NE7.2 kmh NE 20.6 mph33.2 kmh 29.52 in999.7 mb 0.01 in0.3 mm 0.00 in0.0 mm 1.45 in36.8 mm
06:16 AM 73.8°F23.2°C 69.0°F20.6°C 85% 4.5 mph NE7.2 kmh NE 20.6 mph33.2 kmh 29.52 in999.7 mb 0.01 in0.3 mm 0.00 in0.0 mm 1.45 in36.8 mm
06:18 AM 73.6°F23.1°C 68.8°F20.4°C 85% 7.6 mph ENE12.2 kmh ENE 20.6 mph33.2 kmh 29.52 in999.7 mb 0.03 in0.8 mm 0.60 in15.2 mm 1.47 in37.3 mm
06:19 AM 73.6°F23.1°C 68.8°F20.4°C 85% 6.0 mph ENE9.7 kmh ENE 20.6 mph33.2 kmh 29.52 in999.7 mb 0.03 in0.8 mm 0.00 in0.0 mm 1.47 in37.3 mm
06:20 AM 73.6°F23.1°C 68.8°F20.4°C 85% 7.6 mph ENE12.2 kmh ENE 20.6 mph33.2 kmh 29.52 in999.7 mb 0.03 in0.8 mm 0.00 in0.0 mm 1.47 in37.3 mm
06:21 AM 73.6°F23.1°C 68.8°F20.4°C 85% 8.3 mph ENE13.4 kmh ENE 14.5 mph23.3 kmh 29.51 in999.3 mb 0.03 in0.8 mm 0.00 in0.0 mm 1.47 in37.3 mm
06:22 AM 73.6°F23.1°C 68.8°F20.4°C 85% 7.6 mph ENE12.2 kmh ENE 14.5 mph23.3 kmh 29.50 in999.0 mb 0.03 in0.8 mm 0.00 in0.0 mm 1.47 in37.3 mm
06:23 AM 73.6°F23.1°C 68.8°F20.4°C 85% 12.1 mph ENE19.5 kmh ENE 17.4 mph28.0 kmh 29.51 in999.3 mb 0.03 in0.8 mm 0.00 in0.0 mm 1.47 in37.3 mm
06:25 AM 73.6°F23.1°C 68.8°F20.4°C 85% 7.6 mph NE12.2 kmh NE 17.5 mph28.2 kmh 29.50 in999.0 mb 0.03 in0.8 mm 0.00 in0.0 mm 1.47 in37.3 mm
06:26 AM 73.8°F23.2°C 69.0°F20.6°C 85% 6.9 mph NE11.1 kmh NE 17.5 mph28.2 kmh 29.50 in999.0 mb 0.03 in0.8 mm 0.00 in0.0 mm 1.47 in37.3 mm
06:27 AM 73.8°F23.2°C 69.0°F20.6°C 85% 11.4 mph NE18.3 kmh NE 17.5 mph28.2 kmh 29.50 in999.0 mb 0.03 in0.8 mm 0.00 in0.0 mm 1.47 in37.3 mm
06:28 AM 73.8°F23.2°C 69.0°F20.6°C 85% 7.6 mph NE12.2 kmh NE 17.5 mph28.2 kmh 29.51 in999.3 mb 0.03 in0.8 mm 0.00 in0.0 mm 1.47 in37.3 mm
06:29 AM 73.8°F23.2°C 69.0°F20.6°C 85% 7.6 mph NE12.2 kmh NE 17.5 mph28.2 kmh 29.50 in999.0 mb 0.03 in0.8 mm 0.00 in0.0 mm 1.47 in37.3 mm
06:30 AM 73.8°F23.2°C 69.0°F20.6°C 85% 8.3 mph NE13.4 kmh NE 17.5 mph28.2 kmh 29.51 in999.3 mb 0.03 in0.8 mm 0.00 in0.0 mm 1.47 in37.3 mm
06:31 AM 73.8°F23.2°C 69.0°F20.6°C 85% 6.0 mph NE9.7 kmh NE 17.5 mph28.2 kmh 29.50 in999.0 mb 0.03 in0.8 mm 0.00 in0.0 mm 1.47 in37.3 mm
06:32 AM 73.8°F23.2°C 69.0°F20.6°C 85% 4.5 mph NE7.2 kmh NE 17.5 mph28.2 kmh 29.51 in999.3 mb 0.03 in0.8 mm 0.00 in0.0 mm 1.47 in37.3 mm
06:33 AM 73.8°F23.2°C 69.0°F20.6°C 85% 4.5 mph NE7.2 kmh NE 17.5 mph28.2 kmh 29.51 in999.3 mb 0.03 in0.8 mm 0.00 in0.0 mm 1.47 in37.3 mm
06:34 AM 73.8°F23.2°C 69.0°F20.6°C 85% 8.3 mph NE13.4 kmh NE 15.9 mph25.6 kmh 29.51 in999.3 mb 0.03 in0.8 mm 0.00 in0.0 mm 1.47 in37.3 mm
06:35 AM 73.8°F23.2°C 69.0°F20.6°C 85% 6.0 mph ENE9.7 kmh ENE 15.9 mph25.6 kmh 29.52 in999.7 mb 0.03 in0.8 mm 0.00 in0.0 mm 1.47 in37.3 mm
06:36 AM 73.8°F23.2°C 68.7°F20.4°C 84% 7.6 mph NE12.2 kmh NE 16.8 mph27.0 kmh 29.52 in999.7 mb 0.03 in0.8 mm 0.00 in0.0 mm 1.47 in37.3 mm
06:37 AM 73.8°F23.2°C 68.7°F20.4°C 84% 7.6 mph NE12.2 kmh NE 16.8 mph27.0 kmh 29.52 in999.7 mb 0.03 in0.8 mm 0.00 in0.0 mm 1.47 in37.3 mm
06:38 AM 73.8°F23.2°C 68.7°F20.4°C 84% 6.0 mph NE9.7 kmh NE 16.8 mph27.0 kmh 29.52 in999.7 mb 0.03 in0.8 mm 0.00 in0.0 mm 1.47 in37.3 mm
06:39 AM 73.8°F23.2°C 68.7°F20.4°C 84% 6.0 mph NE9.7 kmh NE 16.8 mph27.0 kmh 29.51 in999.3 mb 0.03 in0.8 mm 0.00 in0.0 mm 1.47 in37.3 mm
06:40 AM 73.9°F23.3°C 68.8°F20.4°C 84% 8.3 mph ENE13.4 kmh ENE 16.8 mph27.0 kmh 29.52 in999.7 mb 0.03 in0.8 mm 0.00 in0.0 mm 1.47 in37.3 mm
06:42 AM 73.9°F23.3°C 68.8°F20.4°C 84% 6.9 mph NE11.1 kmh NE 16.8 mph27.0 kmh 29.51 in999.3 mb 0.03 in0.8 mm 0.00 in0.0 mm 1.47 in37.3 mm
06:43 AM 73.9°F23.3°C 68.8°F20.4°C 84% 3.8 mph NE6.1 kmh NE 16.8 mph27.0 kmh 29.52 in999.7 mb 0.03 in0.8 mm 0.00 in0.0 mm 1.47 in37.3 mm
06:44 AM 73.9°F23.3°C 68.8°F20.4°C 84% 7.6 mph NE12.2 kmh NE 16.8 mph27.0 kmh 29.51 in999.3 mb 0.03 in0.8 mm 0.00 in0.0 mm 1.47 in37.3 mm
06:45 AM 73.9°F23.3°C 68.8°F20.4°C 84% 9.8 mph NE15.8 kmh NE 16.8 mph27.0 kmh 29.51 in999.3 mb 0.03 in0.8 mm 0.00 in0.0 mm 1.47 in37.3 mm
06:46 AM 73.8°F23.2°C 68.3°F20.2°C 83% 4.5 mph ENE7.2 kmh ENE 16.8 mph27.0 kmh 29.51 in999.3 mb 0.03 in0.8 mm 0.00 in0.0 mm 1.47 in37.3 mm
06:47 AM 73.8°F23.2°C 68.3°F20.2°C 83% 6.0 mph ENE9.7 kmh ENE 13.0 mph20.9 kmh 29.51 in999.3 mb 0.03 in0.8 mm 0.00 in0.0 mm 1.47 in37.3 mm
06:48 AM 73.8°F23.2°C 68.7°F20.4°C 84% 6.9 mph ENE11.1 kmh ENE 13.0 mph20.9 kmh 29.51 in999.3 mb 0.03 in0.8 mm 0.00 in0.0 mm 1.47 in37.3 mm
06:49 AM 73.8°F23.2°C 68.7°F20.4°C 84% 5.4 mph ENE8.7 kmh ENE 13.0 mph20.9 kmh 29.51 in999.3 mb 0.03 in0.8 mm 0.00 in0.0 mm 1.47 in37.3 mm
06:50 AM 73.8°F23.2°C 68.3°F20.2°C 83% 4.5 mph ENE7.2 kmh ENE 13.0 mph20.9 kmh 29.51 in999.3 mb 0.03 in0.8 mm 0.00 in0.0 mm 1.47 in37.3 mm
06:51 AM 73.8°F23.2°C 68.3°F20.2°C 83% 6.0 mph ENE9.7 kmh ENE 14.5 mph23.3 kmh 29.51 in999.3 mb 0.01 in0.3 mm 0.00 in0.0 mm 1.47 in37.3 mm
06:52 AM 73.8°F23.2°C 68.3°F20.2°C 83% 6.9 mph ENE11.1 kmh ENE 14.5 mph23.3 kmh 29.51 in999.3 mb 0.01 in0.3 mm 0.00 in0.0 mm 1.47 in37.3 mm
06:53 AM 73.8°F23.2°C 68.3°F20.2°C 83% 5.4 mph ENE8.7 kmh ENE 14.5 mph23.3 kmh 29.51 in999.3 mb 0.01 in0.3 mm 0.00 in0.0 mm 1.47 in37.3 mm
06:54 AM 73.8°F23.2°C 68.3°F20.2°C 83% 6.0 mph ENE9.7 kmh ENE 14.5 mph23.3 kmh 29.51 in999.3 mb 0.01 in0.3 mm 0.00 in0.0 mm 1.47 in37.3 mm
06:55 AM 73.8°F23.2°C 68.3°F20.2°C 83% 6.0 mph ENE9.7 kmh ENE 14.5 mph23.3 kmh 29.52 in999.7 mb 0.01 in0.3 mm 0.00 in0.0 mm 1.47 in37.3 mm
06:56 AM 73.8°F23.2°C 68.3°F20.2°C 83% 6.0 mph ENE9.7 kmh ENE 14.5 mph23.3 kmh 29.52 in999.7 mb 0.01 in0.3 mm 0.00 in0.0 mm 1.47 in37.3 mm
06:57 AM 73.8°F23.2°C 68.7°F20.4°C 84% 4.5 mph NE7.2 kmh NE 14.5 mph23.3 kmh 29.52 in999.7 mb 0.01 in0.3 mm 0.00 in0.0 mm 1.47 in37.3 mm
06:58 AM 73.9°F23.3°C 68.8°F20.4°C 84% 5.4 mph ENE8.7 kmh ENE 14.5 mph23.3 kmh 29.52 in999.7 mb 0.01 in0.3 mm 0.00 in0.0 mm 1.47 in37.3 mm
06:59 AM 73.9°F23.3°C 68.8°F20.4°C 84% 6.9 mph ENE11.1 kmh ENE 14.5 mph23.3 kmh 29.52 in999.7 mb 0.01 in0.3 mm 0.00 in0.0 mm 1.47 in37.3 mm
07:00 AM 73.9°F23.3°C 68.5°F20.3°C 83% 5.4 mph ENE8.7 kmh ENE 14.5 mph23.3 kmh 29.52 in999.7 mb 0.01 in0.3 mm 0.00 in0.0 mm 1.47 in37.3 mm
07:01 AM 73.9°F23.3°C 68.8°F20.4°C 84% 6.9 mph ENE11.1 kmh ENE 14.5 mph23.3 kmh 29.52 in999.7 mb 0.01 in0.3 mm 0.00 in0.0 mm 1.47 in37.3 mm
07:02 AM 73.8°F23.2°C 68.7°F20.4°C 84% 5.4 mph ENE8.7 kmh ENE 13.0 mph20.9 kmh 29.52 in999.7 mb 0.01 in0.3 mm 0.00 in0.0 mm 1.47 in37.3 mm
07:03 AM 73.8°F23.2°C 68.7°F20.4°C 84% 4.5 mph E7.2 kmh E 13.0 mph20.9 kmh 29.52 in999.7 mb 0.01 in0.3 mm 0.00 in0.0 mm 1.47 in37.3 mm
07:04 AM 73.8°F23.2°C 68.7°F20.4°C 84% 8.3 mph E13.4 kmh E 17.4 mph28.0 kmh 29.52 in999.7 mb 0.01 in0.3 mm 0.00 in0.0 mm 1.47 in37.3 mm
07:05 AM 73.8°F23.2°C 68.7°F20.4°C 84% 7.6 mph ENE12.2 kmh ENE 17.4 mph28.0 kmh 29.52 in999.7 mb 0.01 in0.3 mm 0.00 in0.0 mm 1.47 in37.3 mm
07:06 AM 73.8°F23.2°C 68.7°F20.4°C 84% 6.0 mph E9.7 kmh E 17.4 mph28.0 kmh 29.53 in1000.0 mb 0.01 in0.3 mm 0.00 in0.0 mm 1.47 in37.3 mm
07:07 AM 73.8°F23.2°C 68.7°F20.4°C 84% 4.5 mph E7.2 kmh E 17.4 mph28.0 kmh 29.53 in1000.0 mb 0.01 in0.3 mm 0.00 in0.0 mm 1.47 in37.3 mm
07:08 AM 73.8°F23.2°C 68.7°F20.4°C 84% 4.5 mph E7.2 kmh E 17.4 mph28.0 kmh 29.54 in1000.3 mb 0.01 in0.3 mm 0.00 in0.0 mm 1.47 in37.3 mm
07:09 AM 73.8°F23.2°C 68.7°F20.4°C 84% 5.4 mph ENE8.7 kmh ENE 17.4 mph28.0 kmh 29.53 in1000.0 mb 0.01 in0.3 mm 0.00 in0.0 mm 1.47 in37.3 mm
07:10 AM 73.8°F23.2°C 68.7°F20.4°C 84% 6.0 mph NE9.7 kmh NE 17.4 mph28.0 kmh 29.52 in999.7 mb 0.01 in0.3 mm 0.00 in0.0 mm 1.47 in37.3 mm
07:11 AM 73.8°F23.2°C 68.7°F20.4°C 84% 3.8 mph NE6.1 kmh NE 17.4 mph28.0 kmh 29.52 in999.7 mb 0.01 in0.3 mm 0.00 in0.0 mm 1.47 in37.3 mm
07:16 AM 73.8°F23.2°C 69.0°F20.6°C 85% 6.9 mph NE11.1 kmh NE 16.8 mph27.0 kmh 29.52 in999.7 mb 0.00 in0.0 mm 0.00 in0.0 mm 1.47 in37.3 mm
07:17 AM 73.8°F23.2°C 69.0°F20.6°C 85% 6.9 mph NE11.1 kmh NE 16.8 mph27.0 kmh 29.52 in999.7 mb 0.00 in0.0 mm 0.00 in0.0 mm 1.47 in37.3 mm
07:18 AM 73.8°F23.2°C 69.0°F20.6°C 85% 4.5 mph NE7.2 kmh NE 16.8 mph27.0 kmh 29.52 in999.7 mb 0.00 in0.0 mm 0.00 in0.0 mm 1.47 in37.3 mm
07:19 AM 73.8°F23.2°C 69.0°F20.6°C 85% 4.5 mph NE7.2 kmh NE 16.8 mph27.0 kmh 29.52 in999.7 mb 0.00 in0.0 mm 0.00 in0.0 mm 1.47 in37.3 mm
07:20 AM 73.8°F23.2°C 69.0°F20.6°C 85% 3.1 mph ENE5.0 kmh ENE 16.8 mph27.0 kmh 29.52 in999.7 mb 0.00 in0.0 mm 0.00 in0.0 mm 1.47 in37.3 mm
07:21 AM 73.8°F23.2°C 69.0°F20.6°C 85% 9.8 mph ENE15.8 kmh ENE 16.8 mph27.0 kmh 29.52 in999.7 mb 0.00 in0.0 mm 0.00 in0.0 mm 1.47 in37.3 mm
07:22 AM 73.8°F23.2°C 69.0°F20.6°C 85% 9.8 mph ENE15.8 kmh ENE 16.8 mph27.0 kmh 29.52 in999.7 mb 0.00 in0.0 mm 0.00 in0.0 mm 1.47 in37.3 mm
07:23 AM 73.9°F23.3°C 69.2°F20.7°C 85% 5.4 mph NE8.7 kmh NE 16.8 mph27.0 kmh 29.53 in1000.0 mb 0.00 in0.0 mm 0.00 in0.0 mm 1.47 in37.3 mm
07:24 AM 73.9°F23.3°C 69.2°F20.7°C 85% 9.8 mph ENE15.8 kmh ENE 16.8 mph27.0 kmh 29.52 in999.7 mb 0.00 in0.0 mm 0.00 in0.0 mm 1.47 in37.3 mm
07:25 AM 73.9°F23.3°C 69.2°F20.7°C 85% 7.6 mph NE12.2 kmh NE 16.8 mph27.0 kmh 29.52 in999.7 mb 0.00 in0.0 mm 0.00 in0.0 mm 1.47 in37.3 mm
07:26 AM 73.9°F23.3°C 69.2°F20.7°C 85% 3.8 mph NE6.1 kmh NE 15.9 mph25.6 kmh 29.52 in999.7 mb 0.00 in0.0 mm 0.00 in0.0 mm 1.47 in37.3 mm
07:27 AM 73.9°F23.3°C 69.2°F20.7°C 85% 8.3 mph NE13.4 kmh NE 15.9 mph25.6 kmh 29.52 in999.7 mb 0.00 in0.0 mm 0.00 in0.0 mm 1.47 in37.3 mm
07:28 AM 73.9°F23.3°C 69.2°F20.7°C 85% 6.0 mph NE9.7 kmh NE 14.5 mph23.3 kmh 29.52 in999.7 mb 0.00 in0.0 mm 0.00 in0.0 mm 1.47 in37.3 mm
07:29 AM 73.9°F23.3°C 69.2°F20.7°C 85% 6.0 mph NE9.7 kmh NE 14.5 mph23.3 kmh 29.52 in999.7 mb 0.00 in0.0 mm 0.00 in0.0 mm 1.47 in37.3 mm
07:30 AM 73.9°F23.3°C 69.2°F20.7°C 85% 8.3 mph ENE13.4 kmh ENE 14.5 mph23.3 kmh 29.52 in999.7 mb 0.00 in0.0 mm 0.00 in0.0 mm 1.47 in37.3 mm
07:31 AM 73.9°F23.3°C 69.2°F20.7°C 85% 6.9 mph ENE11.1 kmh ENE 14.5 mph23.3 kmh 29.51 in999.3 mb 0.00 in0.0 mm 0.00 in0.0 mm 1.47 in37.3 mm
07:32 AM 73.9°F23.3°C 69.2°F20.7°C 85% 6.0 mph E9.7 kmh E 14.5 mph23.3 kmh 29.51 in999.3 mb 0.00 in0.0 mm 0.00 in0.0 mm 1.47 in37.3 mm
07:33 AM 73.9°F23.3°C 69.2°F20.7°C 85% 4.5 mph E7.2 kmh E 14.5 mph23.3 kmh 29.51 in999.3 mb 0.00 in0.0 mm 0.00 in0.0 mm 1.47 in37.3 mm
07:34 AM 74.1°F23.4°C 69.4°F20.8°C 85% 6.9 mph E11.1 kmh E 14.5 mph23.3 kmh 29.51 in999.3 mb 0.00 in0.0 mm 0.00 in0.0 mm 1.47 in37.3 mm
07:35 AM 74.1°F23.4°C 69.4°F20.8°C 85% 7.6 mph E12.2 kmh E 15.2 mph24.5 kmh 29.51 in999.3 mb 0.00 in0.0 mm 0.00 in0.0 mm 1.47 in37.3 mm
07:36 AM 74.1°F23.4°C 69.4°F20.8°C 85% 6.0 mph E9.7 kmh E 15.2 mph24.5 kmh 29.51 in999.3 mb 0.00 in0.0 mm 0.00 in0.0 mm 1.47 in37.3 mm
07:37 AM 74.1°F23.4°C 69.4°F20.8°C 85% 6.0 mph E9.7 kmh E 15.2 mph24.5 kmh 29.51 in999.3 mb 0.00 in0.0 mm 0.00 in0.0 mm 1.47 in37.3 mm
07:38 AM 74.1°F23.4°C 69.4°F20.8°C 85% 6.0 mph E9.7 kmh E 15.2 mph24.5 kmh 29.51 in999.3 mb 0.00 in0.0 mm 0.00 in0.0 mm 1.47 in37.3 mm
07:39 AM 74.1°F23.4°C 69.4°F20.8°C 85% 4.5 mph E7.2 kmh E 15.2 mph24.5 kmh 29.52 in999.7 mb 0.00 in0.0 mm 0.00 in0.0 mm 1.47 in37.3 mm
07:40 AM 74.1°F23.4°C 69.4°F20.8°C 85% 6.0 mph E9.7 kmh E 15.9 mph25.6 kmh 29.51 in999.3 mb 0.00 in0.0 mm 0.00 in0.0 mm 1.47 in37.3 mm
07:41 AM 74.1°F23.4°C 69.4°F20.8°C 85% 6.0 mph E9.7 kmh E 15.9 mph25.6 kmh 29.51 in999.3 mb 0.00 in0.0 mm 0.00 in0.0 mm 1.47 in37.3 mm
07:42 AM 74.1°F23.4°C 69.4°F20.8°C 85% 5.4 mph ENE8.7 kmh ENE 15.9 mph25.6 kmh 29.51 in999.3 mb 0.00 in0.0 mm 0.00 in0.0 mm 1.47 in37.3 mm
07:43 AM 74.1°F23.4°C 69.4°F20.8°C 85% 6.9 mph ENE11.1 kmh ENE 15.9 mph25.6 kmh 29.51 in999.3 mb 0.00 in0.0 mm 0.00 in0.0 mm 1.47 in37.3 mm
07:44 AM 73.9°F23.3°C 69.2°F20.7°C 85% 6.9 mph E11.1 kmh E 15.9 mph25.6 kmh 29.51 in999.3 mb 0.00 in0.0 mm 0.00 in0.0 mm 1.47 in37.3 mm
07:45 AM 73.9°F23.3°C 69.2°F20.7°C 85% 6.9 mph ENE11.1 kmh ENE 15.9 mph25.6 kmh 29.52 in999.7 mb 0.00 in0.0 mm 0.00 in0.0 mm 1.47 in37.3 mm
07:46 AM 73.9°F23.3°C 69.2°F20.7°C 85% 4.5 mph E7.2 kmh E 15.9 mph25.6 kmh 29.51 in999.3 mb 0.01 in0.3 mm 0.60 in15.2 mm 1.48 in37.6 mm
07:47 AM 73.8°F23.2°C 69.0°F20.6°C 85% 3.8 mph E6.1 kmh E 15.9 mph25.6 kmh 29.52 in999.7 mb 0.01 in0.3 mm 0.00 in0.0 mm 1.48 in37.6 mm
07:48 AM 73.8°F23.2°C 69.0°F20.6°C 85% 5.4 mph ENE8.7 kmh ENE 15.9 mph25.6 kmh 29.52 in999.7 mb 0.01 in0.3 mm 0.00 in0.0 mm 1.48 in37.6 mm
07:49 AM 73.8°F23.2°C 69.0°F20.6°C 85% 4.5 mph ENE7.2 kmh ENE 15.9 mph25.6 kmh 29.52 in999.7 mb 0.01 in0.3 mm 0.00 in0.0 mm 1.48 in37.6 mm
07:50 AM 73.8°F23.2°C 69.0°F20.6°C 85% 7.6 mph ENE12.2 kmh ENE 14.5 mph23.3 kmh 29.53 in1000.0 mb 0.01 in0.3 mm 0.00 in0.0 mm 1.48 in37.6 mm
07:51 AM 73.8°F23.2°C 69.0°F20.6°C 85% 5.4 mph NE8.7 kmh NE 14.5 mph23.3 kmh 29.53 in1000.0 mb 0.01 in0.3 mm 0.00 in0.0 mm 1.48 in37.6 mm
07:52 AM 73.8°F23.2°C 69.4°F20.8°C 86% 8.3 mph ENE13.4 kmh ENE 14.5 mph23.3 kmh 29.53 in1000.0 mb 0.01 in0.3 mm 0.00 in0.0 mm 1.48 in37.6 mm
07:53 AM 73.8°F23.2°C 69.4°F20.8°C 86% 9.2 mph ENE14.8 kmh ENE 15.9 mph25.6 kmh 29.53 in1000.0 mb 0.01 in0.3 mm 0.00 in0.0 mm 1.48 in37.6 mm
07:54 AM 73.8°F23.2°C 69.4°F20.8°C 86% 11.4 mph NE18.3 kmh NE 15.9 mph25.6 kmh 29.55 in1000.7 mb 0.01 in0.3 mm 0.00 in0.0 mm 1.48 in37.6 mm
07:55 AM 73.8°F23.2°C 69.4°F20.8°C 86% 7.6 mph NE12.2 kmh NE 15.9 mph25.6 kmh 29.55 in1000.7 mb 0.01 in0.3 mm 0.00 in0.0 mm 1.48 in37.6 mm
07:56 AM 73.9°F23.3°C 69.5°F20.8°C 86% 13.0 mph NE20.9 kmh NE 16.8 mph27.0 kmh 29.55 in1000.7 mb 0.01 in0.3 mm 0.00 in0.0 mm 1.48 in37.6 mm
07:57 AM 73.9°F23.3°C 69.5°F20.8°C 86% 10.7 mph NE17.2 kmh NE 16.8 mph27.0 kmh 29.55 in1000.7 mb 0.01 in0.3 mm 0.00 in0.0 mm 1.48 in37.6 mm
07:58 AM 74.1°F23.4°C 69.7°F20.9°C 86% 10.7 mph NE17.2 kmh NE 19.0 mph30.6 kmh 29.55 in1000.7 mb 0.01 in0.3 mm 0.00 in0.0 mm 1.48 in37.6 mm
07:59 AM 74.1°F23.4°C 69.7°F20.9°C 86% 12.1 mph NE19.5 kmh NE 19.0 mph30.6 kmh 29.55 in1000.7 mb 0.01 in0.3 mm 0.00 in0.0 mm 1.48 in37.6 mm
08:00 AM 74.1°F23.4°C 69.7°F20.9°C 86% 9.2 mph NE14.8 kmh NE 19.0 mph30.6 kmh 29.55 in1000.7 mb 0.01 in0.3 mm 0.00 in0.0 mm 1.48 in37.6 mm
08:01 AM 74.1°F23.4°C 69.7°F20.9°C 86% 7.6 mph NE12.2 kmh NE 19.0 mph30.6 kmh 29.55 in1000.7 mb 0.01 in0.3 mm 0.00 in0.0 mm 1.48 in37.6 mm
08:02 AM 73.9°F23.3°C 69.2°F20.7°C 85% 13.0 mph NNE20.9 kmh NNE 20.6 mph33.2 kmh 29.55 in1000.7 mb 0.01 in0.3 mm 0.00 in0.0 mm 1.48 in37.6 mm
08:03 AM 74.1°F23.4°C 69.4°F20.8°C 85% 14.5 mph NNE23.3 kmh NNE 20.6 mph33.2 kmh 29.55 in1000.7 mb 0.01 in0.3 mm 0.00 in0.0 mm 1.48 in37.6 mm
08:04 AM 74.1°F23.4°C 69.4°F20.8°C 85% 9.2 mph NNE14.8 kmh NNE 20.6 mph33.2 kmh 29.55 in1000.7 mb 0.01 in0.3 mm 0.00 in0.0 mm 1.48 in37.6 mm
08:05 AM 74.1°F23.4°C 69.4°F20.8°C 85% 13.0 mph NNE20.9 kmh NNE 20.6 mph33.2 kmh 29.55 in1000.7 mb 0.01 in0.3 mm 0.00 in0.0 mm 1.48 in37.6 mm
08:06 AM 74.3°F23.5°C 69.5°F20.8°C 85% 12.1 mph NNE19.5 kmh NNE 20.6 mph33.2 kmh 29.55 in1000.7 mb 0.01 in0.3 mm 0.00 in0.0 mm 1.48 in37.6 mm
08:07 AM 74.3°F23.5°C 69.5°F20.8°C 85% 13.0 mph NNE20.9 kmh NNE 20.6 mph33.2 kmh 29.56 in1001.0 mb 0.01 in0.3 mm 0.00 in0.0 mm 1.48 in37.6 mm
08:08 AM 74.3°F23.5°C 69.5°F20.8°C 85% 13.0 mph NNE20.9 kmh NNE 20.6 mph33.2 kmh 29.55 in1000.7 mb 0.01 in0.3 mm 0.00 in0.0 mm 1.48 in37.6 mm
08:09 AM 74.3°F23.5°C 69.5°F20.8°C 85% 13.0 mph NE20.9 kmh NE 20.6 mph33.2 kmh 29.55 in1000.7 mb 0.01 in0.3 mm 0.00 in0.0 mm 1.48 in37.6 mm
08:10 AM 74.3°F23.5°C 69.5°F20.8°C 85% 15.2 mph NE24.5 kmh NE 21.3 mph34.3 kmh 29.56 in1001.0 mb 0.01 in0.3 mm 0.00 in0.0 mm 1.48 in37.6 mm
08:11 AM 74.1°F23.4°C 69.4°F20.8°C 85% 12.1 mph NE19.5 kmh NE 21.3 mph34.3 kmh 29.56 in1001.0 mb 0.01 in0.3 mm 0.00 in0.0 mm 1.48 in37.6 mm
08:12 AM 74.1°F23.4°C 69.4°F20.8°C 85% 13.0 mph NE20.9 kmh NE 21.3 mph34.3 kmh 29.55 in1000.7 mb 0.03 in0.8 mm 1.20 in30.5 mm 1.50 in38.1 mm
08:13 AM 73.9°F23.3°C 69.2°F20.7°C 85% 10.7 mph NE17.2 kmh NE 21.3 mph34.3 kmh 29.54 in1000.3 mb 0.03 in0.8 mm 0.00 in0.0 mm 1.50 in38.1 mm
08:14 AM 73.6°F23.1°C 68.8°F20.4°C 85% 7.6 mph NE12.2 kmh NE 21.3 mph34.3 kmh 29.53 in1000.0 mb 0.03 in0.8 mm 0.00 in0.0 mm 1.50 in38.1 mm
08:15 AM 73.6°F23.1°C 69.2°F20.7°C 86% 9.2 mph NE14.8 kmh NE 21.3 mph34.3 kmh 29.53 in1000.0 mb 0.03 in0.8 mm 0.00 in0.0 mm 1.50 in38.1 mm
08:16 AM 73.4°F23.0°C 69.0°F20.6°C 86% 9.8 mph NE15.8 kmh NE 21.3 mph34.3 kmh 29.53 in1000.0 mb 0.03 in0.8 mm 0.00 in0.0 mm 1.50 in38.1 mm
08:17 AM 73.4°F23.0°C 69.0°F20.6°C 86% 8.3 mph NE13.4 kmh NE 21.3 mph34.3 kmh 29.53 in1000.0 mb 0.03 in0.8 mm 0.00 in0.0 mm 1.50 in38.1 mm
08:18 AM 73.2°F22.9°C 68.5°F20.3°C 85% 16.8 mph NE27.0 kmh NE 22.1 mph35.6 kmh 29.53 in1000.0 mb 0.03 in0.8 mm 0.00 in0.0 mm 1.50 in38.1 mm
08:19 AM 73.2°F22.9°C 68.5°F20.3°C 85% 9.8 mph NE15.8 kmh NE 22.1 mph35.6 kmh 29.54 in1000.3 mb 0.03 in0.8 mm 0.00 in0.0 mm 1.50 in38.1 mm
08:20 AM 73.2°F22.9°C 68.5°F20.3°C 85% 12.1 mph NE19.5 kmh NE 22.1 mph35.6 kmh 29.54 in1000.3 mb 0.03 in0.8 mm 0.00 in0.0 mm 1.50 in38.1 mm
08:21 AM 73.4°F23.0°C 69.0°F20.6°C 86% 12.1 mph NE19.5 kmh NE 22.1 mph35.6 kmh 29.54 in1000.3 mb 0.04 in1.0 mm 0.60 in15.2 mm 1.51 in38.4 mm
08:22 AM 73.4°F23.0°C 69.0°F20.6°C 86% 12.1 mph NE19.5 kmh NE 22.1 mph35.6 kmh 29.54 in1000.3 mb 0.04 in1.0 mm 0.00 in0.0 mm 1.51 in38.4 mm
08:23 AM 73.4°F23.0°C 69.0°F20.6°C 86% 10.7 mph NE17.2 kmh NE 22.1 mph35.6 kmh 29.53 in1000.0 mb 0.04 in1.0 mm 0.00 in0.0 mm 1.51 in38.4 mm
08:24 AM 73.4°F23.0°C 69.0°F20.6°C 86% 6.9 mph NE11.1 kmh NE 22.1 mph35.6 kmh 29.53 in1000.0 mb 0.04 in1.0 mm 0.00 in0.0 mm 1.51 in38.4 mm
08:25 AM 73.6°F23.1°C 69.2°F20.7°C 86% 10.7 mph NE17.2 kmh NE 22.1 mph35.6 kmh 29.52 in999.7 mb 0.04 in1.0 mm 0.00 in0.0 mm 1.51 in38.4 mm
08:26 AM 73.6°F23.1°C 69.2°F20.7°C 86% 14.5 mph NE23.3 kmh NE 22.1 mph35.6 kmh 29.53 in1000.0 mb 0.04 in1.0 mm 0.00 in0.0 mm 1.51 in38.4 mm
08:27 AM 73.6°F23.1°C 69.2°F20.7°C 86% 11.4 mph NE18.3 kmh NE 22.1 mph35.6 kmh 29.54 in1000.3 mb 0.04 in1.0 mm 0.00 in0.0 mm 1.51 in38.4 mm
08:28 AM 73.6°F23.1°C 69.2°F20.7°C 86% 12.1 mph NE19.5 kmh NE 22.1 mph35.6 kmh 29.54 in1000.3 mb 0.04 in1.0 mm 0.00 in0.0 mm 1.51 in38.4 mm
08:29 AM 73.8°F23.2°C 69.4°F20.8°C 86% 13.6 mph NE21.9 kmh NE 22.1 mph35.6 kmh 29.55 in1000.7 mb 0.04 in1.0 mm 0.00 in0.0 mm 1.51 in38.4 mm
08:30 AM 73.8°F23.2°C 69.4°F20.8°C 86% 12.1 mph NE19.5 kmh NE 22.1 mph35.6 kmh 29.55 in1000.7 mb 0.04 in1.0 mm 0.00 in0.0 mm 1.51 in38.4 mm
08:31 AM 73.8°F23.2°C 69.4°F20.8°C 86% 13.6 mph NNE21.9 kmh NNE 22.1 mph35.6 kmh 29.56 in1001.0 mb 0.04 in1.0 mm 0.00 in0.0 mm 1.51 in38.4 mm
08:32 AM 73.8°F23.2°C 69.4°F20.8°C 86% 11.4 mph NNE18.3 kmh NNE 22.1 mph35.6 kmh 29.55 in1000.7 mb 0.04 in1.0 mm 0.00 in0.0 mm 1.51 in38.4 mm
08:33 AM 73.8°F23.2°C 69.4°F20.8°C 86% 14.5 mph NNE23.3 kmh NNE 22.1 mph35.6 kmh 29.55 in1000.7 mb 0.04 in1.0 mm 0.00 in0.0 mm 1.51 in38.4 mm
08:34 AM 73.8°F23.2°C 69.4°F20.8°C 86% 12.1 mph NNE19.5 kmh NNE 22.1 mph35.6 kmh 29.54 in1000.3 mb 0.07 in1.8 mm 1.80 in45.7 mm 1.54 in39.1 mm
08:35 AM 73.6°F23.1°C 69.2°F20.7°C 86% 8.3 mph NNE13.4 kmh NNE 22.1 mph35.6 kmh 29.54 in1000.3 mb 0.07 in1.8 mm 0.00 in0.0 mm 1.54 in39.1 mm
08:36 AM 73.4°F23.0°C 69.0°F20.6°C 86% 10.7 mph NNE17.2 kmh NNE 22.1 mph35.6 kmh 29.54 in1000.3 mb 0.09 in2.3 mm 1.20 in30.5 mm 1.55 in39.4 mm
08:37 AM 73.2°F22.9°C 68.5°F20.3°C 85% 13.6 mph NNE21.9 kmh NNE 22.1 mph35.6 kmh 29.54 in1000.3 mb 0.12 in3.0 mm 1.80 in45.7 mm 1.58 in40.1 mm
08:38 AM 73.0°F22.8°C 68.3°F20.2°C 85% 11.4 mph N18.3 kmh N 22.1 mph35.6 kmh 29.53 in1000.0 mb 0.17 in4.3 mm 3.00 in76.2 mm 1.64 in41.7 mm
08:39 AM 72.9°F22.7°C 68.1°F20.1°C 85% 9.8 mph NNE15.8 kmh NNE 21.3 mph34.3 kmh 29.53 in1000.0 mb 0.19 in4.8 mm 1.20 in30.5 mm 1.66 in42.2 mm
08:40 AM 72.7°F22.6°C 68.3°F20.2°C 86% 11.4 mph NNE18.3 kmh NNE 21.3 mph34.3 kmh 29.53 in1000.0 mb 0.19 in4.8 mm 0.00 in0.0 mm 1.66 in42.2 mm
08:41 AM 72.5°F22.5°C 68.1°F20.1°C 86% 11.4 mph NNE18.3 kmh NNE 21.3 mph34.3 kmh 29.54 in1000.3 mb 0.19 in4.8 mm 0.00 in0.0 mm 1.66 in42.2 mm
08:42 AM 72.5°F22.5°C 68.1°F20.1°C 86% 13.6 mph NE21.9 kmh NE 19.7 mph31.7 kmh 29.53 in1000.0 mb 0.20 in5.1 mm 0.60 in15.2 mm 1.67 in42.4 mm
08:43 AM 72.5°F22.5°C 68.4°F20.2°C 87% 10.7 mph NE17.2 kmh NE 19.7 mph31.7 kmh 29.52 in999.7 mb 0.20 in5.1 mm 0.00 in0.0 mm 1.67 in42.4 mm
08:44 AM 72.3°F22.4°C 68.3°F20.2°C 87% 9.2 mph NNE14.8 kmh NNE 19.7 mph31.7 kmh 29.52 in999.7 mb 0.20 in5.1 mm 0.00 in0.0 mm 1.67 in42.4 mm
08:45 AM 72.3°F22.4°C 68.3°F20.2°C 87% 15.9 mph NE25.6 kmh NE 24.4 mph39.3 kmh 29.52 in999.7 mb 0.20 in5.1 mm 0.00 in0.0 mm 1.67 in42.4 mm
08:46 AM 72.3°F22.4°C 68.6°F20.3°C 88% 10.7 mph NE17.2 kmh NE 24.4 mph39.3 kmh 29.52 in999.7 mb 0.19 in4.8 mm 0.00 in0.0 mm 1.67 in42.4 mm
08:47 AM 72.3°F22.4°C 68.6°F20.3°C 88% 11.4 mph NNE18.3 kmh NNE 24.4 mph39.3 kmh 29.52 in999.7 mb 0.19 in4.8 mm 0.00 in0.0 mm 1.67 in42.4 mm
08:48 AM 72.3°F22.4°C 68.6°F20.3°C 88% 6.9 mph NE11.1 kmh NE 24.4 mph39.3 kmh 29.52 in999.7 mb 0.19 in4.8 mm 0.00 in0.0 mm 1.67 in42.4 mm
08:49 AM 72.3°F22.4°C 68.9°F20.5°C 89% 14.5 mph NE23.3 kmh NE 24.4 mph39.3 kmh 29.52 in999.7 mb 0.20 in5.1 mm 0.60 in15.2 mm 1.68 in42.7 mm
08:50 AM 72.5°F22.5°C 69.1°F20.6°C 89% 9.8 mph NNE15.8 kmh NNE 24.4 mph39.3 kmh 29.52 in999.7 mb 0.20 in5.1 mm 0.00 in0.0 mm 1.68 in42.7 mm
08:51 AM 72.3°F22.4°C 68.9°F20.5°C 89% 10.7 mph NNE17.2 kmh NNE 24.4 mph39.3 kmh 29.52 in999.7 mb 0.20 in5.1 mm 0.00 in0.0 mm 1.68 in42.7 mm
08:52 AM 72.3°F22.4°C 68.9°F20.5°C 89% 9.2 mph NNE14.8 kmh NNE 24.4 mph39.3 kmh 29.52 in999.7 mb 0.20 in5.1 mm 0.00 in0.0 mm 1.68 in42.7 mm
08:53 AM 72.3°F22.4°C 68.9°F20.5°C 89% 9.2 mph NNE14.8 kmh NNE 24.4 mph39.3 kmh 29.53 in1000.0 mb 0.20 in5.1 mm 0.00 in0.0 mm 1.68 in42.7 mm
08:54 AM 72.5°F22.5°C 69.4°F20.8°C 90% 13.6 mph NE21.9 kmh NE 24.4 mph39.3 kmh 29.53 in1000.0 mb 0.20 in5.1 mm 0.00 in0.0 mm 1.68 in42.7 mm
08:55 AM 72.5°F22.5°C 69.4°F20.8°C 90% 13.0 mph NE20.9 kmh NE 21.3 mph34.3 kmh 29.52 in999.7 mb 0.20 in5.1 mm 0.00 in0.0 mm 1.68 in42.7 mm
08:56 AM 72.5°F22.5°C 69.4°F20.8°C 90% 14.5 mph NE23.3 kmh NE 20.6 mph33.2 kmh 29.52 in999.7 mb 0.20 in5.1 mm 0.00 in0.0 mm 1.68 in42.7 mm
08:57 AM 72.5°F22.5°C 69.4°F20.8°C 90% 11.4 mph NE18.3 kmh NE 20.6 mph33.2 kmh 29.52 in999.7 mb 0.20 in5.1 mm 0.00 in0.0 mm 1.68 in42.7 mm
08:58 AM 72.5°F22.5°C 69.4°F20.8°C 90% 11.4 mph NE18.3 kmh NE 20.6 mph33.2 kmh 29.52 in999.7 mb 0.20 in5.1 mm 0.00 in0.0 mm 1.68 in42.7 mm
08:59 AM 72.5°F22.5°C 69.4°F20.8°C 90% 15.2 mph NE24.5 kmh NE 20.6 mph33.2 kmh 29.52 in999.7 mb 0.20 in5.1 mm 0.00 in0.0 mm 1.68 in42.7 mm
09:00 AM 72.5°F22.5°C 69.4°F20.8°C 90% 15.2 mph NE24.5 kmh NE 20.6 mph33.2 kmh 29.52 in999.7 mb 0.20 in5.1 mm 0.00 in0.0 mm 1.68 in42.7 mm
09:01 AM 72.7°F22.6°C 69.9°F21.1°C 91% 10.7 mph NE17.2 kmh NE 25.1 mph40.4 kmh 29.52 in999.7 mb 0.20 in5.1 mm 0.00 in0.0 mm 1.68 in42.7 mm
09:02 AM 72.5°F22.5°C 69.8°F21.0°C 91% 11.4 mph NE18.3 kmh NE 25.1 mph40.4 kmh 29.52 in999.7 mb 0.20 in5.1 mm 0.00 in0.0 mm 1.68 in42.7 mm
09:03 AM 72.5°F22.5°C 69.8°F21.0°C 91% 17.4 mph NE28.0 kmh NE 25.1 mph40.4 kmh 29.53 in1000.0 mb 0.20 in5.1 mm 0.00 in0.0 mm 1.68 in42.7 mm
09:04 AM 72.5°F22.5°C 69.8°F21.0°C 91% 8.3 mph NE13.4 kmh NE 25.1 mph40.4 kmh 29.53 in1000.0 mb 0.20 in5.1 mm 0.00 in0.0 mm 1.68 in42.7 mm
09:05 AM 72.5°F22.5°C 69.8°F21.0°C 91% 6.9 mph NE11.1 kmh NE 25.1 mph40.4 kmh 29.53 in1000.0 mb 0.20 in5.1 mm 0.00 in0.0 mm 1.68 in42.7 mm
09:06 AM 72.7°F22.6°C 69.9°F21.1°C 91% 8.3 mph NE13.4 kmh NE 25.1 mph40.4 kmh 29.53 in1000.0 mb 0.20 in5.1 mm 0.00 in0.0 mm 1.68 in42.7 mm
09:07 AM 72.7°F22.6°C 69.9°F21.1°C 91% 14.5 mph NE23.3 kmh NE 25.1 mph40.4 kmh 29.53 in1000.0 mb 0.20 in5.1 mm 0.00 in0.0 mm 1.68 in42.7 mm
09:08 AM 72.7°F22.6°C 69.9°F21.1°C 91% 15.2 mph NE24.5 kmh NE 25.1 mph40.4 kmh 29.53 in1000.0 mb 0.20 in5.1 mm 0.00 in0.0 mm 1.68 in42.7 mm
09:09 AM 72.7°F22.6°C 69.9°F21.1°C 91% 15.2 mph NE24.5 kmh NE 25.1 mph40.4 kmh 29.55 in1000.7 mb 0.20 in5.1 mm 0.00 in0.0 mm 1.68 in42.7 mm
09:10 AM 72.7°F22.6°C 69.9°F21.1°C 91% 15.2 mph NE24.5 kmh NE 25.1 mph40.4 kmh 29.54 in1000.3 mb 0.20 in5.1 mm 0.00 in0.0 mm 1.68 in42.7 mm
09:11 AM 72.7°F22.6°C 69.9°F21.1°C 91% 15.2 mph NE24.5 kmh NE 22.1 mph35.6 kmh 29.54 in1000.3 mb 0.20 in5.1 mm 0.00 in0.0 mm 1.68 in42.7 mm
09:12 AM 72.9°F22.7°C 70.1°F21.2°C 91% 12.1 mph NE19.5 kmh NE 22.1 mph35.6 kmh 29.54 in1000.3 mb 0.19 in4.8 mm 0.00 in0.0 mm 1.68 in42.7 mm
09:13 AM 72.9°F22.7°C 70.1°F21.2°C 91% 12.1 mph NE19.5 kmh NE 22.1 mph35.6 kmh 29.54 in1000.3 mb 0.19 in4.8 mm 0.00 in0.0 mm 1.68 in42.7 mm
09:14 AM 72.9°F22.7°C 70.1°F21.2°C 91% 12.1 mph NE19.5 kmh NE 20.6 mph33.2 kmh 29.54 in1000.3 mb 0.19 in4.8 mm 0.00 in0.0 mm 1.68 in42.7 mm
09:15 AM 72.9°F22.7°C 70.1°F21.2°C 91% 12.1 mph NE19.5 kmh NE 20.6 mph33.2 kmh 29.54 in1000.3 mb 0.19 in4.8 mm 0.00 in0.0 mm 1.68 in42.7 mm
09:16 AM 72.9°F22.7°C 70.1°F21.2°C 91% 12.1 mph ENE19.5 kmh ENE 20.6 mph33.2 kmh 29.54 in1000.3 mb 0.19 in4.8 mm 0.00 in0.0 mm 1.68 in42.7 mm
09:17 AM 72.9°F22.7°C 70.1°F21.2°C 91% 12.1 mph ENE19.5 kmh ENE 20.6 mph33.2 kmh 29.54 in1000.3 mb 0.19 in4.8 mm 0.00 in0.0 mm 1.68 in42.7 mm
09:18 AM 72.9°F22.7°C 70.1°F21.2°C 91% 12.1 mph E19.5 kmh E 20.6 mph33.2 kmh 29.53 in1000.0 mb 0.19 in4.8 mm 0.00 in0.0 mm 1.68 in42.7 mm
09:19 AM 72.9°F22.7°C 70.1°F21.2°C 91% 12.1 mph E19.5 kmh E 20.6 mph33.2 kmh 29.53 in1000.0 mb 0.19 in4.8 mm 0.00 in0.0 mm 1.68 in42.7 mm
09:20 AM 72.9°F22.7°C 70.1°F21.2°C 91% 12.1 mph E19.5 kmh E 20.6 mph33.2 kmh 29.53 in1000.0 mb 0.19 in4.8 mm 0.00 in0.0 mm 1.68 in42.7 mm
09:21 AM 72.9°F22.7°C 70.1°F21.2°C 91% 12.1 mph E19.5 kmh E 20.6 mph33.2 kmh 29.53 in1000.0 mb 0.17 in4.3 mm 0.00 in0.0 mm 1.68 in42.7 mm
09:22 AM 72.9°F22.7°C 70.1°F21.2°C 91% 12.1 mph E19.5 kmh E 20.6 mph33.2 kmh 29.55 in1000.7 mb 0.17 in4.3 mm 0.00 in0.0 mm 1.68 in42.7 mm
09:23 AM 72.9°F22.7°C 70.1°F21.2°C 91% 12.1 mph E19.5 kmh E 20.6 mph33.2 kmh 29.54 in1000.3 mb 0.17 in4.3 mm 0.00 in0.0 mm 1.68 in42.7 mm
09:24 AM 72.9°F22.7°C 70.1°F21.2°C 91% 12.1 mph E19.5 kmh E 20.6 mph33.2 kmh 29.55 in1000.7 mb 0.17 in4.3 mm 0.00 in0.0 mm 1.68 in42.7 mm
09:25 AM 72.9°F22.7°C 70.1°F21.2°C 91% 12.1 mph E19.5 kmh E 20.6 mph33.2 kmh 29.54 in1000.3 mb 0.17 in4.3 mm 0.00 in0.0 mm 1.68 in42.7 mm
09:26 AM 72.9°F22.7°C 70.1°F21.2°C 91% 12.1 mph E19.5 kmh E 20.6 mph33.2 kmh 29.55 in1000.7 mb 0.17 in4.3 mm 0.00 in0.0 mm 1.68 in42.7 mm
09:27 AM 72.9°F22.7°C 70.1°F21.2°C 91% 12.1 mph E19.5 kmh E 20.6 mph33.2 kmh 29.54 in1000.3 mb 0.17 in4.3 mm 0.00 in0.0 mm 1.68 in42.7 mm
09:28 AM 72.9°F22.7°C 70.1°F21.2°C 91% 12.1 mph E19.5 kmh E 20.6 mph33.2 kmh 29.54 in1000.3 mb 0.17 in4.3 mm 0.00 in0.0 mm 1.68 in42.7 mm
09:29 AM 72.9°F22.7°C 70.1°F21.2°C 91% 12.1 mph E19.5 kmh E 20.6 mph33.2 kmh 29.54 in1000.3 mb 0.17 in4.3 mm 0.00 in0.0 mm 1.68 in42.7 mm
09:30 AM 72.9°F22.7°C 70.1°F21.2°C 91% 12.1 mph E19.5 kmh E 20.6 mph33.2 kmh 29.55 in1000.7 mb 0.17 in4.3 mm 0.00 in0.0 mm 1.68 in42.7 mm
09:31 AM 73.2°F22.9°C 70.5°F21.4°C 91% 11.4 mph NNW18.3 kmh NNW 16.8 mph27.0 kmh 29.55 in1000.7 mb 0.17 in4.3 mm 0.00 in0.0 mm 1.68 in42.7 mm
09:32 AM 73.4°F23.0°C 70.7°F21.5°C 91% 15.9 mph N25.6 kmh N 22.8 mph36.7 kmh 29.55 in1000.7 mb 0.17 in4.3 mm 0.00 in0.0 mm 1.68 in42.7 mm
09:33 AM 73.2°F22.9°C 70.5°F21.4°C 91% 15.2 mph N24.5 kmh N 22.8 mph36.7 kmh 29.54 in1000.3 mb 0.14 in3.6 mm 0.00 in0.0 mm 1.68 in42.7 mm
09:34 AM 73.4°F23.0°C 70.7°F21.5°C 91% 12.1 mph NNE19.5 kmh NNE 22.8 mph36.7 kmh 29.55 in1000.7 mb 0.14 in3.6 mm 0.00 in0.0 mm 1.68 in42.7 mm
09:35 AM 73.4°F23.0°C 70.7°F21.5°C 91% 11.4 mph NNE18.3 kmh NNE 22.8 mph36.7 kmh 29.54 in1000.3 mb 0.13 in3.3 mm 0.00 in0.0 mm 1.68 in42.7 mm
09:36 AM 73.4°F23.0°C 70.7°F21.5°C 91% 12.1 mph NE19.5 kmh NE 22.8 mph36.7 kmh 29.54 in1000.3 mb 0.10 in2.5 mm 0.00 in0.0 mm 1.68 in42.7 mm
09:37 AM 73.6°F23.1°C 70.8°F21.6°C 91% 13.6 mph NE21.9 kmh NE 22.8 mph36.7 kmh 29.55 in1000.7 mb 0.10 in2.5 mm 0.00 in0.0 mm 1.68 in42.7 mm
09:38 AM 73.6°F23.1°C 70.5°F21.4°C 90% 10.7 mph NNE17.2 kmh NNE 22.8 mph36.7 kmh 29.55 in1000.7 mb 0.04 in1.0 mm 0.00 in0.0 mm 1.68 in42.7 mm
09:39 AM 73.6°F23.1°C 70.5°F21.4°C 90% 11.4 mph NNE18.3 kmh NNE 22.8 mph36.7 kmh 29.55 in1000.7 mb 0.03 in0.8 mm 0.00 in0.0 mm 1.68 in42.7 mm
09:40 AM 73.8°F23.2°C 70.7°F21.5°C 90% 15.9 mph NNE25.6 kmh NNE 22.8 mph36.7 kmh 29.56 in1001.0 mb 0.03 in0.8 mm 0.00 in0.0 mm 1.68 in42.7 mm
09:41 AM 73.8°F23.2°C 70.7°F21.5°C 90% 15.2 mph NNE24.5 kmh NNE 22.8 mph36.7 kmh 29.55 in1000.7 mb 0.01 in0.3 mm 0.00 in0.0 mm 1.68 in42.7 mm
09:42 AM 73.8°F23.2°C 70.4°F21.3°C 89% 14.5 mph NNE23.3 kmh NNE 22.8 mph36.7 kmh 29.55 in1000.7 mb 0.01 in0.3 mm 0.00 in0.0 mm 1.68 in42.7 mm
09:43 AM 73.8°F23.2°C 70.4°F21.3°C 89% 14.5 mph NNE23.3 kmh NNE 22.8 mph36.7 kmh 29.55 in1000.7 mb 0.01 in0.3 mm 0.00 in0.0 mm 1.68 in42.7 mm
09:44 AM 73.8°F23.2°C 70.4°F21.3°C 89% 15.2 mph NNE24.5 kmh NNE 22.8 mph36.7 kmh 29.55 in1000.7 mb 0.01 in0.3 mm 0.00 in0.0 mm 1.68 in42.7 mm
09:45 AM 73.9°F23.3°C 70.5°F21.4°C 89% 11.4 mph NNE18.3 kmh NNE 22.8 mph36.7 kmh 29.55 in1000.7 mb 0.01 in0.3 mm 0.00 in0.0 mm 1.68 in42.7 mm
09:46 AM 73.9°F23.3°C 70.2°F21.2°C 88% 13.6 mph NNE21.9 kmh NNE 22.8 mph36.7 kmh 29.55 in1000.7 mb 0.01 in0.3 mm 0.00 in0.0 mm 1.68 in42.7 mm
09:47 AM 73.9°F23.3°C 70.2°F21.2°C 88% 11.4 mph NNE18.3 kmh NNE 22.8 mph36.7 kmh 29.55 in1000.7 mb 0.01 in0.3 mm 0.00 in0.0 mm 1.68 in42.7 mm
09:48 AM 73.9°F23.3°C 70.2°F21.2°C 88% 12.1 mph N19.5 kmh N 22.8 mph36.7 kmh 29.55 in1000.7 mb 0.01 in0.3 mm 0.00 in0.0 mm 1.68 in42.7 mm
09:49 AM 73.9°F23.3°C 70.2°F21.2°C 88% 8.3 mph N13.4 kmh N 22.8 mph36.7 kmh 29.54 in1000.3 mb 0.00 in0.0 mm 0.00 in0.0 mm 1.68 in42.7 mm
09:50 AM 74.1°F23.4°C 70.4°F21.3°C 88% 9.8 mph N15.8 kmh N 22.8 mph36.7 kmh 29.55 in1000.7 mb 0.00 in0.0 mm 0.00 in0.0 mm 1.68 in42.7 mm
09:51 AM 74.1°F23.4°C 70.4°F21.3°C 88% 9.2 mph N14.8 kmh N 22.1 mph35.6 kmh 29.54 in1000.3 mb 0.00 in0.0 mm 0.00 in0.0 mm 1.68 in42.7 mm
09:52 AM 74.1°F23.4°C 70.4°F21.3°C 88% 8.3 mph N13.4 kmh N 22.1 mph35.6 kmh 29.54 in1000.3 mb 0.00 in0.0 mm 0.00 in0.0 mm 1.68 in42.7 mm
09:53 AM 74.3°F23.5°C 70.6°F21.4°C 88% 11.4 mph NNE18.3 kmh NNE 22.1 mph35.6 kmh 29.54 in1000.3 mb 0.00 in0.0 mm 0.00 in0.0 mm 1.68 in42.7 mm
09:54 AM 74.3°F23.5°C 70.6°F21.4°C 88% 13.6 mph NNE21.9 kmh NNE 21.3 mph34.3 kmh 29.54 in1000.3 mb 0.00 in0.0 mm 0.00 in0.0 mm 1.68 in42.7 mm
09:55 AM 74.3°F23.5°C 70.6°F21.4°C 88% 14.5 mph N23.3 kmh N 21.3 mph34.3 kmh 29.55 in1000.7 mb 0.00 in0.0 mm 0.00 in0.0 mm 1.68 in42.7 mm
09:56 AM 74.3°F23.5°C 70.2°F21.2°C 87% 11.4 mph N18.3 kmh N 21.3 mph34.3 kmh 29.54 in1000.3 mb 0.00 in0.0 mm 0.00 in0.0 mm 1.68 in42.7 mm
09:57 AM 74.3°F23.5°C 70.2°F21.2°C 87% 10.7 mph N17.2 kmh N 21.3 mph34.3 kmh 29.54 in1000.3 mb 0.00 in0.0 mm 0.00 in0.0 mm 1.68 in42.7 mm
09:58 AM 74.3°F23.5°C 70.2°F21.2°C 87% 10.7 mph N17.2 kmh N 21.3 mph34.3 kmh 29.54 in1000.3 mb 0.00 in0.0 mm 0.00 in0.0 mm 1.68 in42.7 mm
09:59 AM 74.3°F23.5°C 70.2°F21.2°C 87% 8.3 mph NNE13.4 kmh NNE 21.3 mph34.3 kmh 29.54 in1000.3 mb 0.00 in0.0 mm 0.00 in0.0 mm 1.68 in42.7 mm
10:00 AM 74.3°F23.5°C 70.2°F21.2°C 87% 14.5 mph NNE23.3 kmh NNE 24.4 mph39.3 kmh 29.55 in1000.7 mb 0.00 in0.0 mm 0.00 in0.0 mm 1.68 in42.7 mm
10:01 AM 74.3°F23.5°C 70.2°F21.2°C 87% 10.7 mph NNE17.2 kmh NNE 24.4 mph39.3 kmh 29.54 in1000.3 mb 0.00 in0.0 mm 0.00 in0.0 mm 1.68 in42.7 mm
10:02 AM 74.3°F23.5°C 70.2°F21.2°C 87% 13.6 mph NNE21.9 kmh NNE 24.4 mph39.3 kmh 29.54 in1000.3 mb 0.00 in0.0 mm 0.00 in0.0 mm 1.68 in42.7 mm
10:03 AM 74.3°F23.5°C 70.2°F21.2°C 87% 9.8 mph NNE15.8 kmh NNE 24.4 mph39.3 kmh 29.54 in1000.3 mb 0.00 in0.0 mm 0.00 in0.0 mm 1.68 in42.7 mm
10:04 AM 74.3°F23.5°C 69.9°F21.1°C 86% 13.0 mph NNE20.9 kmh NNE 24.4 mph39.3 kmh 29.54 in1000.3 mb 0.00 in0.0 mm 0.00 in0.0 mm 1.68 in42.7 mm
10:05 AM 74.3°F23.5°C 69.9°F21.1°C 86% 13.0 mph NE20.9 kmh NE 24.4 mph39.3 kmh 29.54 in1000.3 mb 0.00 in0.0 mm 0.00 in0.0 mm 1.68 in42.7 mm
10:06 AM 74.3°F23.5°C 69.9°F21.1°C 86% 7.6 mph NE12.2 kmh NE 24.4 mph39.3 kmh 29.54 in1000.3 mb 0.00 in0.0 mm 0.00 in0.0 mm 1.68 in42.7 mm
10:07 AM 74.3°F23.5°C 69.9°F21.1°C 86% 10.7 mph NE17.2 kmh NE 24.4 mph39.3 kmh 29.55 in1000.7 mb 0.00 in0.0 mm 0.00 in0.0 mm 1.68 in42.7 mm
10:08 AM 74.3°F23.5°C 69.9°F21.1°C 86% 8.3 mph NE13.4 kmh NE 24.4 mph39.3 kmh 29.54 in1000.3 mb 0.00 in0.0 mm 0.00 in0.0 mm 1.68 in42.7 mm
10:09 AM 74.3°F23.5°C 69.9°F21.1°C 86% 10.7 mph NE17.2 kmh NE 24.4 mph39.3 kmh 29.55 in1000.7 mb 0.00 in0.0 mm 0.00 in0.0 mm 1.68 in42.7 mm
10:10 AM 74.3°F23.5°C 69.9°F21.1°C 86% 11.4 mph NE18.3 kmh NE 24.4 mph39.3 kmh 29.54 in1000.3 mb 0.00 in0.0 mm 0.00 in0.0 mm 1.68 in42.7 mm
10:11 AM 74.3°F23.5°C 69.9°F21.1°C 86% 9.8 mph NE15.8 kmh NE 22.1 mph35.6 kmh 29.55 in1000.7 mb 0.00 in0.0 mm 0.00 in0.0 mm 1.68 in42.7 mm
10:12 AM 74.3°F23.5°C 69.9°F21.1°C 86% 9.2 mph NE14.8 kmh NE 22.1 mph35.6 kmh 29.55 in1000.7 mb 0.00 in0.0 mm 0.00 in0.0 mm 1.68 in42.7 mm
10:13 AM 74.3°F23.5°C 69.9°F21.1°C 86% 9.8 mph NE15.8 kmh NE 22.1 mph35.6 kmh 29.54 in1000.3 mb 0.00 in0.0 mm 0.00 in0.0 mm 1.68 in42.7 mm
10:14 AM 74.7°F23.7°C 70.2°F21.2°C 86% 9.2 mph NE14.8 kmh NE 22.1 mph35.6 kmh 29.55 in1000.7 mb 0.00 in0.0 mm 0.00 in0.0 mm 1.68 in42.7 mm
10:15 AM 74.7°F23.7°C 70.2°F21.2°C 86% 12.1 mph NNE19.5 kmh NNE 19.7 mph31.7 kmh 29.54 in1000.3 mb 0.00 in0.0 mm 0.00 in0.0 mm 1.68 in42.7 mm
10:16 AM 74.7°F23.7°C 70.2°F21.2°C 86% 13.0 mph NNE20.9 kmh NNE 19.7 mph31.7 kmh 29.54 in1000.3 mb 0.00 in0.0 mm 0.00 in0.0 mm 1.68 in42.7 mm
10:17 AM 74.7°F23.7°C 69.9°F21.1°C 85% 9.8 mph NNE15.8 kmh NNE 19.7 mph31.7 kmh 29.53 in1000.0 mb 0.00 in0.0 mm 0.00 in0.0 mm 1.68 in42.7 mm
10:18 AM 74.7°F23.7°C 69.9°F21.1°C 85% 5.4 mph NNE8.7 kmh NNE 19.7 mph31.7 kmh 29.53 in1000.0 mb 0.00 in0.0 mm 0.00 in0.0 mm 1.68 in42.7 mm
10:19 AM 74.7°F23.7°C 69.9°F21.1°C 85% 4.5 mph NNE7.2 kmh NNE 19.7 mph31.7 kmh 29.54 in1000.3 mb 0.00 in0.0 mm 0.00 in0.0 mm 1.68 in42.7 mm
10:20 AM 74.7°F23.7°C 69.9°F21.1°C 85% 9.2 mph N14.8 kmh N 19.7 mph31.7 kmh 29.54 in1000.3 mb 0.00 in0.0 mm 0.00 in0.0 mm 1.68 in42.7 mm
10:21 AM 74.7°F23.7°C 69.9°F21.1°C 85% 8.3 mph NNE13.4 kmh NNE 19.7 mph31.7 kmh 29.54 in1000.3 mb 0.00 in0.0 mm 0.00 in0.0 mm 1.68 in42.7 mm
10:22 AM 74.8°F23.8°C 70.1°F21.2°C 85% 6.9 mph NNE11.1 kmh NNE 19.7 mph31.7 kmh 29.54 in1000.3 mb 0.00 in0.0 mm 0.00 in0.0 mm 1.68 in42.7 mm
10:23 AM 74.8°F23.8°C 70.1°F21.2°C 85% 6.9 mph N11.1 kmh N 19.7 mph31.7 kmh 29.54 in1000.3 mb 0.00 in0.0 mm 0.00 in0.0 mm 1.68 in42.7 mm
10:24 AM 75.0°F23.9°C 70.2°F21.2°C 85% 8.3 mph NNE13.4 kmh NNE 19.7 mph31.7 kmh 29.54 in1000.3 mb 0.00 in0.0 mm 0.00 in0.0 mm 1.68 in42.7 mm
10:25 AM 75.0°F23.9°C 70.2°F21.2°C 85% 12.1 mph NNE19.5 kmh NNE 19.7 mph31.7 kmh 29.53 in1000.0 mb 0.00 in0.0 mm 0.00 in0.0 mm 1.68 in42.7 mm
10:26 AM 75.0°F23.9°C 70.2°F21.2°C 85% 9.8 mph NNE15.8 kmh NNE 17.4 mph28.0 kmh 29.53 in1000.0 mb 0.00 in0.0 mm 0.00 in0.0 mm 1.68 in42.7 mm
10:27 AM 75.2°F24.0°C 70.1°F21.2°C 84% 9.2 mph NNE14.8 kmh NNE 16.8 mph27.0 kmh 29.53 in1000.0 mb 0.00 in0.0 mm 0.00 in0.0 mm 1.68 in42.7 mm
10:28 AM 75.2°F24.0°C 70.1°F21.2°C 84% 10.7 mph NNE17.2 kmh NNE 16.8 mph27.0 kmh 29.52 in999.7 mb 0.00 in0.0 mm 0.00 in0.0 mm 1.68 in42.7 mm
10:29 AM 75.2°F24.0°C 70.1°F21.2°C 84% 13.0 mph NE20.9 kmh NE 17.4 mph28.0 kmh 29.52 in999.7 mb 0.00 in0.0 mm 0.00 in0.0 mm 1.68 in42.7 mm
10:30 AM 75.6°F24.2°C 70.4°F21.3°C 84% 13.6 mph NE21.9 kmh NE 22.1 mph35.6 kmh 29.52 in999.7 mb 0.00 in0.0 mm 0.00 in0.0 mm 1.68 in42.7 mm
10:31 AM 75.6°F24.2°C 70.1°F21.2°C 83% 9.8 mph NE15.8 kmh NE 22.1 mph35.6 kmh 29.52 in999.7 mb 0.00 in0.0 mm 0.00 in0.0 mm 1.68 in42.7 mm
10:32 AM 75.7°F24.3°C 70.3°F21.3°C 83% 9.2 mph NE14.8 kmh NE 22.1 mph35.6 kmh 29.52 in999.7 mb 0.00 in0.0 mm 0.00 in0.0 mm 1.68 in42.7 mm
10:33 AM 75.9°F24.4°C 70.4°F21.3°C 83% 12.1 mph NE19.5 kmh NE 22.1 mph35.6 kmh 29.52 in999.7 mb 0.00 in0.0 mm 0.00 in0.0 mm 1.68 in42.7 mm
10:34 AM 75.9°F24.4°C 70.1°F21.2°C 82% 9.8 mph NE15.8 kmh NE 22.1 mph35.6 kmh 29.53 in1000.0 mb 0.00 in0.0 mm 0.00 in0.0 mm 1.68 in42.7 mm
10:35 AM 76.1°F24.5°C 70.3°F21.3°C 82% 13.0 mph NE20.9 kmh NE 22.1 mph35.6 kmh 29.53 in1000.0 mb 0.00 in0.0 mm 0.00 in0.0 mm 1.68 in42.7 mm
10:36 AM 76.1°F24.5°C 70.3°F21.3°C 82% 9.8 mph NE15.8 kmh NE 22.1 mph35.6 kmh 29.54 in1000.3 mb 0.00 in0.0 mm 0.00 in0.0 mm 1.68 in42.7 mm
10:37 AM 76.1°F24.5°C 69.9°F21.1°C 81% 6.9 mph NE11.1 kmh NE 22.1 mph35.6 kmh 29.53 in1000.0 mb 0.00 in0.0 mm 0.00 in0.0 mm 1.68 in42.7 mm
10:38 AM 76.1°F24.5°C 69.9°F21.1°C 81% 10.7 mph NE17.2 kmh NE 22.1 mph35.6 kmh 29.52 in999.7 mb 0.00 in0.0 mm 0.00 in0.0 mm 1.68 in42.7 mm
10:39 AM 75.9°F24.4°C 69.7°F20.9°C 81% 6.9 mph NNE11.1 kmh NNE 22.1 mph35.6 kmh 29.53 in1000.0 mb 0.00 in0.0 mm 0.00 in0.0 mm 1.68 in42.7 mm
10:40 AM 75.9°F24.4°C 69.7°F20.9°C 81% 4.5 mph NE7.2 kmh NE 22.1 mph35.6 kmh 29.53 in1000.0 mb 0.00 in0.0 mm 0.00 in0.0 mm 1.68 in42.7 mm
10:41 AM 75.9°F24.4°C 69.7°F20.9°C 81% 9.2 mph NE14.8 kmh NE 20.6 mph33.2 kmh 29.53 in1000.0 mb 0.00 in0.0 mm 0.00 in0.0 mm 1.68 in42.7 mm
10:42 AM 75.9°F24.4°C 69.7°F20.9°C 81% 9.2 mph NE14.8 kmh NE 20.6 mph33.2 kmh 29.54 in1000.3 mb 0.00 in0.0 mm 0.00 in0.0 mm 1.68 in42.7 mm
10:43 AM 75.7°F24.3°C 69.5°F20.8°C 81% 10.7 mph NE17.2 kmh NE 20.6 mph33.2 kmh 29.53 in1000.0 mb 0.00 in0.0 mm 0.00 in0.0 mm 1.68 in42.7 mm
10:44 AM 75.7°F24.3°C 69.5°F20.8°C 81% 9.2 mph NE14.8 kmh NE 20.6 mph33.2 kmh 29.53 in1000.0 mb 0.00 in0.0 mm 0.00 in0.0 mm 1.68 in42.7 mm
10:45 AM 75.6°F24.2°C 69.4°F20.8°C 81% 7.6 mph NE12.2 kmh NE 20.6 mph33.2 kmh 29.54 in1000.3 mb 0.00 in0.0 mm 0.00 in0.0 mm 1.68 in42.7 mm
10:46 AM 75.6°F24.2°C 69.4°F20.8°C 81% 5.4 mph NE8.7 kmh NE 15.2 mph24.5 kmh 29.54 in1000.3 mb 0.00 in0.0 mm 0.00 in0.0 mm 1.68 in42.7 mm
10:47 AM 75.6°F24.2°C 69.7°F20.9°C 82% 4.5 mph NE7.2 kmh NE 15.2 mph24.5 kmh 29.53 in1000.0 mb 0.00 in0.0 mm 0.00 in0.0 mm 1.68 in42.7 mm
10:48 AM 75.6°F24.2°C 69.7°F20.9°C 82% 6.0 mph NE9.7 kmh NE 15.2 mph24.5 kmh 29.54 in1000.3 mb 0.00 in0.0 mm 0.00 in0.0 mm 1.68 in42.7 mm
10:49 AM 75.6°F24.2°C 69.7°F20.9°C 82% 6.0 mph NE9.7 kmh NE 15.2 mph24.5 kmh 29.53 in1000.0 mb 0.00 in0.0 mm 0.00 in0.0 mm 1.68 in42.7 mm
10:50 AM 75.6°F24.2°C 69.7°F20.9°C 82% 9.8 mph NE15.8 kmh NE 15.9 mph25.6 kmh 29.54 in1000.3 mb 0.00 in0.0 mm 0.00 in0.0 mm 1.68 in42.7 mm
10:51 AM 75.4°F24.1°C 69.5°F20.8°C 82% 7.6 mph NE12.2 kmh NE 15.9 mph25.6 kmh 29.54 in1000.3 mb 0.00 in0.0 mm 0.00 in0.0 mm 1.68 in42.7 mm
10:52 AM 75.4°F24.1°C 69.5°F20.8°C 82% 11.4 mph NE18.3 kmh NE 15.9 mph25.6 kmh 29.55 in1000.7 mb 0.00 in0.0 mm 0.00 in0.0 mm 1.68 in42.7 mm
10:53 AM 75.2°F24.0°C 69.4°F20.8°C 82% 8.3 mph NE13.4 kmh NE 15.9 mph25.6 kmh 29.55 in1000.7 mb 0.00 in0.0 mm 0.00 in0.0 mm 1.68 in42.7 mm
10:54 AM 75.2°F24.0°C 69.4°F20.8°C 82% 6.9 mph NE11.1 kmh NE 15.9 mph25.6 kmh 29.55 in1000.7 mb 0.00 in0.0 mm 0.00 in0.0 mm 1.68 in42.7 mm
10:55 AM 75.2°F24.0°C 69.4°F20.8°C 82% 9.8 mph NE15.8 kmh NE 15.9 mph25.6 kmh 29.55 in1000.7 mb 0.00 in0.0 mm 0.00 in0.0 mm 1.68 in42.7 mm
10:56 AM 75.0°F23.9°C 69.5°F20.8°C 83% 7.6 mph NE12.2 kmh NE 15.9 mph25.6 kmh 29.55 in1000.7 mb 0.00 in0.0 mm 0.00 in0.0 mm 1.68 in42.7 mm
10:57 AM 75.0°F23.9°C 69.5°F20.8°C 83% 6.9 mph NE11.1 kmh NE 15.9 mph25.6 kmh 29.55 in1000.7 mb 0.00 in0.0 mm 0.00 in0.0 mm 1.68 in42.7 mm
10:58 AM 75.0°F23.9°C 69.9°F21.1°C 84% 6.9 mph NE11.1 kmh NE 15.9 mph25.6 kmh 29.55 in1000.7 mb 0.00 in0.0 mm 0.00 in0.0 mm 1.68 in42.7 mm
10:59 AM 74.8°F23.8°C 69.7°F20.9°C 84% 8.3 mph NE13.4 kmh NE 15.9 mph25.6 kmh 29.55 in1000.7 mb 0.00 in0.0 mm 0.00 in0.0 mm 1.68 in42.7 mm
11:00 AM 74.8°F23.8°C 69.7°F20.9°C 84% 8.3 mph NE13.4 kmh NE 15.9 mph25.6 kmh 29.55 in1000.7 mb 0.00 in0.0 mm 0.00 in0.0 mm 1.68 in42.7 mm
11:01 AM 74.8°F23.8°C 69.7°F20.9°C 84% 6.0 mph NE9.7 kmh NE 15.2 mph24.5 kmh 29.55 in1000.7 mb 0.00 in0.0 mm 0.00 in0.0 mm 1.68 in42.7 mm
11:02 AM 74.8°F23.8°C 69.7°F20.9°C 84% 8.3 mph NE13.4 kmh NE 15.2 mph24.5 kmh 29.55 in1000.7 mb 0.00 in0.0 mm 0.00 in0.0 mm 1.68 in42.7 mm
11:03 AM 74.8°F23.8°C 69.7°F20.9°C 84% 5.4 mph NE8.7 kmh NE 15.2 mph24.5 kmh 29.55 in1000.7 mb 0.00 in0.0 mm 0.00 in0.0 mm 1.68 in42.7 mm
11:04 AM 75.0°F23.9°C 69.5°F20.8°C 83% 6.9 mph NE11.1 kmh NE 15.2 mph24.5 kmh 29.55 in1000.7 mb 0.00 in0.0 mm 0.00 in0.0 mm 1.68 in42.7 mm
11:05 AM 75.0°F23.9°C 69.9°F21.1°C 84% 7.6 mph NE12.2 kmh NE 15.2 mph24.5 kmh 29.55 in1000.7 mb 0.00 in0.0 mm 0.00 in0.0 mm 1.68 in42.7 mm
11:06 AM 75.2°F24.0°C 69.4°F20.8°C 82% 6.0 mph ENE9.7 kmh ENE 15.2 mph24.5 kmh 29.54 in1000.3 mb 0.00 in0.0 mm 0.00 in0.0 mm 1.68 in42.7 mm
11:07 AM 75.4°F24.1°C 69.5°F20.8°C 82% 5.4 mph ENE8.7 kmh ENE 15.2 mph24.5 kmh 29.54 in1000.3 mb 0.00 in0.0 mm 0.00 in0.0 mm 1.68 in42.7 mm
11:08 AM 75.6°F24.2°C 69.7°F20.9°C 82% 6.0 mph ENE9.7 kmh ENE 15.2 mph24.5 kmh 29.54 in1000.3 mb 0.00 in0.0 mm 0.00 in0.0 mm 1.68 in42.7 mm
11:09 AM 75.7°F24.3°C 69.9°F21.1°C 82% 4.5 mph ENE7.2 kmh ENE 15.2 mph24.5 kmh 29.54 in1000.3 mb 0.00 in0.0 mm 0.00 in0.0 mm 1.68 in42.7 mm
11:10 AM 76.3°F24.6°C 70.1°F21.2°C 81% 6.9 mph E11.1 kmh E 15.2 mph24.5 kmh 29.54 in1000.3 mb 0.00 in0.0 mm 0.00 in0.0 mm 1.68 in42.7 mm
11:11 AM 76.3°F24.6°C 70.1°F21.2°C 81% 6.0 mph E9.7 kmh E 15.2 mph24.5 kmh 29.54 in1000.3 mb 0.00 in0.0 mm 0.00 in0.0 mm 1.68 in42.7 mm
11:12 AM 76.6°F24.8°C 70.1°F21.2°C 80% 6.9 mph E11.1 kmh E 16.8 mph27.0 kmh 29.54 in1000.3 mb 0.00 in0.0 mm 0.00 in0.0 mm 1.68 in42.7 mm
11:13 AM 76.6°F24.8°C 70.1°F21.2°C 80% 7.6 mph E12.2 kmh E 16.8 mph27.0 kmh 29.54 in1000.3 mb 0.00 in0.0 mm 0.00 in0.0 mm 1.68 in42.7 mm
11:14 AM 76.8°F24.9°C 69.9°F21.1°C 79% 6.9 mph E11.1 kmh E 16.8 mph27.0 kmh 29.55 in1000.7 mb 0.00 in0.0 mm 0.00 in0.0 mm 1.68 in42.7 mm
11:15 AM 77.0°F25.0°C 69.3°F20.7°C 77% 6.9 mph ENE11.1 kmh ENE 16.8 mph27.0 kmh 29.55 in1000.7 mb 0.00 in0.0 mm 0.00 in0.0 mm 1.68 in42.7 mm
11:16 AM 77.0°F25.0°C 69.3°F20.7°C 77% 6.0 mph ENE9.7 kmh ENE 16.8 mph27.0 kmh 29.55 in1000.7 mb 0.00 in0.0 mm 0.00 in0.0 mm 1.68 in42.7 mm
11:17 AM 77.0°F25.0°C 69.3°F20.7°C 77% 6.9 mph ENE11.1 kmh ENE 16.8 mph27.0 kmh 29.54 in1000.3 mb 0.00 in0.0 mm 0.00 in0.0 mm 1.68 in42.7 mm
11:18 AM 77.0°F25.0°C 69.3°F20.7°C 77% 7.6 mph ENE12.2 kmh ENE 16.8 mph27.0 kmh 29.54 in1000.3 mb 0.00 in0.0 mm 0.00 in0.0 mm 1.68 in42.7 mm
11:19 AM 77.0°F25.0°C 68.9°F20.5°C 76% 9.2 mph ENE14.8 kmh ENE 16.8 mph27.0 kmh 29.55 in1000.7 mb 0.00 in0.0 mm 0.00 in0.0 mm 1.68 in42.7 mm
11:20 AM 77.0°F25.0°C 68.9°F20.5°C 76% 8.3 mph ENE13.4 kmh ENE 16.8 mph27.0 kmh 29.55 in1000.7 mb 0.00 in0.0 mm 0.00 in0.0 mm 1.68 in42.7 mm
11:21 AM 77.0°F25.0°C 68.9°F20.5°C 76% 5.4 mph ENE8.7 kmh ENE 16.8 mph27.0 kmh 29.55 in1000.7 mb 0.00 in0.0 mm 0.00 in0.0 mm 1.68 in42.7 mm
11:22 AM 77.2°F25.1°C 69.1°F20.6°C 76% 5.4 mph ENE8.7 kmh ENE 16.8 mph27.0 kmh 29.55 in1000.7 mb 0.00 in0.0 mm 0.00 in0.0 mm 1.68 in42.7 mm
11:23 AM 77.2°F25.1°C 69.1°F20.6°C 76% 5.4 mph ENE8.7 kmh ENE 13.6 mph21.9 kmh 29.55 in1000.7 mb 0.00 in0.0 mm 0.00 in0.0 mm 1.68 in42.7 mm
11:24 AM 77.2°F25.1°C 69.1°F20.6°C 76% 8.3 mph ENE13.4 kmh ENE 13.6 mph21.9 kmh 29.55 in1000.7 mb 0.00 in0.0 mm 0.00 in0.0 mm 1.68 in42.7 mm
11:25 AM 77.2°F25.1°C 69.1°F20.6°C 76% 4.5 mph ENE7.2 kmh ENE 13.6 mph21.9 kmh 29.55 in1000.7 mb 0.00 in0.0 mm 0.00 in0.0 mm 1.68 in42.7 mm
11:26 AM 77.2°F25.1°C 69.1°F20.6°C 76% 9.8 mph ENE15.8 kmh ENE 15.9 mph25.6 kmh 29.55 in1000.7 mb 0.00 in0.0 mm 0.00 in0.0 mm 1.68 in42.7 mm
11:27 AM 77.2°F25.1°C 68.7°F20.4°C 75% 7.6 mph ENE12.2 kmh ENE 15.9 mph25.6 kmh 29.55 in1000.7 mb 0.00 in0.0 mm 0.00 in0.0 mm 1.68 in42.7 mm
11:28 AM 77.2°F25.1°C 68.7°F20.4°C 75% 10.7 mph ENE17.2 kmh ENE 15.9 mph25.6 kmh 29.55 in1000.7 mb 0.00 in0.0 mm 0.00 in0.0 mm 1.68 in42.7 mm
11:29 AM 77.2°F25.1°C 68.7°F20.4°C 75% 8.3 mph ENE13.4 kmh ENE 15.9 mph25.6 kmh 29.55 in1000.7 mb 0.00 in0.0 mm 0.00 in0.0 mm 1.68 in42.7 mm
11:30 AM 77.0°F25.0°C 68.5°F20.3°C 75% 7.6 mph NE12.2 kmh NE 15.9 mph25.6 kmh 29.56 in1001.0 mb 0.00 in0.0 mm 0.00 in0.0 mm 1.68 in42.7 mm
11:31 AM 77.0°F25.0°C 68.5°F20.3°C 75% 5.4 mph NE8.7 kmh NE 15.9 mph25.6 kmh 29.56 in1001.0 mb 0.00 in0.0 mm 0.00 in0.0 mm 1.68 in42.7 mm
11:32 AM 76.8°F24.9°C 68.7°F20.4°C 76% 7.6 mph NE12.2 kmh NE 15.9 mph25.6 kmh 29.55 in1000.7 mb 0.00 in0.0 mm 0.00 in0.0 mm 1.68 in42.7 mm
11:33 AM 76.8°F24.9°C 68.7°F20.4°C 76% 9.2 mph NE14.8 kmh NE 15.9 mph25.6 kmh 29.56 in1001.0 mb 0.00 in0.0 mm 0.00 in0.0 mm 1.68 in42.7 mm
11:34 AM 76.6°F24.8°C 68.6°F20.3°C 76% 11.4 mph NE18.3 kmh NE 15.9 mph25.6 kmh 29.56 in1001.0 mb 0.00 in0.0 mm 0.00 in0.0 mm 1.68 in42.7 mm
11:35 AM 76.6°F24.8°C 68.6°F20.3°C 76% 8.3 mph NE13.4 kmh NE 15.9 mph25.6 kmh 29.56 in1001.0 mb 0.00 in0.0 mm 0.00 in0.0 mm 1.68 in42.7 mm
11:36 AM 76.5°F24.7°C 68.4°F20.2°C 76% 9.2 mph NE14.8 kmh NE 15.9 mph25.6 kmh 29.56 in1001.0 mb 0.00 in0.0 mm 0.00 in0.0 mm 1.68 in42.7 mm
11:37 AM 76.5°F24.7°C 68.4°F20.2°C 76% 9.2 mph NE14.8 kmh NE 15.9 mph25.6 kmh 29.56 in1001.0 mb 0.00 in0.0 mm 0.00 in0.0 mm 1.68 in42.7 mm
11:38 AM 76.3°F24.6°C 68.2°F20.1°C 76% 11.4 mph NE18.3 kmh NE 15.9 mph25.6 kmh 29.56 in1001.0 mb 0.00 in0.0 mm 0.00 in0.0 mm 1.68 in42.7 mm
11:39 AM 76.1°F24.5°C 68.0°F20.0°C 76% 12.1 mph NE19.5 kmh NE 15.9 mph25.6 kmh 29.56 in1001.0 mb 0.00 in0.0 mm 0.00 in0.0 mm 1.68 in42.7 mm
11:40 AM 75.9°F24.4°C 67.9°F19.9°C 76% 11.4 mph NE18.3 kmh NE 15.9 mph25.6 kmh 29.55 in1000.7 mb 0.00 in0.0 mm 0.00 in0.0 mm 1.68 in42.7 mm
11:41 AM 75.9°F24.4°C 67.9°F19.9°C 76% 9.8 mph NE15.8 kmh NE 15.9 mph25.6 kmh 29.55 in1000.7 mb 0.00 in0.0 mm 0.00 in0.0 mm 1.68 in42.7 mm
11:42 AM 75.7°F24.3°C 68.1°F20.1°C 77% 12.1 mph NE19.5 kmh NE 17.4 mph28.0 kmh 29.56 in1001.0 mb 0.00 in0.0 mm 0.00 in0.0 mm 1.68 in42.7 mm
11:43 AM 75.7°F24.3°C 68.1°F20.1°C 77% 11.4 mph NE18.3 kmh NE 18.3 mph29.5 kmh 29.56 in1001.0 mb 0.00 in0.0 mm 0.00 in0.0 mm 1.68 in42.7 mm
11:44 AM 75.7°F24.3°C 68.1°F20.1°C 77% 8.3 mph NE13.4 kmh NE 18.3 mph29.5 kmh 29.56 in1001.0 mb 0.00 in0.0 mm 0.00 in0.0 mm 1.68 in42.7 mm
11:45 AM 75.7°F24.3°C 68.1°F20.1°C 77% 9.8 mph NE15.8 kmh NE 18.3 mph29.5 kmh 29.55 in1000.7 mb 0.00 in0.0 mm 0.00 in0.0 mm 1.68 in42.7 mm
11:46 AM 75.9°F24.4°C 68.2°F20.1°C 77% 13.0 mph NE20.9 kmh NE 18.3 mph29.5 kmh 29.56 in1001.0 mb 0.00 in0.0 mm 0.00 in0.0 mm 1.68 in42.7 mm
11:47 AM 75.9°F24.4°C 68.6°F20.3°C 78% 12.1 mph NE19.5 kmh NE 18.3 mph29.5 kmh 29.56 in1001.0 mb 0.00 in0.0 mm 0.00 in0.0 mm 1.68 in42.7 mm
11:48 AM 75.9°F24.4°C 68.6°F20.3°C 78% 11.4 mph NE18.3 kmh NE 18.3 mph29.5 kmh 29.56 in1001.0 mb 0.00 in0.0 mm 0.00 in0.0 mm 1.68 in42.7 mm
11:49 AM 75.9°F24.4°C 68.2°F20.1°C 77% 7.6 mph NNE12.2 kmh NNE 18.3 mph29.5 kmh 29.56 in1001.0 mb 0.00 in0.0 mm 0.00 in0.0 mm 1.68 in42.7 mm
11:50 AM 75.9°F24.4°C 68.6°F20.3°C 78% 10.7 mph NNE17.2 kmh NNE 18.3 mph29.5 kmh 29.57 in1001.4 mb 0.00 in0.0 mm 0.00 in0.0 mm 1.68 in42.7 mm
11:51 AM 75.9°F24.4°C 68.6°F20.3°C 78% 10.7 mph NNE17.2 kmh NNE 18.3 mph29.5 kmh 29.57 in1001.4 mb 0.00 in0.0 mm 0.00 in0.0 mm 1.68 in42.7 mm
11:52 AM 75.9°F24.4°C 68.6°F20.3°C 78% 8.3 mph NNE13.4 kmh NNE 18.3 mph29.5 kmh 29.57 in1001.4 mb 0.00 in0.0 mm 0.00 in0.0 mm 1.68 in42.7 mm
11:53 AM 75.9°F24.4°C 68.6°F20.3°C 78% 12.1 mph NNE19.5 kmh NNE 18.3 mph29.5 kmh 29.57 in1001.4 mb 0.00 in0.0 mm 0.00 in0.0 mm 1.68 in42.7 mm
11:54 AM 75.7°F24.3°C 68.4°F20.2°C 78% 9.8 mph NNE15.8 kmh NNE 18.3 mph29.5 kmh 29.56 in1001.0 mb 0.00 in0.0 mm 0.00 in0.0 mm 1.68 in42.7 mm
11:55 AM 75.7°F24.3°C 68.4°F20.2°C 78% 9.8 mph NE15.8 kmh NE 18.3 mph29.5 kmh 29.56 in1001.0 mb 0.00 in0.0 mm 0.00 in0.0 mm 1.68 in42.7 mm
11:56 AM 75.7°F24.3°C 68.4°F20.2°C 78% 9.8 mph NE15.8 kmh NE 18.3 mph29.5 kmh 29.56 in1001.0 mb 0.00 in0.0 mm 0.00 in0.0 mm 1.68 in42.7 mm
11:57 AM 75.7°F24.3°C 68.4°F20.2°C 78% 7.6 mph NE12.2 kmh NE 18.3 mph29.5 kmh 29.56 in1001.0 mb 0.00 in0.0 mm 0.00 in0.0 mm 1.68 in42.7 mm
11:58 AM 75.7°F24.3°C 68.4°F20.2°C 78% 7.6 mph NE12.2 kmh NE 16.8 mph27.0 kmh 29.57 in1001.4 mb 0.00 in0.0 mm 0.00 in0.0 mm 1.68 in42.7 mm
11:59 AM 75.7°F24.3°C 68.8°F20.4°C 79% 8.3 mph NE13.4 kmh NE 16.8 mph27.0 kmh 29.57 in1001.4 mb 0.00 in0.0 mm 0.00 in0.0 mm 1.68 in42.7 mm
12:00 PM 75.7°F24.3°C 68.8°F20.4°C 79% 4.5 mph NE7.2 kmh NE 16.8 mph27.0 kmh 29.56 in1001.0 mb 0.00 in0.0 mm 0.00 in0.0 mm 1.68 in42.7 mm
12:01 PM 75.7°F24.3°C 68.8°F20.4°C 79% 10.7 mph NE17.2 kmh NE 16.8 mph27.0 kmh 29.57 in1001.4 mb 0.00 in0.0 mm 0.00 in0.0 mm 1.68 in42.7 mm
12:02 PM 75.7°F24.3°C 68.8°F20.4°C 79% 7.6 mph NE12.2 kmh NE 16.8 mph27.0 kmh 29.56 in1001.0 mb 0.00 in0.0 mm 0.00 in0.0 mm 1.68 in42.7 mm
12:03 PM 75.7°F24.3°C 68.8°F20.4°C 79% 9.8 mph NE15.8 kmh NE 16.8 mph27.0 kmh 29.56 in1001.0 mb 0.00 in0.0 mm 0.00 in0.0 mm 1.68 in42.7 mm
12:04 PM 75.7°F24.3°C 68.8°F20.4°C 79% 9.2 mph NE14.8 kmh NE 16.8 mph27.0 kmh 29.56 in1001.0 mb 0.00 in0.0 mm 0.00 in0.0 mm 1.68 in42.7 mm
12:05 PM 75.6°F24.2°C 68.6°F20.3°C 79% 11.4 mph NE18.3 kmh NE 16.8 mph27.0 kmh 29.56 in1001.0 mb 0.00 in0.0 mm 0.00 in0.0 mm 1.68 in42.7 mm
12:06 PM 75.6°F24.2°C 68.6°F20.3°C 79% 10.7 mph NE17.2 kmh NE 16.8 mph27.0 kmh 29.56 in1001.0 mb 0.00 in0.0 mm 0.00 in0.0 mm 1.68 in42.7 mm
12:07 PM 75.6°F24.2°C 68.6°F20.3°C 79% 11.4 mph NE18.3 kmh NE 21.3 mph34.3 kmh 29.56 in1001.0 mb 0.00 in0.0 mm 0.00 in0.0 mm 1.68 in42.7 mm
12:08 PM 75.6°F24.2°C 68.6°F20.3°C 79% 10.7 mph NNE17.2 kmh NNE 21.3 mph34.3 kmh 29.56 in1001.0 mb 0.00 in0.0 mm 0.00 in0.0 mm 1.68 in42.7 mm
12:09 PM 75.4°F24.1°C 68.5°F20.3°C 79% 9.8 mph NNE15.8 kmh NNE 21.3 mph34.3 kmh 29.56 in1001.0 mb 0.00 in0.0 mm 0.00 in0.0 mm 1.68 in42.7 mm
12:10 PM 75.4°F24.1°C 68.8°F20.4°C 80% 6.9 mph NNE11.1 kmh NNE 21.3 mph34.3 kmh 29.55 in1000.7 mb 0.00 in0.0 mm 0.00 in0.0 mm 1.68 in42.7 mm
12:11 PM 75.4°F24.1°C 68.8°F20.4°C 80% 8.3 mph NNE13.4 kmh NNE 21.3 mph34.3 kmh 29.56 in1001.0 mb 0.00 in0.0 mm 0.00 in0.0 mm 1.68 in42.7 mm
12:12 PM 75.4°F24.1°C 68.8°F20.4°C 80% 8.3 mph NNE13.4 kmh NNE 21.3 mph34.3 kmh 29.55 in1000.7 mb 0.00 in0.0 mm 0.00 in0.0 mm 1.68 in42.7 mm
12:13 PM 75.4°F24.1°C 68.8°F20.4°C 80% 13.0 mph NNE20.9 kmh NNE 21.3 mph34.3 kmh 29.55 in1000.7 mb 0.00 in0.0 mm 0.00 in0.0 mm 1.68 in42.7 mm
12:14 PM 75.4°F24.1°C 69.2°F20.7°C 81% 9.2 mph NNE14.8 kmh NNE 21.3 mph34.3 kmh 29.55 in1000.7 mb 0.00 in0.0 mm 0.00 in0.0 mm 1.68 in42.7 mm
12:15 PM 75.2°F24.0°C 69.0°F20.6°C 81% 10.7 mph NE17.2 kmh NE 21.3 mph34.3 kmh 29.55 in1000.7 mb 0.00 in0.0 mm 0.00 in0.0 mm 1.68 in42.7 mm
12:16 PM 75.2°F24.0°C 69.0°F20.6°C 81% 11.4 mph NE18.3 kmh NE 21.3 mph34.3 kmh 29.55 in1000.7 mb 0.00 in0.0 mm 0.00 in0.0 mm 1.68 in42.7 mm
12:17 PM 75.2°F24.0°C 69.0°F20.6°C 81% 13.0 mph NE20.9 kmh NE 21.3 mph34.3 kmh 29.55 in1000.7 mb 0.00 in0.0 mm 0.00 in0.0 mm 1.68 in42.7 mm
12:18 PM 75.0°F23.9°C 69.5°F20.8°C 83% 13.0 mph NE20.9 kmh NE 20.6 mph33.2 kmh 29.55 in1000.7 mb 0.00 in0.0 mm 0.00 in0.0 mm 1.68 in42.7 mm
12:19 PM 75.0°F23.9°C 69.5°F20.8°C 83% 11.4 mph NE18.3 kmh NE 20.6 mph33.2 kmh 29.55 in1000.7 mb 0.00 in0.0 mm 0.00 in0.0 mm 1.68 in42.7 mm
12:20 PM 75.0°F23.9°C 69.5°F20.8°C 83% 8.3 mph NE13.4 kmh NE 20.6 mph33.2 kmh 29.56 in1001.0 mb 0.00 in0.0 mm 0.00 in0.0 mm 1.68 in42.7 mm
12:21 PM 75.0°F23.9°C 69.5°F20.8°C 83% 8.3 mph NE13.4 kmh NE 20.6 mph33.2 kmh 29.55 in1000.7 mb 0.00 in0.0 mm 0.00 in0.0 mm 1.68 in42.7 mm
12:22 PM 74.8°F23.8°C 69.7°F20.9°C 84% 6.0 mph NE9.7 kmh NE 20.6 mph33.2 kmh 29.55 in1000.7 mb 0.00 in0.0 mm 0.00 in0.0 mm 1.68 in42.7 mm
12:23 PM 74.8°F23.8°C 69.7°F20.9°C 84% 8.3 mph NE13.4 kmh NE 20.6 mph33.2 kmh 29.55 in1000.7 mb 0.00 in0.0 mm 0.00 in0.0 mm 1.68 in42.7 mm
12:24 PM 75.0°F23.9°C 69.9°F21.1°C 84% 11.4 mph NE18.3 kmh NE 22.1 mph35.6 kmh 29.55 in1000.7 mb 0.00 in0.0 mm 0.00 in0.0 mm 1.68 in42.7 mm
12:25 PM 75.0°F23.9°C 70.2°F21.2°C 85% 12.1 mph NE19.5 kmh NE 22.1 mph35.6 kmh 29.56 in1001.0 mb 0.00 in0.0 mm 0.00 in0.0 mm 1.68 in42.7 mm
12:26 PM 74.8°F23.8°C 70.1°F21.2°C 85% 4.5 mph NE7.2 kmh NE 22.1 mph35.6 kmh 29.55 in1000.7 mb 0.00 in0.0 mm 0.00 in0.0 mm 1.68 in42.7 mm
12:27 PM 74.8°F23.8°C 70.1°F21.2°C 85% 11.4 mph NE18.3 kmh NE 22.1 mph35.6 kmh 29.55 in1000.7 mb 0.00 in0.0 mm 0.00 in0.0 mm 1.68 in42.7 mm
12:28 PM 74.8°F23.8°C 70.1°F21.2°C 85% 7.6 mph NE12.2 kmh NE 22.1 mph35.6 kmh 29.55 in1000.7 mb 0.00 in0.0 mm 0.00 in0.0 mm 1.68 in42.7 mm
12:29 PM 74.7°F23.7°C 69.9°F21.1°C 85% 9.8 mph NE15.8 kmh NE 22.1 mph35.6 kmh 29.55 in1000.7 mb 0.00 in0.0 mm 0.00 in0.0 mm 1.68 in42.7 mm
12:30 PM 74.7°F23.7°C 69.9°F21.1°C 85% 9.8 mph NE15.8 kmh NE 22.1 mph35.6 kmh 29.55 in1000.7 mb 0.00 in0.0 mm 0.00 in0.0 mm 1.68 in42.7 mm
12:31 PM 74.7°F23.7°C 69.9°F21.1°C 85% 13.6 mph NE21.9 kmh NE 22.1 mph35.6 kmh 29.55 in1000.7 mb 0.00 in0.0 mm 0.00 in0.0 mm 1.68 in42.7 mm
12:32 PM 74.7°F23.7°C 69.9°F21.1°C 85% 9.2 mph NE14.8 kmh NE 22.1 mph35.6 kmh 29.54 in1000.3 mb 0.00 in0.0 mm 0.00 in0.0 mm 1.68 in42.7 mm
12:33 PM 74.8°F23.8°C 70.1°F21.2°C 85% 9.8 mph NE15.8 kmh NE 22.1 mph35.6 kmh 29.54 in1000.3 mb 0.00 in0.0 mm 0.00 in0.0 mm 1.68 in42.7 mm
12:34 PM 75.0°F23.9°C 70.2°F21.2°C 85% 7.6 mph NE12.2 kmh NE 20.6 mph33.2 kmh 29.54 in1000.3 mb 0.00 in0.0 mm 0.00 in0.0 mm 1.68 in42.7 mm
12:35 PM 75.0°F23.9°C 70.2°F21.2°C 85% 13.0 mph NE20.9 kmh NE 20.6 mph33.2 kmh 29.54 in1000.3 mb 0.00 in0.0 mm 0.00 in0.0 mm 1.68 in42.7 mm
12:36 PM 75.2°F24.0°C 70.1°F21.2°C 84% 9.2 mph NE14.8 kmh NE 20.6 mph33.2 kmh 29.54 in1000.3 mb 0.00 in0.0 mm 0.00 in0.0 mm 1.68 in42.7 mm
12:37 PM 75.4°F24.1°C 70.3°F21.3°C 84% 13.0 mph NE20.9 kmh NE 20.6 mph33.2 kmh 29.53 in1000.0 mb 0.00 in0.0 mm 0.00 in0.0 mm 1.68 in42.7 mm
12:38 PM 75.6°F24.2°C 70.4°F21.3°C 84% 13.0 mph NE20.9 kmh NE 20.6 mph33.2 kmh 29.53 in1000.0 mb 0.00 in0.0 mm 0.00 in0.0 mm 1.68 in42.7 mm
12:39 PM 75.7°F24.3°C 70.6°F21.4°C 84% 14.5 mph NE23.3 kmh NE 21.3 mph34.3 kmh 29.52 in999.7 mb 0.00 in0.0 mm 0.00 in0.0 mm 1.68 in42.7 mm
12:40 PM 75.9°F24.4°C 70.4°F21.3°C 83% 8.3 mph NE13.4 kmh NE 21.3 mph34.3 kmh 29.53 in1000.0 mb 0.00 in0.0 mm 0.00 in0.0 mm 1.68 in42.7 mm
12:41 PM 76.1°F24.5°C 70.3°F21.3°C 82% 11.4 mph NE18.3 kmh NE 21.3 mph34.3 kmh 29.53 in1000.0 mb 0.00 in0.0 mm 0.00 in0.0 mm 1.68 in42.7 mm
12:42 PM 76.3°F24.6°C 70.1°F21.2°C 81% 9.2 mph NE14.8 kmh NE 21.3 mph34.3 kmh 29.52 in999.7 mb 0.00 in0.0 mm 0.00 in0.0 mm 1.68 in42.7 mm
12:43 PM 76.5°F24.7°C 70.2°F21.2°C 81% 9.8 mph NE15.8 kmh NE 21.3 mph34.3 kmh 29.52 in999.7 mb 0.00 in0.0 mm 0.00 in0.0 mm 1.68 in42.7 mm
12:44 PM 76.6°F24.8°C 70.1°F21.2°C 80% 8.3 mph NE13.4 kmh NE 21.3 mph34.3 kmh 29.52 in999.7 mb 0.00 in0.0 mm 0.00 in0.0 mm 1.68 in42.7 mm
12:45 PM 76.6°F24.8°C 70.1°F21.2°C 80% 10.7 mph NE17.2 kmh NE 21.3 mph34.3 kmh 29.52 in999.7 mb 0.00 in0.0 mm 0.00 in0.0 mm 1.68 in42.7 mm
12:46 PM 77.0°F25.0°C 69.3°F20.7°C 77% 13.0 mph NE20.9 kmh NE 21.3 mph34.3 kmh 29.53 in1000.0 mb 0.00 in0.0 mm 0.00 in0.0 mm 1.68 in42.7 mm
12:47 PM 77.0°F25.0°C 69.3°F20.7°C 77% 10.7 mph NNE17.2 kmh NNE 21.3 mph34.3 kmh 29.52 in999.7 mb 0.00 in0.0 mm 0.00 in0.0 mm 1.68 in42.7 mm
12:48 PM 77.0°F25.0°C 68.9°F20.5°C 76% 8.3 mph NNE13.4 kmh NNE 21.3 mph34.3 kmh 29.53 in1000.0 mb 0.00 in0.0 mm 0.00 in0.0 mm 1.68 in42.7 mm
12:49 PM 77.0°F25.0°C 68.9°F20.5°C 76% 9.8 mph NE15.8 kmh NE 21.3 mph34.3 kmh 29.52 in999.7 mb 0.00 in0.0 mm 0.00 in0.0 mm 1.68 in42.7 mm
12:50 PM 77.2°F25.1°C 69.1°F20.6°C 76% 10.7 mph NE17.2 kmh NE 19.7 mph31.7 kmh 29.52 in999.7 mb 0.00 in0.0 mm 0.00 in0.0 mm 1.68 in42.7 mm
12:51 PM 77.2°F25.1°C 69.1°F20.6°C 76% 10.7 mph NNE17.2 kmh NNE 19.7 mph31.7 kmh 29.52 in999.7 mb 0.00 in0.0 mm 0.00 in0.0 mm 1.68 in42.7 mm
12:52 PM 77.4°F25.2°C 69.2°F20.7°C 76% 8.3 mph NNE13.4 kmh NNE 19.7 mph31.7 kmh 29.52 in999.7 mb 0.00 in0.0 mm 0.00 in0.0 mm 1.68 in42.7 mm
12:53 PM 77.4°F25.2°C 69.2°F20.7°C 76% 8.3 mph NNE13.4 kmh NNE 19.7 mph31.7 kmh 29.52 in999.7 mb 0.00 in0.0 mm 0.00 in0.0 mm 1.68 in42.7 mm
12:54 PM 77.7°F25.4°C 69.6°F20.9°C 76% 13.6 mph NE21.9 kmh NE 19.7 mph31.7 kmh 29.52 in999.7 mb 0.00 in0.0 mm 0.00 in0.0 mm 1.68 in42.7 mm
12:55 PM 77.7°F25.4°C 69.6°F20.9°C 76% 11.4 mph NE18.3 kmh NE 19.7 mph31.7 kmh 29.52 in999.7 mb 0.00 in0.0 mm 0.00 in0.0 mm 1.68 in42.7 mm
12:56 PM 77.7°F25.4°C 69.2°F20.7°C 75% 10.7 mph NE17.2 kmh NE 19.7 mph31.7 kmh 29.52 in999.7 mb 0.00 in0.0 mm 0.00 in0.0 mm 1.68 in42.7 mm
12:57 PM 77.7°F25.4°C 69.2°F20.7°C 75% 12.1 mph NE19.5 kmh NE 19.7 mph31.7 kmh 29.52 in999.7 mb 0.00 in0.0 mm 0.00 in0.0 mm 1.68 in42.7 mm
12:58 PM 77.7°F25.4°C 69.2°F20.7°C 75% 13.6 mph NE21.9 kmh NE 21.3 mph34.3 kmh 29.51 in999.3 mb 0.00 in0.0 mm 0.00 in0.0 mm 1.68 in42.7 mm
12:59 PM 77.7°F25.4°C 69.2°F20.7°C 75% 15.9 mph NE25.6 kmh NE 21.3 mph34.3 kmh 29.50 in999.0 mb 0.00 in0.0 mm 0.00 in0.0 mm 1.68 in42.7 mm
01:00 PM 77.7°F25.4°C 69.2°F20.7°C 75% 14.5 mph NE23.3 kmh NE 21.3 mph34.3 kmh 29.50 in999.0 mb 0.00 in0.0 mm 0.00 in0.0 mm 1.68 in42.7 mm
01:01 PM 77.7°F25.4°C 69.2°F20.7°C 75% 13.6 mph NE21.9 kmh NE 21.3 mph34.3 kmh 29.50 in999.0 mb 0.00 in0.0 mm 0.00 in0.0 mm 1.68 in42.7 mm
01:02 PM 77.7°F25.4°C 69.2°F20.7°C 75% 9.2 mph NE14.8 kmh NE 21.3 mph34.3 kmh 29.50 in999.0 mb 0.00 in0.0 mm 0.00 in0.0 mm 1.68 in42.7 mm
01:03 PM 77.7°F25.4°C 69.2°F20.7°C 75% 11.4 mph NE18.3 kmh NE 21.3 mph34.3 kmh 29.51 in999.3 mb 0.00 in0.0 mm 0.00 in0.0 mm 1.68 in42.7 mm
01:04 PM 77.9°F25.5°C 69.4°F20.8°C 75% 6.9 mph NE11.1 kmh NE 21.3 mph34.3 kmh 29.51 in999.3 mb 0.00 in0.0 mm 0.00 in0.0 mm 1.68 in42.7 mm
01:05 PM 77.9°F25.5°C 69.8°F21.0°C 76% 9.8 mph NE15.8 kmh NE 21.3 mph34.3 kmh 29.51 in999.3 mb 0.00 in0.0 mm 0.00 in0.0 mm 1.68 in42.7 mm
01:06 PM 78.1°F25.6°C 69.9°F21.1°C 76% 10.7 mph NE17.2 kmh NE 21.3 mph34.3 kmh 29.51 in999.3 mb 0.00 in0.0 mm 0.00 in0.0 mm 1.68 in42.7 mm
01:07 PM 78.3°F25.7°C 69.7°F20.9°C 75% 17.4 mph NE28.0 kmh NE 24.4 mph39.3 kmh 29.51 in999.3 mb 0.00 in0.0 mm 0.00 in0.0 mm 1.68 in42.7 mm
01:08 PM 78.3°F25.7°C 69.7°F20.9°C 75% 12.1 mph NE19.5 kmh NE 24.4 mph39.3 kmh 29.50 in999.0 mb 0.00 in0.0 mm 0.00 in0.0 mm 1.68 in42.7 mm
01:09 PM 78.1°F25.6°C 69.6°F20.9°C 75% 14.5 mph NE23.3 kmh NE 24.4 mph39.3 kmh 29.50 in999.0 mb 0.00 in0.0 mm 0.00 in0.0 mm 1.68 in42.7 mm
01:10 PM 78.1°F25.6°C 69.6°F20.9°C 75% 14.5 mph NE23.3 kmh NE 24.4 mph39.3 kmh 29.51 in999.3 mb 0.00 in0.0 mm 0.00 in0.0 mm 1.68 in42.7 mm
01:11 PM 77.9°F25.5°C 69.4°F20.8°C 75% 9.8 mph NE15.8 kmh NE 24.4 mph39.3 kmh 29.50 in999.0 mb 0.00 in0.0 mm 0.00 in0.0 mm 1.68 in42.7 mm
01:12 PM 77.9°F25.5°C 69.4°F20.8°C 75% 6.9 mph NE11.1 kmh NE 24.4 mph39.3 kmh 29.50 in999.0 mb 0.00 in0.0 mm 0.00 in0.0 mm 1.68 in42.7 mm
01:13 PM 78.1°F25.6°C 69.9°F21.1°C 76% 7.6 mph NE12.2 kmh NE 24.4 mph39.3 kmh 29.50 in999.0 mb 0.00 in0.0 mm 0.00 in0.0 mm 1.68 in42.7 mm
01:14 PM 78.3°F25.7°C 70.1°F21.2°C 76% 8.3 mph NE13.4 kmh NE 24.4 mph39.3 kmh 29.50 in999.0 mb 0.00 in0.0 mm 0.00 in0.0 mm 1.68 in42.7 mm
01:15 PM 78.4°F25.8°C 70.3°F21.3°C 76% 9.2 mph NE14.8 kmh NE 24.4 mph39.3 kmh 29.51 in999.3 mb 0.00 in0.0 mm 0.00 in0.0 mm 1.68 in42.7 mm
01:16 PM 78.4°F25.8°C 70.3°F21.3°C 76% 9.2 mph NE14.8 kmh NE 24.4 mph39.3 kmh 29.50 in999.0 mb 0.00 in0.0 mm 0.00 in0.0 mm 1.68 in42.7 mm
01:17 PM 78.4°F25.8°C 70.3°F21.3°C 76% 13.0 mph NE20.9 kmh NE 24.4 mph39.3 kmh 29.50 in999.0 mb 0.00 in0.0 mm 0.00 in0.0 mm 1.68 in42.7 mm
01:18 PM 78.8°F26.0°C 69.9°F21.1°C 74% 16.8 mph NE27.0 kmh NE 24.4 mph39.3 kmh 29.51 in999.3 mb 0.00 in0.0 mm 0.00 in0.0 mm 1.68 in42.7 mm
01:19 PM 78.8°F26.0°C 69.9°F21.1°C 74% 14.5 mph NE23.3 kmh NE 24.4 mph39.3 kmh 29.50 in999.0 mb 0.00 in0.0 mm 0.00 in0.0 mm 1.68 in42.7 mm
01:20 PM 78.8°F26.0°C 69.5°F20.8°C 73% 10.7 mph NE17.2 kmh NE 24.4 mph39.3 kmh 29.50 in999.0 mb 0.00 in0.0 mm 0.00 in0.0 mm 1.68 in42.7 mm
01:21 PM 78.8°F26.0°C 69.5°F20.8°C 73% 14.5 mph NE23.3 kmh NE 24.4 mph39.3 kmh 29.50 in999.0 mb 0.00 in0.0 mm 0.00 in0.0 mm 1.68 in42.7 mm
01:22 PM 78.8°F26.0°C 69.5°F20.8°C 73% 15.2 mph NE24.5 kmh NE 24.4 mph39.3 kmh 29.50 in999.0 mb 0.00 in0.0 mm 0.00 in0.0 mm 1.68 in42.7 mm
01:23 PM 78.4°F25.8°C 69.5°F20.8°C 74% 18.3 mph NE29.5 kmh NE 24.4 mph39.3 kmh 29.51 in999.3 mb 0.00 in0.0 mm 0.00 in0.0 mm 1.68 in42.7 mm
01:24 PM 78.4°F25.8°C 69.5°F20.8°C 74% 13.6 mph NNE21.9 kmh NNE 24.4 mph39.3 kmh 29.51 in999.3 mb 0.00 in0.0 mm 0.00 in0.0 mm 1.68 in42.7 mm
01:25 PM 78.3°F25.7°C 69.3°F20.7°C 74% 18.3 mph NNE29.5 kmh NNE 24.4 mph39.3 kmh 29.51 in999.3 mb 0.00 in0.0 mm 0.00 in0.0 mm 1.68 in42.7 mm
01:26 PM 78.1°F25.6°C 69.6°F20.9°C 75% 9.8 mph NNE15.8 kmh NNE 24.4 mph39.3 kmh 29.50 in999.0 mb 0.00 in0.0 mm 0.00 in0.0 mm 1.68 in42.7 mm
01:27 PM 77.9°F25.5°C 69.4°F20.8°C 75% 16.8 mph NNE27.0 kmh NNE 25.1 mph40.4 kmh 29.51 in999.3 mb 0.00 in0.0 mm 0.00 in0.0 mm 1.68 in42.7 mm
01:28 PM 77.7°F25.4°C 69.2°F20.7°C 75% 9.2 mph NNE14.8 kmh NNE 25.1 mph40.4 kmh 29.51 in999.3 mb 0.00 in0.0 mm 0.00 in0.0 mm 1.68 in42.7 mm
01:29 PM 77.7°F25.4°C 69.2°F20.7°C 75% 9.8 mph NNE15.8 kmh NNE 25.1 mph40.4 kmh 29.51 in999.3 mb 0.00 in0.0 mm 0.00 in0.0 mm 1.68 in42.7 mm
01:30 PM 77.5°F25.3°C 69.0°F20.6°C 75% 11.4 mph NNE18.3 kmh NNE 25.1 mph40.4 kmh 29.50 in999.0 mb 0.00 in0.0 mm 0.00 in0.0 mm 1.68 in42.7 mm
01:31 PM 77.4°F25.2°C 68.9°F20.5°C 75% 9.2 mph NNE14.8 kmh NNE 25.1 mph40.4 kmh 29.51 in999.3 mb 0.00 in0.0 mm 0.00 in0.0 mm 1.68 in42.7 mm
01:32 PM 77.4°F25.2°C 69.2°F20.7°C 76% 9.8 mph NNE15.8 kmh NNE 25.1 mph40.4 kmh 29.51 in999.3 mb 0.00 in0.0 mm 0.00 in0.0 mm 1.68 in42.7 mm
01:33 PM 77.2°F25.1°C 69.1°F20.6°C 76% 10.7 mph NNE17.2 kmh NNE 25.1 mph40.4 kmh 29.51 in999.3 mb 0.00 in0.0 mm 0.00 in0.0 mm 1.68 in42.7 mm
01:34 PM 77.0°F25.0°C 69.3°F20.7°C 77% 14.5 mph NE23.3 kmh NE 25.1 mph40.4 kmh 29.51 in999.3 mb 0.00 in0.0 mm 0.00 in0.0 mm 1.68 in42.7 mm
01:35 PM 76.8°F24.9°C 69.5°F20.8°C 78% 11.4 mph NE18.3 kmh NE 25.1 mph40.4 kmh 29.52 in999.7 mb 0.00 in0.0 mm 0.00 in0.0 mm 1.68 in42.7 mm
01:36 PM 76.6°F24.8°C 69.3°F20.7°C 78% 13.0 mph NE20.9 kmh NE 25.1 mph40.4 kmh 29.51 in999.3 mb 0.00 in0.0 mm 0.00 in0.0 mm 1.68 in42.7 mm
01:37 PM 76.6°F24.8°C 69.3°F20.7°C 78% 9.2 mph NE14.8 kmh NE 25.1 mph40.4 kmh 29.51 in999.3 mb 0.00 in0.0 mm 0.00 in0.0 mm 1.68 in42.7 mm
01:38 PM 76.5°F24.7°C 69.5°F20.8°C 79% 13.0 mph NE20.9 kmh NE 22.8 mph36.7 kmh 29.51 in999.3 mb 0.00 in0.0 mm 0.00 in0.0 mm 1.68 in42.7 mm
01:39 PM 76.3°F24.6°C 69.7°F20.9°C 80% 14.5 mph NE23.3 kmh NE 22.8 mph36.7 kmh 29.51 in999.3 mb 0.00 in0.0 mm 0.00 in0.0 mm 1.68 in42.7 mm
01:40 PM 76.1°F24.5°C 69.5°F20.8°C 80% 13.0 mph NE20.9 kmh NE 22.8 mph36.7 kmh 29.51 in999.3 mb 0.00 in0.0 mm 0.00 in0.0 mm 1.68 in42.7 mm
01:41 PM 76.1°F24.5°C 69.5°F20.8°C 80% 9.8 mph NE15.8 kmh NE 22.8 mph36.7 kmh 29.51 in999.3 mb 0.00 in0.0 mm 0.00 in0.0 mm 1.68 in42.7 mm
01:42 PM 75.9°F24.4°C 69.7°F20.9°C 81% 15.2 mph NE24.5 kmh NE 22.8 mph36.7 kmh 29.50 in999.0 mb 0.00 in0.0 mm 0.00 in0.0 mm 1.68 in42.7 mm
01:43 PM 75.7°F24.3°C 69.5°F20.8°C 81% 13.6 mph NE21.9 kmh NE 22.8 mph36.7 kmh 29.50 in999.0 mb 0.00 in0.0 mm 0.00 in0.0 mm 1.68 in42.7 mm
01:44 PM 75.7°F24.3°C 69.9°F21.1°C 82% 18.3 mph NNE29.5 kmh NNE 23.5 mph37.8 kmh 29.50 in999.0 mb 0.00 in0.0 mm 0.00 in0.0 mm 1.68 in42.7 mm
01:45 PM 75.6°F24.2°C 69.7°F20.9°C 82% 9.8 mph NNE15.8 kmh NNE 23.5 mph37.8 kmh 29.50 in999.0 mb 0.00 in0.0 mm 0.00 in0.0 mm 1.68 in42.7 mm
01:46 PM 75.4°F24.1°C 69.9°F21.1°C 83% 16.8 mph NNE27.0 kmh NNE 23.5 mph37.8 kmh 29.50 in999.0 mb 0.00 in0.0 mm 0.00 in0.0 mm 1.68 in42.7 mm
01:47 PM 75.4°F24.1°C 70.3°F21.3°C 84% 12.1 mph NNE19.5 kmh NNE 23.5 mph37.8 kmh 29.50 in999.0 mb 0.00 in0.0 mm 0.00 in0.0 mm 1.68 in42.7 mm
01:48 PM 75.6°F24.2°C 70.4°F21.3°C 84% 8.3 mph N13.4 kmh N 23.5 mph37.8 kmh 29.50 in999.0 mb 0.00 in0.0 mm 0.00 in0.0 mm 1.68 in42.7 mm
01:49 PM 75.6°F24.2°C 70.4°F21.3°C 84% 9.8 mph N15.8 kmh N 23.5 mph37.8 kmh 29.50 in999.0 mb 0.00 in0.0 mm 0.00 in0.0 mm 1.68 in42.7 mm
01:50 PM 76.1°F24.5°C 71.3°F21.8°C 85% 12.1 mph N19.5 kmh N 23.5 mph37.8 kmh 29.50 in999.0 mb 0.00 in0.0 mm 0.00 in0.0 mm 1.68 in42.7 mm
01:51 PM 76.3°F24.6°C 71.5°F21.9°C 85% 15.2 mph N24.5 kmh N 23.5 mph37.8 kmh 29.50 in999.0 mb 0.00 in0.0 mm 0.00 in0.0 mm 1.68 in42.7 mm
01:52 PM 76.3°F24.6°C 71.5°F21.9°C 85% 9.2 mph N14.8 kmh N 23.5 mph37.8 kmh 29.50 in999.0 mb 0.00 in0.0 mm 0.00 in0.0 mm 1.68 in42.7 mm
01:53 PM 76.5°F24.7°C 71.7°F22.1°C 85% 10.7 mph N17.2 kmh N 23.5 mph37.8 kmh 29.50 in999.0 mb 0.00 in0.0 mm 0.00 in0.0 mm 1.68 in42.7 mm
01:54 PM 76.8°F24.9°C 71.7°F22.1°C 84% 13.0 mph NNE20.9 kmh NNE 23.5 mph37.8 kmh 29.50 in999.0 mb 0.00 in0.0 mm 0.00 in0.0 mm 1.68 in42.7 mm
01:55 PM 76.8°F24.9°C 71.7°F22.1°C 84% 13.0 mph N20.9 kmh N 20.6 mph33.2 kmh 29.49 in998.6 mb 0.00 in0.0 mm 0.00 in0.0 mm 1.68 in42.7 mm
01:56 PM 77.0°F25.0°C 71.5°F21.9°C 83% 9.8 mph N15.8 kmh N 20.6 mph33.2 kmh 29.49 in998.6 mb 0.00 in0.0 mm 0.00 in0.0 mm 1.68 in42.7 mm
01:57 PM 77.0°F25.0°C 71.5°F21.9°C 83% 8.3 mph N13.4 kmh N 20.6 mph33.2 kmh 29.49 in998.6 mb 0.00 in0.0 mm 0.00 in0.0 mm 1.68 in42.7 mm
01:58 PM 77.4°F25.2°C 71.8°F22.1°C 83% 11.4 mph N18.3 kmh N 20.6 mph33.2 kmh 29.49 in998.6 mb 0.00 in0.0 mm 0.00 in0.0 mm 1.68 in42.7 mm
01:59 PM 77.4°F25.2°C 71.5°F21.9°C 82% 12.1 mph N19.5 kmh N 20.6 mph33.2 kmh 29.49 in998.6 mb 0.00 in0.0 mm 0.00 in0.0 mm 1.68 in42.7 mm
02:00 PM 77.5°F25.3°C 71.3°F21.8°C 81% 10.7 mph N17.2 kmh N 20.6 mph33.2 kmh 29.50 in999.0 mb 0.00 in0.0 mm 0.00 in0.0 mm 1.68 in42.7 mm
02:01 PM 77.7°F25.4°C 71.5°F21.9°C 81% 12.1 mph N19.5 kmh N 20.6 mph33.2 kmh 29.49 in998.6 mb 0.00 in0.0 mm 0.00 in0.0 mm 1.68 in42.7 mm
02:02 PM 77.7°F25.4°C 71.1°F21.7°C 80% 9.2 mph N14.8 kmh N 20.6 mph33.2 kmh 29.49 in998.6 mb 0.00 in0.0 mm 0.00 in0.0 mm 1.68 in42.7 mm
02:03 PM 77.9°F25.5°C 70.9°F21.6°C 79% 10.7 mph N17.2 kmh N 20.6 mph33.2 kmh 29.50 in999.0 mb 0.00 in0.0 mm 0.00 in0.0 mm 1.68 in42.7 mm
02:04 PM 78.1°F25.6°C 71.1°F21.7°C 79% 9.2 mph N14.8 kmh N 20.6 mph33.2 kmh 29.49 in998.6 mb 0.00 in0.0 mm 0.00 in0.0 mm 1.68 in42.7 mm
02:05 PM 78.3°F25.7°C 71.3°F21.8°C 79% 11.4 mph N18.3 kmh N 20.6 mph33.2 kmh 29.49 in998.6 mb 0.00 in0.0 mm 0.00 in0.0 mm 1.68 in42.7 mm
02:06 PM 78.4°F25.8°C 71.1°F21.7°C 78% 13.0 mph N20.9 kmh N 22.8 mph36.7 kmh 29.48 in998.3 mb 0.00 in0.0 mm 0.00 in0.0 mm 1.68 in42.7 mm
02:07 PM 78.4°F25.8°C 71.1°F21.7°C 78% 10.7 mph N17.2 kmh N 22.8 mph36.7 kmh 29.48 in998.3 mb 0.00 in0.0 mm 0.00 in0.0 mm 1.68 in42.7 mm
02:08 PM 78.4°F25.8°C 70.7°F21.5°C 77% 14.5 mph N23.3 kmh N 22.8 mph36.7 kmh 29.50 in999.0 mb 0.00 in0.0 mm 0.00 in0.0 mm 1.68 in42.7 mm
02:09 PM 78.4°F25.8°C 70.7°F21.5°C 77% 11.4 mph N18.3 kmh N 22.8 mph36.7 kmh 29.49 in998.6 mb 0.00 in0.0 mm 0.00 in0.0 mm 1.68 in42.7 mm
02:10 PM 78.4°F25.8°C 70.7°F21.5°C 77% 10.7 mph N17.2 kmh N 22.8 mph36.7 kmh 29.48 in998.3 mb 0.00 in0.0 mm 0.00 in0.0 mm 1.68 in42.7 mm
02:11 PM 78.4°F25.8°C 70.7°F21.5°C 77% 13.0 mph NNE20.9 kmh NNE 22.8 mph36.7 kmh 29.48 in998.3 mb 0.00 in0.0 mm 0.00 in0.0 mm 1.68 in42.7 mm
02:12 PM 78.3°F25.7°C 70.5°F21.4°C 77% 15.2 mph NNE24.5 kmh NNE 22.8 mph36.7 kmh 29.47 in998.0 mb 0.00 in0.0 mm 0.00 in0.0 mm 1.68 in42.7 mm
02:13 PM 78.3°F25.7°C 70.5°F21.4°C 77% 16.8 mph NNE27.0 kmh NNE 22.8 mph36.7 kmh 29.48 in998.3 mb 0.00 in0.0 mm 0.00 in0.0 mm 1.68 in42.7 mm
02:14 PM 78.1°F25.6°C 70.3°F21.3°C 77% 12.1 mph NNE19.5 kmh NNE 22.8 mph36.7 kmh 29.47 in998.0 mb 0.00 in0.0 mm 0.00 in0.0 mm 1.68 in42.7 mm
02:15 PM 78.1°F25.6°C 70.3°F21.3°C 77% 6.0 mph N9.7 kmh N 22.8 mph36.7 kmh 29.47 in998.0 mb 0.00 in0.0 mm 0.00 in0.0 mm 1.68 in42.7 mm
02:16 PM 78.1°F25.6°C 70.7°F21.5°C 78% 15.9 mph N25.6 kmh N 25.9 mph41.7 kmh 29.48 in998.3 mb 0.00 in0.0 mm 0.00 in0.0 mm 1.68 in42.7 mm
02:17 PM 78.1°F25.6°C 70.7°F21.5°C 78% 14.5 mph N23.3 kmh N 25.9 mph41.7 kmh 29.47 in998.0 mb 0.00 in0.0 mm 0.00 in0.0 mm 1.68 in42.7 mm
02:18 PM 77.7°F25.4°C 70.4°F21.3°C 78% 10.7 mph N17.2 kmh N 25.9 mph41.7 kmh 29.47 in998.0 mb 0.00 in0.0 mm 0.00 in0.0 mm 1.68 in42.7 mm
02:19 PM 77.5°F25.3°C 70.2°F21.2°C 78% 11.4 mph N18.3 kmh N 25.9 mph41.7 kmh 29.47 in998.0 mb 0.00 in0.0 mm 0.00 in0.0 mm 1.68 in42.7 mm
02:20 PM 77.5°F25.3°C 70.2°F21.2°C 78% 13.0 mph N20.9 kmh N 25.9 mph41.7 kmh 29.46 in997.6 mb 0.00 in0.0 mm 0.00 in0.0 mm 1.68 in42.7 mm
02:21 PM 77.4°F25.2°C 70.4°F21.3°C 79% 11.4 mph N18.3 kmh N 25.9 mph41.7 kmh 29.46 in997.6 mb 0.00 in0.0 mm 0.00 in0.0 mm 1.68 in42.7 mm
02:22 PM 77.4°F25.2°C 70.4°F21.3°C 79% 16.8 mph N27.0 kmh N 25.9 mph41.7 kmh 29.46 in997.6 mb 0.00 in0.0 mm 0.00 in0.0 mm 1.68 in42.7 mm
02:23 PM 77.2°F25.1°C 70.2°F21.2°C 79% 9.8 mph N15.8 kmh N 25.9 mph41.7 kmh 29.47 in998.0 mb 0.00 in0.0 mm 0.00 in0.0 mm 1.68 in42.7 mm
02:24 PM 77.2°F25.1°C 70.6°F21.4°C 80% 9.8 mph N15.8 kmh N 25.9 mph41.7 kmh 29.46 in997.6 mb 0.00 in0.0 mm 0.00 in0.0 mm 1.68 in42.7 mm
02:25 PM 77.0°F25.0°C 70.4°F21.3°C 80% 11.4 mph N18.3 kmh N 25.9 mph41.7 kmh 29.47 in998.0 mb 0.00 in0.0 mm 0.00 in0.0 mm 1.68 in42.7 mm
02:26 PM 77.0°F25.0°C 70.4°F21.3°C 80% 9.8 mph NNE15.8 kmh NNE 25.9 mph41.7 kmh 29.46 in997.6 mb 0.00 in0.0 mm 0.00 in0.0 mm 1.68 in42.7 mm
02:27 PM 77.0°F25.0°C 70.4°F21.3°C 80% 13.0 mph NNE20.9 kmh NNE 22.8 mph36.7 kmh 29.46 in997.6 mb 0.00 in0.0 mm 0.00 in0.0 mm 1.68 in42.7 mm
02:28 PM 76.8°F24.9°C 71.0°F21.7°C 82% 11.4 mph NNE18.3 kmh NNE 22.8 mph36.7 kmh 29.46 in997.6 mb 0.00 in0.0 mm 0.00 in0.0 mm 1.68 in42.7 mm
02:29 PM 76.8°F24.9°C 71.0°F21.7°C 82% 6.0 mph NNE9.7 kmh NNE 22.8 mph36.7 kmh 29.46 in997.6 mb 0.00 in0.0 mm 0.00 in0.0 mm 1.68 in42.7 mm
02:30 PM 76.8°F24.9°C 71.0°F21.7°C 82% 10.7 mph NNE17.2 kmh NNE 22.8 mph36.7 kmh 29.45 in997.3 mb 0.00 in0.0 mm 0.00 in0.0 mm 1.68 in42.7 mm
02:31 PM 76.8°F24.9°C 71.0°F21.7°C 82% 13.0 mph NE20.9 kmh NE 22.8 mph36.7 kmh 29.46 in997.6 mb 0.00 in0.0 mm 0.00 in0.0 mm 1.68 in42.7 mm
02:32 PM 76.8°F24.9°C 71.3°F21.8°C 83% 9.8 mph NE15.8 kmh NE 22.8 mph36.7 kmh 29.46 in997.6 mb 0.00 in0.0 mm 0.00 in0.0 mm 1.68 in42.7 mm
02:33 PM 76.8°F24.9°C 71.3°F21.8°C 83% 10.7 mph NE17.2 kmh NE 17.4 mph28.0 kmh 29.45 in997.3 mb 0.00 in0.0 mm 0.00 in0.0 mm 1.68 in42.7 mm
02:34 PM 77.0°F25.0°C 71.1°F21.7°C 82% 9.8 mph NE15.8 kmh NE 17.4 mph28.0 kmh 29.46 in997.6 mb 0.00 in0.0 mm 0.00 in0.0 mm 1.68 in42.7 mm
02:35 PM 77.0°F25.0°C 71.1°F21.7°C 82% 9.2 mph NE14.8 kmh NE 17.4 mph28.0 kmh 29.45 in997.3 mb 0.00 in0.0 mm 0.00 in0.0 mm 1.68 in42.7 mm
02:36 PM 77.0°F25.0°C 71.1°F21.7°C 82% 9.2 mph NE14.8 kmh NE 17.4 mph28.0 kmh 29.46 in997.6 mb 0.00 in0.0 mm 0.00 in0.0 mm 1.68 in42.7 mm
02:37 PM 77.2°F25.1°C 71.3°F21.8°C 82% 12.1 mph NE19.5 kmh NE 17.4 mph28.0 kmh 29.45 in997.3 mb 0.00 in0.0 mm 0.00 in0.0 mm 1.68 in42.7 mm
02:38 PM 77.2°F25.1°C 71.3°F21.8°C 82% 9.8 mph NE15.8 kmh NE 18.3 mph29.5 kmh 29.45 in997.3 mb 0.00 in0.0 mm 0.00 in0.0 mm 1.68 in42.7 mm
02:39 PM 77.2°F25.1°C 71.3°F21.8°C 82% 9.8 mph NE15.8 kmh NE 18.3 mph29.5 kmh 29.45 in997.3 mb 0.00 in0.0 mm 0.00 in0.0 mm 1.68 in42.7 mm
02:40 PM 77.2°F25.1°C 71.3°F21.8°C 82% 8.3 mph NE13.4 kmh NE 18.3 mph29.5 kmh 29.46 in997.6 mb 0.00 in0.0 mm 0.00 in0.0 mm 1.68 in42.7 mm
02:41 PM 77.2°F25.1°C 71.3°F21.8°C 82% 10.7 mph NE17.2 kmh NE 19.0 mph30.6 kmh 29.45 in997.3 mb 0.00 in0.0 mm 0.00 in0.0 mm 1.68 in42.7 mm
02:42 PM 77.2°F25.1°C 71.3°F21.8°C 82% 7.6 mph NNE12.2 kmh NNE 19.0 mph30.6 kmh 29.46 in997.6 mb 0.00 in0.0 mm 0.00 in0.0 mm 1.68 in42.7 mm
02:43 PM 77.2°F25.1°C 71.3°F21.8°C 82% 14.5 mph NE23.3 kmh NE 19.0 mph30.6 kmh 29.45 in997.3 mb 0.00 in0.0 mm 0.00 in0.0 mm 1.68 in42.7 mm
02:44 PM 77.4°F25.2°C 71.5°F21.9°C 82% 10.7 mph NNE17.2 kmh NNE 19.0 mph30.6 kmh 29.45 in997.3 mb 0.00 in0.0 mm 0.00 in0.0 mm 1.68 in42.7 mm
02:45 PM 77.4°F25.2°C 71.5°F21.9°C 82% 8.3 mph NNE13.4 kmh NNE 19.0 mph30.6 kmh 29.46 in997.6 mb 0.00 in0.0 mm 0.00 in0.0 mm 1.68 in42.7 mm
02:46 PM 77.4°F25.2°C 71.8°F22.1°C 83% 9.8 mph NNE15.8 kmh NNE 19.0 mph30.6 kmh 29.46 in997.6 mb 0.00 in0.0 mm 0.00 in0.0 mm 1.68 in42.7 mm
02:47 PM 77.4°F25.2°C 71.8°F22.1°C 83% 12.1 mph NNE19.5 kmh NNE 19.7 mph31.7 kmh 29.45 in997.3 mb 0.00 in0.0 mm 0.00 in0.0 mm 1.68 in42.7 mm
02:48 PM 77.5°F25.3°C 72.0°F22.2°C 83% 11.4 mph NNE18.3 kmh NNE 19.7 mph31.7 kmh 29.45 in997.3 mb 0.00 in0.0 mm 0.00 in0.0 mm 1.68 in42.7 mm
02:49 PM 77.5°F25.3°C 72.0°F22.2°C 83% 9.2 mph NNE14.8 kmh NNE 19.7 mph31.7 kmh 29.45 in997.3 mb 0.00 in0.0 mm 0.00 in0.0 mm 1.68 in42.7 mm
02:50 PM 77.5°F25.3°C 72.0°F22.2°C 83% 10.7 mph NNE17.2 kmh NNE 19.7 mph31.7 kmh 29.45 in997.3 mb 0.00 in0.0 mm 0.00 in0.0 mm 1.68 in42.7 mm
02:51 PM 77.7°F25.4°C 71.8°F22.1°C 82% 10.7 mph NNE17.2 kmh NNE 19.7 mph31.7 kmh 29.46 in997.6 mb 0.00 in0.0 mm 0.00 in0.0 mm 1.68 in42.7 mm
02:52 PM 77.7°F25.4°C 71.8°F22.1°C 82% 12.1 mph NE19.5 kmh NE 19.7 mph31.7 kmh 29.45 in997.3 mb 0.00 in0.0 mm 0.00 in0.0 mm 1.68 in42.7 mm
02:53 PM 77.9°F25.5°C 72.0°F22.2°C 82% 9.8 mph NE15.8 kmh NE 19.7 mph31.7 kmh 29.45 in997.3 mb 0.00 in0.0 mm 0.00 in0.0 mm 1.68 in42.7 mm
02:54 PM 77.9°F25.5°C 71.6°F22.0°C 81% 17.4 mph NE28.0 kmh NE 25.1 mph40.4 kmh 29.45 in997.3 mb 0.00 in0.0 mm 0.00 in0.0 mm 1.68 in42.7 mm
02:55 PM 78.1°F25.6°C 71.5°F21.9°C 80% 11.4 mph NE18.3 kmh NE 25.1 mph40.4 kmh 29.45 in997.3 mb 0.00 in0.0 mm 0.00 in0.0 mm 1.68 in42.7 mm
02:56 PM 78.1°F25.6°C 71.5°F21.9°C 80% 9.2 mph NE14.8 kmh NE 25.1 mph40.4 kmh 29.45 in997.3 mb 0.00 in0.0 mm 0.00 in0.0 mm 1.68 in42.7 mm
02:57 PM 78.1°F25.6°C 71.5°F21.9°C 80% 18.3 mph NE29.5 kmh NE 25.1 mph40.4 kmh 29.45 in997.3 mb 0.00 in0.0 mm 0.00 in0.0 mm 1.68 in42.7 mm
02:58 PM 78.1°F25.6°C 71.1°F21.7°C 79% 7.6 mph NE12.2 kmh NE 25.1 mph40.4 kmh 29.45 in997.3 mb 0.00 in0.0 mm 0.00 in0.0 mm 1.68 in42.7 mm
02:59 PM 78.1°F25.6°C 70.7°F21.5°C 78% 10.7 mph NE17.2 kmh NE 25.1 mph40.4 kmh 29.45 in997.3 mb 0.00 in0.0 mm 0.00 in0.0 mm 1.68 in42.7 mm
03:00 PM 78.3°F25.7°C 70.9°F21.6°C 78% 13.0 mph NE20.9 kmh NE 25.1 mph40.4 kmh 29.45 in997.3 mb 0.00 in0.0 mm 0.00 in0.0 mm 1.68 in42.7 mm
03:01 PM 78.3°F25.7°C 70.9°F21.6°C 78% 16.8 mph NE27.0 kmh NE 25.1 mph40.4 kmh 29.45 in997.3 mb 0.00 in0.0 mm 0.00 in0.0 mm 1.68 in42.7 mm
03:02 PM 78.3°F25.7°C 70.5°F21.4°C 77% 13.6 mph NE21.9 kmh NE 25.1 mph40.4 kmh 29.45 in997.3 mb 0.00 in0.0 mm 0.00 in0.0 mm 1.68 in42.7 mm
03:03 PM 78.1°F25.6°C 70.3°F21.3°C 77% 17.4 mph NNE28.0 kmh NNE 25.1 mph40.4 kmh 29.45 in997.3 mb 0.00 in0.0 mm 0.00 in0.0 mm 1.68 in42.7 mm
03:04 PM 78.1°F25.6°C 70.3°F21.3°C 77% 9.2 mph NNE14.8 kmh NNE 25.1 mph40.4 kmh 29.45 in997.3 mb 0.00 in0.0 mm 0.00 in0.0 mm 1.68 in42.7 mm
03:05 PM 78.1°F25.6°C 69.9°F21.1°C 76% 8.3 mph NNE13.4 kmh NNE 25.1 mph40.4 kmh 29.45 in997.3 mb 0.00 in0.0 mm 0.00 in0.0 mm 1.68 in42.7 mm
03:06 PM 78.3°F25.7°C 70.1°F21.2°C 76% 12.1 mph N19.5 kmh N 25.1 mph40.4 kmh 29.44 in997.0 mb 0.00 in0.0 mm 0.00 in0.0 mm 1.68 in42.7 mm
03:07 PM 78.3°F25.7°C 70.1°F21.2°C 76% 13.0 mph N20.9 kmh N 22.1 mph35.6 kmh 29.45 in997.3 mb 0.00 in0.0 mm 0.00 in0.0 mm 1.68 in42.7 mm
03:08 PM 78.3°F25.7°C 70.1°F21.2°C 76% 13.6 mph NNE21.9 kmh NNE 22.1 mph35.6 kmh 29.45 in997.3 mb 0.00 in0.0 mm 0.00 in0.0 mm 1.68 in42.7 mm
03:09 PM 78.3°F25.7°C 70.1°F21.2°C 76% 12.1 mph NNE19.5 kmh NNE 22.1 mph35.6 kmh 29.45 in997.3 mb 0.00 in0.0 mm 0.00 in0.0 mm 1.68 in42.7 mm
03:10 PM 78.3°F25.7°C 70.1°F21.2°C 76% 9.8 mph NNE15.8 kmh NNE 22.1 mph35.6 kmh 29.45 in997.3 mb 0.00 in0.0 mm 0.00 in0.0 mm 1.68 in42.7 mm
03:11 PM 78.3°F25.7°C 70.1°F21.2°C 76% 12.1 mph NNE19.5 kmh NNE 22.1 mph35.6 kmh 29.45 in997.3 mb 0.00 in0.0 mm 0.00 in0.0 mm 1.68 in42.7 mm
03:12 PM 78.3°F25.7°C 70.1°F21.2°C 76% 10.7 mph NNE17.2 kmh NNE 22.1 mph35.6 kmh 29.45 in997.3 mb 0.00 in0.0 mm 0.00 in0.0 mm 1.68 in42.7 mm
03:13 PM 78.4°F25.8°C 70.3°F21.3°C 76% 11.4 mph NNE18.3 kmh NNE 22.1 mph35.6 kmh 29.45 in997.3 mb 0.00 in0.0 mm 0.00 in0.0 mm 1.68 in42.7 mm
03:14 PM 78.4°F25.8°C 70.3°F21.3°C 76% 13.6 mph NNE21.9 kmh NNE 22.8 mph36.7 kmh 29.44 in997.0 mb 0.00 in0.0 mm 0.00 in0.0 mm 1.68 in42.7 mm
03:15 PM 78.4°F25.8°C 70.3°F21.3°C 76% 10.7 mph NNE17.2 kmh NNE 22.8 mph36.7 kmh 29.44 in997.0 mb 0.00 in0.0 mm 0.00 in0.0 mm 1.68 in42.7 mm
03:16 PM 78.4°F25.8°C 70.3°F21.3°C 76% 12.1 mph NNE19.5 kmh NNE 22.8 mph36.7 kmh 29.45 in997.3 mb 0.00 in0.0 mm 0.00 in0.0 mm 1.68 in42.7 mm
03:17 PM 78.4°F25.8°C 70.3°F21.3°C 76% 13.6 mph NNE21.9 kmh NNE 22.8 mph36.7 kmh 29.45 in997.3 mb 0.00 in0.0 mm 0.00 in0.0 mm 1.68 in42.7 mm
03:18 PM 78.4°F25.8°C 70.3°F21.3°C 76% 10.7 mph NNE17.2 kmh NNE 22.8 mph36.7 kmh 29.45 in997.3 mb 0.00 in0.0 mm 0.00 in0.0 mm 1.68 in42.7 mm
03:19 PM 78.4°F25.8°C 70.3°F21.3°C 76% 12.1 mph NNE19.5 kmh NNE 22.8 mph36.7 kmh 29.44 in997.0 mb 0.00 in0.0 mm 0.00 in0.0 mm 1.68 in42.7 mm
03:20 PM 78.6°F25.9°C 70.5°F21.4°C 76% 13.0 mph NNE20.9 kmh NNE 22.8 mph36.7 kmh 29.44 in997.0 mb 0.00 in0.0 mm 0.00 in0.0 mm 1.68 in42.7 mm
03:21 PM 78.6°F25.9°C 70.5°F21.4°C 76% 13.6 mph NNE21.9 kmh NNE 22.8 mph36.7 kmh 29.45 in997.3 mb 0.00 in0.0 mm 0.00 in0.0 mm 1.68 in42.7 mm
03:22 PM 78.8°F26.0°C 70.3°F21.3°C 75% 11.4 mph NNE18.3 kmh NNE 22.8 mph36.7 kmh 29.45 in997.3 mb 0.00 in0.0 mm 0.00 in0.0 mm 1.68 in42.7 mm
03:23 PM 78.8°F26.0°C 70.3°F21.3°C 75% 11.4 mph NNE18.3 kmh NNE 22.8 mph36.7 kmh 29.44 in997.0 mb 0.00 in0.0 mm 0.00 in0.0 mm 1.68 in42.7 mm
03:24 PM 78.8°F26.0°C 70.6°F21.4°C 76% 9.8 mph NNE15.8 kmh NNE 22.8 mph36.7 kmh 29.44 in997.0 mb 0.00 in0.0 mm 0.00 in0.0 mm 1.68 in42.7 mm
03:25 PM 78.8°F26.0°C 70.6°F21.4°C 76% 11.4 mph NNE18.3 kmh NNE 22.8 mph36.7 kmh 29.44 in997.0 mb 0.00 in0.0 mm 0.00 in0.0 mm 1.68 in42.7 mm
03:26 PM 79.0°F26.1°C 70.8°F21.6°C 76% 9.2 mph NNE14.8 kmh NNE 22.8 mph36.7 kmh 29.44 in997.0 mb 0.00 in0.0 mm 0.00 in0.0 mm 1.68 in42.7 mm
03:27 PM 79.0°F26.1°C 70.8°F21.6°C 76% 12.1 mph NNE19.5 kmh NNE 19.0 mph30.6 kmh 29.45 in997.3 mb 0.00 in0.0 mm 0.00 in0.0 mm 1.68 in42.7 mm
03:28 PM 79.2°F26.2°C 71.0°F21.7°C 76% 12.1 mph NNE19.5 kmh NNE 19.0 mph30.6 kmh 29.44 in997.0 mb 0.00 in0.0 mm 0.00 in0.0 mm 1.68 in42.7 mm
03:29 PM 79.2°F26.2°C 71.0°F21.7°C 76% 10.7 mph NNE17.2 kmh NNE 19.0 mph30.6 kmh 29.44 in997.0 mb 0.00 in0.0 mm 0.00 in0.0 mm 1.68 in42.7 mm
03:30 PM 79.2°F26.2°C 71.0°F21.7°C 76% 11.4 mph N18.3 kmh N 17.4 mph28.0 kmh 29.44 in997.0 mb 0.00 in0.0 mm 0.00 in0.0 mm 1.68 in42.7 mm
03:31 PM 79.2°F26.2°C 71.0°F21.7°C 76% 12.1 mph N19.5 kmh N 17.4 mph28.0 kmh 29.44 in997.0 mb 0.00 in0.0 mm 0.00 in0.0 mm 1.68 in42.7 mm
03:32 PM 79.2°F26.2°C 71.0°F21.7°C 76% 7.6 mph NNE12.2 kmh NNE 17.4 mph28.0 kmh 29.44 in997.0 mb 0.00 in0.0 mm 0.00 in0.0 mm 1.68 in42.7 mm
03:33 PM 79.3°F26.3°C 71.2°F21.8°C 76% 9.8 mph N15.8 kmh N 17.4 mph28.0 kmh 29.44 in997.0 mb 0.00 in0.0 mm 0.00 in0.0 mm 1.68 in42.7 mm
03:34 PM 79.3°F26.3°C 71.2°F21.8°C 76% 16.8 mph N27.0 kmh N 21.3 mph34.3 kmh 29.43 in996.6 mb 0.00 in0.0 mm 0.00 in0.0 mm 1.68 in42.7 mm
03:35 PM 79.3°F26.3°C 70.8°F21.6°C 75% 9.2 mph NNE14.8 kmh NNE 21.3 mph34.3 kmh 29.43 in996.6 mb 0.00 in0.0 mm 0.00 in0.0 mm 1.68 in42.7 mm
03:36 PM 79.5°F26.4°C 71.0°F21.7°C 75% 14.5 mph NNE23.3 kmh NNE 21.3 mph34.3 kmh 29.43 in996.6 mb 0.00 in0.0 mm 0.00 in0.0 mm 1.68 in42.7 mm
03:37 PM 79.5°F26.4°C 71.0°F21.7°C 75% 11.4 mph NNE18.3 kmh NNE 21.3 mph34.3 kmh 29.43 in996.6 mb 0.00 in0.0 mm 0.00 in0.0 mm 1.68 in42.7 mm
03:38 PM 79.5°F26.4°C 70.6°F21.4°C 74% 10.7 mph N17.2 kmh N 21.3 mph34.3 kmh 29.43 in996.6 mb 0.00 in0.0 mm 0.00 in0.0 mm 1.68 in42.7 mm
03:39 PM 79.7°F26.5°C 70.3°F21.3°C 73% 8.3 mph N13.4 kmh N 21.3 mph34.3 kmh 29.43 in996.6 mb 0.00 in0.0 mm 0.00 in0.0 mm 1.68 in42.7 mm
03:40 PM 79.7°F26.5°C 70.3°F21.3°C 73% 15.9 mph N25.6 kmh N 22.8 mph36.7 kmh 29.43 in996.6 mb 0.00 in0.0 mm 0.00 in0.0 mm 1.68 in42.7 mm
03:41 PM 79.7°F26.5°C 70.3°F21.3°C 73% 13.0 mph N20.9 kmh N 22.8 mph36.7 kmh 29.43 in996.6 mb 0.00 in0.0 mm 0.00 in0.0 mm 1.68 in42.7 mm
03:42 PM 79.7°F26.5°C 69.9°F21.1°C 72% 12.1 mph N19.5 kmh N 22.8 mph36.7 kmh 29.43 in996.6 mb 0.00 in0.0 mm 0.00 in0.0 mm 1.68 in42.7 mm
03:43 PM 79.9°F26.6°C 70.1°F21.2°C 72% 14.5 mph N23.3 kmh N 22.8 mph36.7 kmh 29.43 in996.6 mb 0.00 in0.0 mm 0.00 in0.0 mm 1.68 in42.7 mm
03:44 PM 79.9°F26.6°C 70.1°F21.2°C 72% 16.8 mph N27.0 kmh N 22.8 mph36.7 kmh 29.42 in996.3 mb 0.00 in0.0 mm 0.00 in0.0 mm 1.68 in42.7 mm
03:45 PM 79.9°F26.6°C 70.1°F21.2°C 72% 15.9 mph N25.6 kmh N 22.8 mph36.7 kmh 29.43 in996.6 mb 0.00 in0.0 mm 0.00 in0.0 mm 1.68 in42.7 mm
03:46 PM 80.1°F26.7°C 70.3°F21.3°C 72% 12.1 mph N19.5 kmh N 22.8 mph36.7 kmh 29.42 in996.3 mb 0.00 in0.0 mm 0.00 in0.0 mm 1.68 in42.7 mm
03:47 PM 80.2°F26.8°C 70.4°F21.3°C 72% 13.0 mph N20.9 kmh N 22.8 mph36.7 kmh 29.43 in996.6 mb 0.00 in0.0 mm 0.00 in0.0 mm 1.68 in42.7 mm
03:48 PM 80.2°F26.8°C 70.4°F21.3°C 72% 11.4 mph N18.3 kmh N 22.8 mph36.7 kmh 29.42 in996.3 mb 0.00 in0.0 mm 0.00 in0.0 mm 1.68 in42.7 mm
03:49 PM 80.4°F26.9°C 70.2°F21.2°C 71% 13.6 mph N21.9 kmh N 22.8 mph36.7 kmh 29.43 in996.6 mb 0.00 in0.0 mm 0.00 in0.0 mm 1.68 in42.7 mm
03:50 PM 80.4°F26.9°C 70.2°F21.2°C 71% 9.8 mph N15.8 kmh N 22.8 mph36.7 kmh 29.42 in996.3 mb 0.00 in0.0 mm 0.00 in0.0 mm 1.68 in42.7 mm
03:51 PM 80.4°F26.9°C 70.2°F21.2°C 71% 12.1 mph N19.5 kmh N 22.8 mph36.7 kmh 29.42 in996.3 mb 0.00 in0.0 mm 0.00 in0.0 mm 1.68 in42.7 mm
03:52 PM 80.4°F26.9°C 70.2°F21.2°C 71% 11.4 mph N18.3 kmh N 22.8 mph36.7 kmh 29.41 in995.9 mb 0.00 in0.0 mm 0.00 in0.0 mm 1.68 in42.7 mm
03:53 PM 80.2°F26.8°C 70.0°F21.1°C 71% 11.4 mph N18.3 kmh N 22.8 mph36.7 kmh 29.41 in995.9 mb 0.00 in0.0 mm 0.00 in0.0 mm 1.68 in42.7 mm
03:54 PM 80.2°F26.8°C 70.0°F21.1°C 71% 14.5 mph N23.3 kmh N 25.1 mph40.4 kmh 29.42 in996.3 mb 0.00 in0.0 mm 0.00 in0.0 mm 1.68 in42.7 mm
03:55 PM 80.2°F26.8°C 70.0°F21.1°C 71% 13.0 mph N20.9 kmh N 25.1 mph40.4 kmh 29.42 in996.3 mb 0.00 in0.0 mm 0.00 in0.0 mm 1.68 in42.7 mm
03:56 PM 80.2°F26.8°C 70.0°F21.1°C 71% 13.6 mph NNE21.9 kmh NNE 25.1 mph40.4 kmh 29.42 in996.3 mb 0.00 in0.0 mm 0.00 in0.0 mm 1.68 in42.7 mm
03:57 PM 80.2°F26.8°C 70.4°F21.3°C 72% 12.1 mph N19.5 kmh N 25.1 mph40.4 kmh 29.41 in995.9 mb 0.00 in0.0 mm 0.00 in0.0 mm 1.68 in42.7 mm
03:58 PM 80.2°F26.8°C 70.4°F21.3°C 72% 10.7 mph NNE17.2 kmh NNE 25.1 mph40.4 kmh 29.41 in995.9 mb 0.00 in0.0 mm 0.00 in0.0 mm 1.68 in42.7 mm
03:59 PM 80.2°F26.8°C 70.4°F21.3°C 72% 10.7 mph NNE17.2 kmh NNE 25.1 mph40.4 kmh 29.41 in995.9 mb 0.00 in0.0 mm 0.00 in0.0 mm 1.68 in42.7 mm
04:00 PM 80.2°F26.8°C 70.4°F21.3°C 72% 13.0 mph NNE20.9 kmh NNE 25.1 mph40.4 kmh 29.41 in995.9 mb 0.00 in0.0 mm 0.00 in0.0 mm 1.68 in42.7 mm
04:01 PM 80.4°F26.9°C 70.6°F21.4°C 72% 15.2 mph NNE24.5 kmh NNE 25.1 mph40.4 kmh 29.41 in995.9 mb 0.00 in0.0 mm 0.00 in0.0 mm 1.68 in42.7 mm
04:02 PM 80.2°F26.8°C 70.4°F21.3°C 72% 15.2 mph NNE24.5 kmh NNE 25.1 mph40.4 kmh 29.41 in995.9 mb 0.00 in0.0 mm 0.00 in0.0 mm 1.68 in42.7 mm
04:03 PM 80.2°F26.8°C 70.4°F21.3°C 72% 13.0 mph NNE20.9 kmh NNE 25.1 mph40.4 kmh 29.41 in995.9 mb 0.00 in0.0 mm 0.00 in0.0 mm 1.68 in42.7 mm
04:04 PM 80.2°F26.8°C 70.4°F21.3°C 72% 15.9 mph NNE25.6 kmh NNE 25.1 mph40.4 kmh 29.41 in995.9 mb 0.00 in0.0 mm 0.00 in0.0 mm 1.68 in42.7 mm
04:05 PM 80.2°F26.8°C 70.4°F21.3°C 72% 13.0 mph N20.9 kmh N 24.4 mph39.3 kmh 29.40 in995.6 mb 0.00 in0.0 mm 0.00 in0.0 mm 1.68 in42.7 mm
04:06 PM 80.2°F26.8°C 70.4°F21.3°C 72% 13.0 mph N20.9 kmh N 24.4 mph39.3 kmh 29.41 in995.9 mb 0.00 in0.0 mm 0.00 in0.0 mm 1.68 in42.7 mm
04:07 PM 80.2°F26.8°C 70.4°F21.3°C 72% 9.8 mph NNE15.8 kmh NNE 24.4 mph39.3 kmh 29.41 in995.9 mb 0.00 in0.0 mm 0.00 in0.0 mm 1.68 in42.7 mm
04:08 PM 80.4°F26.9°C 71.0°F21.7°C 73% 15.9 mph N25.6 kmh N 24.4 mph39.3 kmh 29.40 in995.6 mb 0.00 in0.0 mm 0.00 in0.0 mm 1.68 in42.7 mm
04:09 PM 80.4°F26.9°C 71.0°F21.7°C 73% 11.4 mph N18.3 kmh N 24.4 mph39.3 kmh 29.40 in995.6 mb 0.00 in0.0 mm 0.00 in0.0 mm 1.68 in42.7 mm
04:10 PM 80.4°F26.9°C 71.0°F21.7°C 73% 9.8 mph N15.8 kmh N 24.4 mph39.3 kmh 29.40 in995.6 mb 0.00 in0.0 mm 0.00 in0.0 mm 1.68 in42.7 mm
04:11 PM 80.4°F26.9°C 71.0°F21.7°C 73% 15.9 mph NNE25.6 kmh NNE 25.1 mph40.4 kmh 29.40 in995.6 mb 0.00 in0.0 mm 0.00 in0.0 mm 1.68 in42.7 mm
04:12 PM 80.6°F27.0°C 70.8°F21.6°C 72% 9.8 mph NNE15.8 kmh NNE 25.1 mph40.4 kmh 29.39 in995.3 mb 0.00 in0.0 mm 0.00 in0.0 mm 1.68 in42.7 mm
04:13 PM 80.8°F27.1°C 71.0°F21.7°C 72% 10.7 mph NNE17.2 kmh NNE 25.1 mph40.4 kmh 29.40 in995.6 mb 0.00 in0.0 mm 0.00 in0.0 mm 1.68 in42.7 mm
04:14 PM 81.0°F27.2°C 71.1°F21.7°C 72% 15.2 mph N24.5 kmh N 25.1 mph40.4 kmh 29.40 in995.6 mb 0.00 in0.0 mm 0.00 in0.0 mm 1.68 in42.7 mm
04:15 PM 81.1°F27.3°C 70.9°F21.6°C 71% 15.9 mph NNE25.6 kmh NNE 26.6 mph42.8 kmh 29.40 in995.6 mb 0.00 in0.0 mm 0.00 in0.0 mm 1.68 in42.7 mm
04:16 PM 81.3°F27.4°C 71.1°F21.7°C 71% 9.8 mph NNE15.8 kmh NNE 26.6 mph42.8 kmh 29.40 in995.6 mb 0.00 in0.0 mm 0.00 in0.0 mm 1.68 in42.7 mm
04:17 PM 81.3°F27.4°C 71.1°F21.7°C 71% 14.5 mph N23.3 kmh N 26.6 mph42.8 kmh 29.40 in995.6 mb 0.00 in0.0 mm 0.00 in0.0 mm 1.68 in42.7 mm
04:18 PM 81.3°F27.4°C 71.1°F21.7°C 71% 13.6 mph N21.9 kmh N 26.6 mph42.8 kmh 29.39 in995.3 mb 0.00 in0.0 mm 0.00 in0.0 mm 1.68 in42.7 mm
04:19 PM 81.5°F27.5°C 70.8°F21.6°C 70% 11.4 mph N18.3 kmh N 26.6 mph42.8 kmh 29.39 in995.3 mb 0.00 in0.0 mm 0.00 in0.0 mm 1.68 in42.7 mm
04:20 PM 81.5°F27.5°C 71.2°F21.8°C 71% 11.4 mph NNE18.3 kmh NNE 26.6 mph42.8 kmh 29.39 in995.3 mb 0.00 in0.0 mm 0.00 in0.0 mm 1.68 in42.7 mm
04:21 PM 81.7°F27.6°C 71.4°F21.9°C 71% 13.0 mph N20.9 kmh N 26.6 mph42.8 kmh 29.39 in995.3 mb 0.00 in0.0 mm 0.00 in0.0 mm 1.68 in42.7 mm
04:22 PM 81.7°F27.6°C 71.4°F21.9°C 71% 10.7 mph N17.2 kmh N 26.6 mph42.8 kmh 29.39 in995.3 mb 0.00 in0.0 mm 0.00 in0.0 mm 1.68 in42.7 mm
04:23 PM 81.9°F27.7°C 71.2°F21.8°C 70% 11.4 mph N18.3 kmh N 26.6 mph42.8 kmh 29.39 in995.3 mb 0.00 in0.0 mm 0.00 in0.0 mm 1.68 in42.7 mm
04:24 PM 81.9°F27.7°C 71.2°F21.8°C 70% 15.2 mph N24.5 kmh N 26.6 mph42.8 kmh 29.39 in995.3 mb 0.00 in0.0 mm 0.00 in0.0 mm 1.68 in42.7 mm
04:25 PM 81.9°F27.7°C 71.2°F21.8°C 70% 9.8 mph N15.8 kmh N 24.4 mph39.3 kmh 29.40 in995.6 mb 0.00 in0.0 mm 0.00 in0.0 mm 1.68 in42.7 mm
04:26 PM 81.9°F27.7°C 71.2°F21.8°C 70% 9.2 mph N14.8 kmh N 24.4 mph39.3 kmh 29.40 in995.6 mb 0.00 in0.0 mm 0.00 in0.0 mm 1.68 in42.7 mm
04:27 PM 82.0°F27.8°C 71.3°F21.8°C 70% 10.7 mph N17.2 kmh N 24.4 mph39.3 kmh 29.39 in995.3 mb 0.00 in0.0 mm 0.00 in0.0 mm 1.68 in42.7 mm
04:28 PM 82.0°F27.8°C 71.3°F21.8°C 70% 12.1 mph NNE19.5 kmh NNE 24.4 mph39.3 kmh 29.40 in995.6 mb 0.00 in0.0 mm 0.00 in0.0 mm 1.68 in42.7 mm
04:29 PM 82.0°F27.8°C 71.3°F21.8°C 70% 10.7 mph N17.2 kmh N 21.3 mph34.3 kmh 29.40 in995.6 mb 0.00 in0.0 mm 0.00 in0.0 mm 1.68 in42.7 mm
04:30 PM 81.9°F27.7°C 70.7°F21.5°C 69% 12.1 mph N19.5 kmh N 21.3 mph34.3 kmh 29.40 in995.6 mb 0.00 in0.0 mm 0.00 in0.0 mm 1.68 in42.7 mm
04:31 PM 81.7°F27.6°C 70.6°F21.4°C 69% 13.0 mph N20.9 kmh N 21.3 mph34.3 kmh 29.40 in995.6 mb 0.00 in0.0 mm 0.00 in0.0 mm 1.68 in42.7 mm
04:32 PM 81.5°F27.5°C 70.8°F21.6°C 70% 15.9 mph N25.6 kmh N 24.4 mph39.3 kmh 29.40 in995.6 mb 0.00 in0.0 mm 0.00 in0.0 mm 1.68 in42.7 mm
04:33 PM 81.3°F27.4°C 70.2°F21.2°C 69% 17.4 mph NNE28.0 kmh NNE 24.4 mph39.3 kmh 29.41 in995.9 mb 0.00 in0.0 mm 0.00 in0.0 mm 1.68 in42.7 mm
04:34 PM 81.0°F27.2°C 70.3°F21.3°C 70% 13.0 mph NNE20.9 kmh NNE 24.4 mph39.3 kmh 29.40 in995.6 mb 0.00 in0.0 mm 0.00 in0.0 mm 1.68 in42.7 mm
04:35 PM 81.0°F27.2°C 70.3°F21.3°C 70% 11.4 mph N18.3 kmh N 24.4 mph39.3 kmh 29.40 in995.6 mb 0.00 in0.0 mm 0.00 in0.0 mm 1.68 in42.7 mm
04:36 PM 80.8°F27.1°C 70.6°F21.4°C 71% 11.4 mph N18.3 kmh N 24.4 mph39.3 kmh 29.41 in995.9 mb 0.00 in0.0 mm 0.00 in0.0 mm 1.68 in42.7 mm
04:37 PM 80.8°F27.1°C 70.6°F21.4°C 71% 13.0 mph N20.9 kmh N 24.4 mph39.3 kmh 29.41 in995.9 mb 0.00 in0.0 mm 0.00 in0.0 mm 1.68 in42.7 mm
04:38 PM 80.8°F27.1°C 70.6°F21.4°C 71% 10.7 mph N17.2 kmh N 24.4 mph39.3 kmh 29.41 in995.9 mb 0.00 in0.0 mm 0.00 in0.0 mm 1.68 in42.7 mm
04:39 PM 80.6°F27.0°C 70.4°F21.3°C 71% 13.0 mph N20.9 kmh N 24.4 mph39.3 kmh 29.41 in995.9 mb 0.00 in0.0 mm 0.00 in0.0 mm 1.68 in42.7 mm
04:40 PM 80.6°F27.0°C 70.4°F21.3°C 71% 12.1 mph N19.5 kmh N 24.4 mph39.3 kmh 29.41 in995.9 mb 0.00 in0.0 mm 0.00 in0.0 mm 1.68 in42.7 mm
04:41 PM 80.6°F27.0°C 70.4°F21.3°C 71% 12.1 mph N19.5 kmh N 24.4 mph39.3 kmh 29.41 in995.9 mb 0.00 in0.0 mm 0.00 in0.0 mm 1.68 in42.7 mm
04:42 PM 80.6°F27.0°C 70.4°F21.3°C 71% 11.4 mph NNE18.3 kmh NNE 22.1 mph35.6 kmh 29.41 in995.9 mb 0.00 in0.0 mm 0.00 in0.0 mm 1.68 in42.7 mm
04:43 PM 80.6°F27.0°C 70.4°F21.3°C 71% 10.7 mph NNE17.2 kmh NNE 18.3 mph29.5 kmh 29.40 in995.6 mb 0.00 in0.0 mm 0.00 in0.0 mm 1.68 in42.7 mm
04:44 PM 80.6°F27.0°C 70.4°F21.3°C 71% 8.3 mph NNE13.4 kmh NNE 18.3 mph29.5 kmh 29.41 in995.9 mb 0.00 in0.0 mm 0.00 in0.0 mm 1.68 in42.7 mm
04:45 PM 80.6°F27.0°C 70.4°F21.3°C 71% 11.4 mph N18.3 kmh N 18.3 mph29.5 kmh 29.41 in995.9 mb 0.00 in0.0 mm 0.00 in0.0 mm 1.68 in42.7 mm
04:46 PM 80.8°F27.1°C 70.6°F21.4°C 71% 7.6 mph N12.2 kmh N 18.3 mph29.5 kmh 29.41 in995.9 mb 0.00 in0.0 mm 0.00 in0.0 mm 1.68 in42.7 mm
04:47 PM 80.8°F27.1°C 70.6°F21.4°C 71% 9.2 mph N14.8 kmh N 18.3 mph29.5 kmh 29.41 in995.9 mb 0.00 in0.0 mm 0.00 in0.0 mm 1.68 in42.7 mm
04:48 PM 80.8°F27.1°C 70.6°F21.4°C 71% 6.9 mph NNE11.1 kmh NNE 16.8 mph27.0 kmh 29.42 in996.3 mb 0.00 in0.0 mm 0.00 in0.0 mm 1.68 in42.7 mm
04:49 PM 80.8°F27.1°C 70.6°F21.4°C 71% 9.8 mph NNE15.8 kmh NNE 16.8 mph27.0 kmh 29.41 in995.9 mb 0.00 in0.0 mm 0.00 in0.0 mm 1.68 in42.7 mm
04:50 PM 80.8°F27.1°C 70.6°F21.4°C 71% 12.1 mph NNE19.5 kmh NNE 18.3 mph29.5 kmh 29.42 in996.3 mb 0.00 in0.0 mm 0.00 in0.0 mm 1.68 in42.7 mm
04:51 PM 80.8°F27.1°C 70.6°F21.4°C 71% 10.7 mph NNE17.2 kmh NNE 18.3 mph29.5 kmh 29.41 in995.9 mb 0.00 in0.0 mm 0.00 in0.0 mm 1.68 in42.7 mm
04:52 PM 80.8°F27.1°C 70.6°F21.4°C 71% 10.7 mph N17.2 kmh N 18.3 mph29.5 kmh 29.41 in995.9 mb 0.00 in0.0 mm 0.00 in0.0 mm 1.68 in42.7 mm
04:53 PM 80.8°F27.1°C 70.6°F21.4°C 71% 13.0 mph N20.9 kmh N 18.3 mph29.5 kmh 29.41 in995.9 mb 0.00 in0.0 mm 0.00 in0.0 mm 1.68 in42.7 mm
04:54 PM 80.8°F27.1°C 70.6°F21.4°C 71% 9.2 mph N14.8 kmh N 18.3 mph29.5 kmh 29.42 in996.3 mb 0.00 in0.0 mm 0.00 in0.0 mm 1.68 in42.7 mm
04:55 PM 80.8°F27.1°C 70.6°F21.4°C 71% 11.4 mph N18.3 kmh N 18.3 mph29.5 kmh 29.42 in996.3 mb 0.00 in0.0 mm 0.00 in0.0 mm 1.68 in42.7 mm
04:56 PM 80.8°F27.1°C 70.6°F21.4°C 71% 9.8 mph N15.8 kmh N 18.3 mph29.5 kmh 29.42 in996.3 mb 0.00 in0.0 mm 0.00 in0.0 mm 1.68 in42.7 mm
04:57 PM 80.8°F27.1°C 70.6°F21.4°C 71% 6.9 mph N11.1 kmh N 18.3 mph29.5 kmh 29.41 in995.9 mb 0.00 in0.0 mm 0.00 in0.0 mm 1.68 in42.7 mm
04:58 PM 80.8°F27.1°C 70.6°F21.4°C 71% 12.1 mph N19.5 kmh N 18.3 mph29.5 kmh 29.42 in996.3 mb 0.00 in0.0 mm 0.00 in0.0 mm 1.68 in42.7 mm
04:59 PM 80.8°F27.1°C 70.6°F21.4°C 71% 8.3 mph N13.4 kmh N 18.3 mph29.5 kmh 29.42 in996.3 mb 0.00 in0.0 mm 0.00 in0.0 mm 1.68 in42.7 mm
05:00 PM 80.8°F27.1°C 70.6°F21.4°C 71% 6.9 mph N11.1 kmh N 18.3 mph29.5 kmh 29.42 in996.3 mb 0.00 in0.0 mm 0.00 in0.0 mm 1.68 in42.7 mm
05:01 PM 80.8°F27.1°C 70.6°F21.4°C 71% 6.9 mph N11.1 kmh N 18.3 mph29.5 kmh 29.41 in995.9 mb 0.00 in0.0 mm 0.00 in0.0 mm 1.68 in42.7 mm
05:02 PM 80.8°F27.1°C 71.0°F21.7°C 72% 9.8 mph NNE15.8 kmh NNE 18.3 mph29.5 kmh 29.42 in996.3 mb 0.00 in0.0 mm 0.00 in0.0 mm 1.68 in42.7 mm
05:03 PM 80.8°F27.1°C 71.0°F21.7°C 72% 11.4 mph NNE18.3 kmh NNE 17.4 mph28.0 kmh 29.42 in996.3 mb 0.00 in0.0 mm 0.00 in0.0 mm 1.68 in42.7 mm
05:04 PM 80.6°F27.0°C 70.4°F21.3°C 71% 9.8 mph NNE15.8 kmh NNE 17.4 mph28.0 kmh 29.41 in995.9 mb 0.00 in0.0 mm 0.00 in0.0 mm 1.68 in42.7 mm
05:05 PM 80.6°F27.0°C 70.4°F21.3°C 71% 8.3 mph NNE13.4 kmh NNE 17.4 mph28.0 kmh 29.41 in995.9 mb 0.00 in0.0 mm 0.00 in0.0 mm 1.68 in42.7 mm
05:06 PM 80.6°F27.0°C 70.8°F21.6°C 72% 7.6 mph NNE12.2 kmh NNE 17.4 mph28.0 kmh 29.42 in996.3 mb 0.00 in0.0 mm 0.00 in0.0 mm 1.68 in42.7 mm
05:07 PM 80.4°F26.9°C 71.0°F21.7°C 73% 6.9 mph NNE11.1 kmh NNE 17.4 mph28.0 kmh 29.41 in995.9 mb 0.00 in0.0 mm 0.00 in0.0 mm 1.68 in42.7 mm
05:08 PM 80.4°F26.9°C 71.0°F21.7°C 73% 7.6 mph N12.2 kmh N 17.4 mph28.0 kmh 29.42 in996.3 mb 0.00 in0.0 mm 0.00 in0.0 mm 1.68 in42.7 mm
05:09 PM 80.4°F26.9°C 71.0°F21.7°C 73% 12.1 mph NNE19.5 kmh NNE 15.9 mph25.6 kmh 29.41 in995.9 mb 0.00 in0.0 mm 0.00 in0.0 mm 1.68 in42.7 mm
05:10 PM 80.4°F26.9°C 71.0°F21.7°C 73% 7.6 mph N12.2 kmh N 15.9 mph25.6 kmh 29.42 in996.3 mb 0.00 in0.0 mm 0.00 in0.0 mm 1.68 in42.7 mm
05:11 PM 80.4°F26.9°C 71.0°F21.7°C 73% 9.8 mph N15.8 kmh N 15.9 mph25.6 kmh 29.42 in996.3 mb 0.00 in0.0 mm 0.00 in0.0 mm 1.68 in42.7 mm
05:12 PM 80.2°F26.8°C 70.8°F21.6°C 73% 6.9 mph N11.1 kmh N 15.9 mph25.6 kmh 29.42 in996.3 mb 0.00 in0.0 mm 0.00 in0.0 mm 1.68 in42.7 mm
05:13 PM 80.2°F26.8°C 70.8°F21.6°C 73% 5.4 mph N8.7 kmh N 15.9 mph25.6 kmh 29.41 in995.9 mb 0.00 in0.0 mm 0.00 in0.0 mm 1.68 in42.7 mm
05:14 PM 80.2°F26.8°C 70.8°F21.6°C 73% 8.3 mph N13.4 kmh N 15.9 mph25.6 kmh 29.43 in996.6 mb 0.00 in0.0 mm 0.00 in0.0 mm 1.68 in42.7 mm
05:15 PM 80.2°F26.8°C 70.4°F21.3°C 72% 7.6 mph N12.2 kmh N 15.9 mph25.6 kmh 29.42 in996.3 mb 0.00 in0.0 mm 0.00 in0.0 mm 1.68 in42.7 mm
05:16 PM 80.1°F26.7°C 70.3°F21.3°C 72% 9.2 mph N14.8 kmh N 15.9 mph25.6 kmh 29.41 in995.9 mb 0.00 in0.0 mm 0.00 in0.0 mm 1.68 in42.7 mm
05:17 PM 80.1°F26.7°C 70.3°F21.3°C 72% 9.8 mph N15.8 kmh N 15.9 mph25.6 kmh 29.41 in995.9 mb 0.00 in0.0 mm 0.00 in0.0 mm 1.68 in42.7 mm
05:18 PM 80.1°F26.7°C 70.3°F21.3°C 72% 6.0 mph N9.7 kmh N 15.9 mph25.6 kmh 29.42 in996.3 mb 0.00 in0.0 mm 0.00 in0.0 mm 1.68 in42.7 mm
05:19 PM 80.1°F26.7°C 70.3°F21.3°C 72% 6.9 mph N11.1 kmh N 15.2 mph24.5 kmh 29.42 in996.3 mb 0.00 in0.0 mm 0.00 in0.0 mm 1.68 in42.7 mm
05:20 PM 80.1°F26.7°C 70.3°F21.3°C 72% 7.6 mph N12.2 kmh N 15.2 mph24.5 kmh 29.42 in996.3 mb 0.00 in0.0 mm 0.00 in0.0 mm 1.68 in42.7 mm
05:21 PM 79.9°F26.6°C 70.1°F21.2°C 72% 5.4 mph N8.7 kmh N 15.2 mph24.5 kmh 29.42 in996.3 mb 0.00 in0.0 mm 0.00 in0.0 mm 1.68 in42.7 mm
05:22 PM 79.9°F26.6°C 70.1°F21.2°C 72% 9.2 mph N14.8 kmh N 15.2 mph24.5 kmh 29.42 in996.3 mb 0.00 in0.0 mm 0.00 in0.0 mm 1.68 in42.7 mm
05:23 PM 79.9°F26.6°C 70.1°F21.2°C 72% 8.3 mph N13.4 kmh N 15.2 mph24.5 kmh 29.42 in996.3 mb 0.00 in0.0 mm 0.00 in0.0 mm 1.68 in42.7 mm
05:24 PM 79.9°F26.6°C 70.1°F21.2°C 72% 6.0 mph N9.7 kmh N 15.2 mph24.5 kmh 29.42 in996.3 mb 0.00 in0.0 mm 0.00 in0.0 mm 1.68 in42.7 mm
05:25 PM 79.7°F26.5°C 69.9°F21.1°C 72% 6.9 mph N11.1 kmh N 15.2 mph24.5 kmh 29.42 in996.3 mb 0.00 in0.0 mm 0.00 in0.0 mm 1.68 in42.7 mm
05:26 PM 79.7°F26.5°C 69.9°F21.1°C 72% 7.6 mph N12.2 kmh N 15.2 mph24.5 kmh 29.42 in996.3 mb 0.00 in0.0 mm 0.00 in0.0 mm 1.68 in42.7 mm
05:27 PM 79.7°F26.5°C 69.9°F21.1°C 72% 10.7 mph N17.2 kmh N 15.2 mph24.5 kmh 29.42 in996.3 mb 0.00 in0.0 mm 0.00 in0.0 mm 1.68 in42.7 mm
05:28 PM 79.7°F26.5°C 69.9°F21.1°C 72% 7.6 mph N12.2 kmh N 15.2 mph24.5 kmh 29.42 in996.3 mb 0.00 in0.0 mm 0.00 in0.0 mm 1.68 in42.7 mm
05:29 PM 79.7°F26.5°C 69.9°F21.1°C 72% 9.2 mph NNE14.8 kmh NNE 15.2 mph24.5 kmh 29.42 in996.3 mb 0.00 in0.0 mm 0.00 in0.0 mm 1.68 in42.7 mm
05:30 PM 79.7°F26.5°C 69.9°F21.1°C 72% 6.9 mph N11.1 kmh N 15.2 mph24.5 kmh 29.42 in996.3 mb 0.00 in0.0 mm 0.00 in0.0 mm 1.68 in42.7 mm
05:31 PM 79.5°F26.4°C 69.7°F20.9°C 72% 11.4 mph NNE18.3 kmh NNE 15.2 mph24.5 kmh 29.42 in996.3 mb 0.00 in0.0 mm 0.00 in0.0 mm 1.68 in42.7 mm
05:32 PM 79.5°F26.4°C 69.7°F20.9°C 72% 6.0 mph N9.7 kmh N 15.2 mph24.5 kmh 29.42 in996.3 mb 0.00 in0.0 mm 0.00 in0.0 mm 1.68 in42.7 mm
05:33 PM 79.5°F26.4°C 69.7°F20.9°C 72% 4.5 mph N7.2 kmh N 15.2 mph24.5 kmh 29.42 in996.3 mb 0.00 in0.0 mm 0.00 in0.0 mm 1.68 in42.7 mm
05:34 PM 79.5°F26.4°C 69.7°F20.9°C 72% 5.4 mph N8.7 kmh N 15.2 mph24.5 kmh 29.41 in995.9 mb 0.00 in0.0 mm 0.00 in0.0 mm 1.68 in42.7 mm
05:35 PM 79.5°F26.4°C 69.7°F20.9°C 72% 6.9 mph N11.1 kmh N 15.2 mph24.5 kmh 29.41 in995.9 mb 0.00 in0.0 mm 0.00 in0.0 mm 1.68 in42.7 mm
05:36 PM 79.3°F26.3°C 69.6°F20.9°C 72% 6.0 mph N9.7 kmh N 15.2 mph24.5 kmh 29.41 in995.9 mb 0.00 in0.0 mm 0.00 in0.0 mm 1.68 in42.7 mm
05:37 PM 79.3°F26.3°C 70.0°F21.1°C 73% 5.4 mph N8.7 kmh N 15.2 mph24.5 kmh 29.41 in995.9 mb 0.00 in0.0 mm 0.00 in0.0 mm 1.68 in42.7 mm
05:38 PM 79.3°F26.3°C 70.0°F21.1°C 73% 4.5 mph N7.2 kmh N 13.0 mph20.9 kmh 29.41 in995.9 mb 0.00 in0.0 mm 0.00 in0.0 mm 1.68 in42.7 mm
05:39 PM 79.3°F26.3°C 70.0°F21.1°C 73% 5.4 mph N8.7 kmh N 13.0 mph20.9 kmh 29.41 in995.9 mb 0.00 in0.0 mm 0.00 in0.0 mm 1.68 in42.7 mm
05:40 PM 79.3°F26.3°C 70.0°F21.1°C 73% 7.6 mph N12.2 kmh N 13.0 mph20.9 kmh 29.41 in995.9 mb 0.00 in0.0 mm 0.00 in0.0 mm 1.68 in42.7 mm
05:41 PM 79.3°F26.3°C 70.0°F21.1°C 73% 5.4 mph N8.7 kmh N 13.0 mph20.9 kmh 29.41 in995.9 mb 0.00 in0.0 mm 0.00 in0.0 mm 1.68 in42.7 mm
05:42 PM 79.2°F26.2°C 69.8°F21.0°C 73% 7.6 mph N12.2 kmh N 10.7 mph17.2 kmh 29.41 in995.9 mb 0.00 in0.0 mm 0.00 in0.0 mm 1.68 in42.7 mm
05:43 PM 79.2°F26.2°C 69.8°F21.0°C 73% 5.4 mph N8.7 kmh N 10.7 mph17.2 kmh 29.41 in995.9 mb 0.00 in0.0 mm 0.00 in0.0 mm 1.68 in42.7 mm
05:44 PM 79.2°F26.2°C 69.8°F21.0°C 73% 8.3 mph N13.4 kmh N 10.7 mph17.2 kmh 29.41 in995.9 mb 0.00 in0.0 mm 0.00 in0.0 mm 1.68 in42.7 mm
05:45 PM 79.2°F26.2°C 69.8°F21.0°C 73% 6.9 mph N11.1 kmh N 10.7 mph17.2 kmh 29.42 in996.3 mb 0.00 in0.0 mm 0.00 in0.0 mm 1.68 in42.7 mm
05:46 PM 79.2°F26.2°C 69.8°F21.0°C 73% 9.2 mph N14.8 kmh N 11.4 mph18.3 kmh 29.42 in996.3 mb 0.00 in0.0 mm 0.00 in0.0 mm 1.68 in42.7 mm
05:47 PM 79.2°F26.2°C 69.8°F21.0°C 73% 6.9 mph N11.1 kmh N 11.4 mph18.3 kmh 29.42 in996.3 mb 0.00 in0.0 mm 0.00 in0.0 mm 1.68 in42.7 mm
05:48 PM 79.2°F26.2°C 69.8°F21.0°C 73% 4.5 mph N7.2 kmh N 11.4 mph18.3 kmh 29.43 in996.6 mb 0.00 in0.0 mm 0.00 in0.0 mm 1.68 in42.7 mm
05:49 PM 79.2°F26.2°C 69.8°F21.0°C 73% 6.0 mph N9.7 kmh N 11.4 mph18.3 kmh 29.43 in996.6 mb 0.00 in0.0 mm 0.00 in0.0 mm 1.68 in42.7 mm
05:50 PM 79.2°F26.2°C 69.8°F21.0°C 73% 6.0 mph N9.7 kmh N 11.4 mph18.3 kmh 29.43 in996.6 mb 0.00 in0.0 mm 0.00 in0.0 mm 1.68 in42.7 mm
05:51 PM 79.2°F26.2°C 69.8°F21.0°C 73% 4.5 mph N7.2 kmh N 11.4 mph18.3 kmh 29.43 in996.6 mb 0.00 in0.0 mm 0.00 in0.0 mm 1.68 in42.7 mm
05:52 PM 79.2°F26.2°C 69.8°F21.0°C 73% 4.5 mph N7.2 kmh N 11.4 mph18.3 kmh 29.43 in996.6 mb 0.00 in0.0 mm 0.00 in0.0 mm 1.68 in42.7 mm
05:53 PM 79.2°F26.2°C 69.8°F21.0°C 73% 5.4 mph N8.7 kmh N 11.4 mph18.3 kmh 29.43 in996.6 mb 0.00 in0.0 mm 0.00 in0.0 mm 1.68 in42.7 mm
05:54 PM 79.2°F26.2°C 69.8°F21.0°C 73% 9.2 mph N14.8 kmh N 12.1 mph19.5 kmh 29.43 in996.6 mb 0.00 in0.0 mm 0.00 in0.0 mm 1.68 in42.7 mm
05:55 PM 79.0°F26.1°C 69.6°F20.9°C 73% 7.6 mph N12.2 kmh N 12.1 mph19.5 kmh 29.42 in996.3 mb 0.00 in0.0 mm 0.00 in0.0 mm 1.68 in42.7 mm
05:56 PM 79.0°F26.1°C 69.6°F20.9°C 73% 6.0 mph N9.7 kmh N 12.1 mph19.5 kmh 29.43 in996.6 mb 0.00 in0.0 mm 0.00 in0.0 mm 1.68 in42.7 mm
05:57 PM 79.0°F26.1°C 70.0°F21.1°C 74% 6.0 mph N9.7 kmh N 12.1 mph19.5 kmh 29.43 in996.6 mb 0.00 in0.0 mm 0.00 in0.0 mm 1.68 in42.7 mm
05:58 PM 79.0°F26.1°C 70.0°F21.1°C 74% 4.5 mph N7.2 kmh N 12.1 mph19.5 kmh 29.43 in996.6 mb 0.00 in0.0 mm 0.00 in0.0 mm 1.68 in42.7 mm
05:59 PM 79.0°F26.1°C 70.0°F21.1°C 74% 10.7 mph N17.2 kmh N 13.0 mph20.9 kmh 29.43 in996.6 mb 0.00 in0.0 mm 0.00 in0.0 mm 1.68 in42.7 mm
06:00 PM 79.0°F26.1°C 70.0°F21.1°C 74% 8.3 mph N13.4 kmh N 13.0 mph20.9 kmh 29.43 in996.6 mb 0.00 in0.0 mm 0.00 in0.0 mm 1.68 in42.7 mm
06:01 PM 79.0°F26.1°C 70.0°F21.1°C 74% 6.9 mph N11.1 kmh N 13.0 mph20.9 kmh 29.43 in996.6 mb 0.00 in0.0 mm 0.00 in0.0 mm 1.68 in42.7 mm
06:02 PM 79.0°F26.1°C 70.0°F21.1°C 74% 5.4 mph N8.7 kmh N 13.0 mph20.9 kmh 29.43 in996.6 mb 0.00 in0.0 mm 0.00 in0.0 mm 1.68 in42.7 mm
06:03 PM 78.8°F26.0°C 69.9°F21.1°C 74% 6.9 mph N11.1 kmh N 13.0 mph20.9 kmh 29.43 in996.6 mb 0.00 in0.0 mm 0.00 in0.0 mm 1.68 in42.7 mm
06:04 PM 78.8°F26.0°C 69.9°F21.1°C 74% 6.0 mph N9.7 kmh N 13.0 mph20.9 kmh 29.43 in996.6 mb 0.00 in0.0 mm 0.00 in0.0 mm 1.68 in42.7 mm
06:05 PM 78.8°F26.0°C 69.9°F21.1°C 74% 4.5 mph N7.2 kmh N 13.0 mph20.9 kmh 29.42 in996.3 mb 0.00 in0.0 mm 0.00 in0.0 mm 1.68 in42.7 mm
06:06 PM 78.8°F26.0°C 69.9°F21.1°C 74% 3.8 mph N6.1 kmh N 13.0 mph20.9 kmh 29.42 in996.3 mb 0.00 in0.0 mm 0.00 in0.0 mm 1.68 in42.7 mm
06:07 PM 78.8°F26.0°C 70.3°F21.3°C 75% 6.9 mph N11.1 kmh N 13.0 mph20.9 kmh 29.42 in996.3 mb 0.00 in0.0 mm 0.00 in0.0 mm 1.68 in42.7 mm
06:08 PM 78.6°F25.9°C 70.5°F21.4°C 76% 6.9 mph N11.1 kmh N 13.0 mph20.9 kmh 29.43 in996.6 mb 0.00 in0.0 mm 0.00 in0.0 mm 1.68 in42.7 mm
06:09 PM 78.6°F25.9°C 70.5°F21.4°C 76% 6.0 mph N9.7 kmh N 13.0 mph20.9 kmh 29.42 in996.3 mb 0.00 in0.0 mm 0.00 in0.0 mm 1.68 in42.7 mm
06:10 PM 78.6°F25.9°C 70.5°F21.4°C 76% 7.6 mph N12.2 kmh N 11.4 mph18.3 kmh 29.42 in996.3 mb 0.00 in0.0 mm 0.00 in0.0 mm 1.68 in42.7 mm
06:11 PM 78.6°F25.9°C 70.5°F21.4°C 76% 6.9 mph N11.1 kmh N 10.7 mph17.2 kmh 29.42 in996.3 mb 0.00 in0.0 mm 0.00 in0.0 mm 1.68 in42.7 mm
06:12 PM 78.4°F25.8°C 70.3°F21.3°C 76% 4.5 mph N7.2 kmh N 10.7 mph17.2 kmh 29.42 in996.3 mb 0.00 in0.0 mm 0.00 in0.0 mm 1.68 in42.7 mm
06:13 PM 78.4°F25.8°C 70.3°F21.3°C 76% 3.1 mph N5.0 kmh N 10.7 mph17.2 kmh 29.42 in996.3 mb 0.00 in0.0 mm 0.00 in0.0 mm 1.68 in42.7 mm
06:14 PM 78.4°F25.8°C 70.3°F21.3°C 76% 4.5 mph N7.2 kmh N 10.7 mph17.2 kmh 29.42 in996.3 mb 0.00 in0.0 mm 0.00 in0.0 mm 1.68 in42.7 mm
06:15 PM 78.4°F25.8°C 70.7°F21.5°C 77% 2.2 mph N3.5 kmh N 10.7 mph17.2 kmh 29.42 in996.3 mb 0.00 in0.0 mm 0.00 in0.0 mm 1.68 in42.7 mm
06:16 PM 78.3°F25.7°C 70.5°F21.4°C 77% 3.1 mph N5.0 kmh N 10.7 mph17.2 kmh 29.43 in996.6 mb 0.00 in0.0 mm 0.00 in0.0 mm 1.68 in42.7 mm
06:17 PM 78.3°F25.7°C 70.5°F21.4°C 77% 5.4 mph N8.7 kmh N 10.7 mph17.2 kmh 29.43 in996.6 mb 0.00 in0.0 mm 0.00 in0.0 mm 1.68 in42.7 mm
06:18 PM 78.3°F25.7°C 70.5°F21.4°C 77% 3.8 mph N6.1 kmh N 10.7 mph17.2 kmh 29.42 in996.3 mb 0.00 in0.0 mm 0.00 in0.0 mm 1.68 in42.7 mm
06:19 PM 78.3°F25.7°C 70.5°F21.4°C 77% 3.1 mph N5.0 kmh N 10.7 mph17.2 kmh 29.43 in996.6 mb 0.00 in0.0 mm 0.00 in0.0 mm 1.68 in42.7 mm
06:20 PM 78.3°F25.7°C 70.5°F21.4°C 77% 3.8 mph N6.1 kmh N 9.2 mph14.8 kmh 29.43 in996.6 mb 0.00 in0.0 mm 0.00 in0.0 mm 1.68 in42.7 mm
06:21 PM 78.3°F25.7°C 70.5°F21.4°C 77% 2.2 mph N3.5 kmh N 8.3 mph13.4 kmh 29.43 in996.6 mb 0.00 in0.0 mm 0.00 in0.0 mm 1.68 in42.7 mm
06:22 PM 78.3°F25.7°C 70.5°F21.4°C 77% 2.2 mph N3.5 kmh N 8.3 mph13.4 kmh 29.44 in997.0 mb 0.00 in0.0 mm 0.00 in0.0 mm 1.68 in42.7 mm
06:23 PM 78.1°F25.6°C 70.3°F21.3°C 77% 0.7 mph N1.1 kmh N 8.3 mph13.4 kmh 29.44 in997.0 mb 0.00 in0.0 mm 0.00 in0.0 mm 1.68 in42.7 mm
06:24 PM 78.1°F25.6°C 70.3°F21.3°C 77% Calm Calm 8.3 mph13.4 kmh 29.44 in997.0 mb 0.00 in0.0 mm 0.00 in0.0 mm 1.68 in42.7 mm
06:25 PM 78.1°F25.6°C 70.3°F21.3°C 77% Calm Calm 8.3 mph13.4 kmh 29.44 in997.0 mb 0.00 in0.0 mm 0.00 in0.0 mm 1.68 in42.7 mm
06:26 PM 78.1°F25.6°C 70.3°F21.3°C 77% Calm Calm 8.3 mph13.4 kmh 29.44 in997.0 mb 0.00 in0.0 mm 0.00 in0.0 mm 1.68 in42.7 mm
06:27 PM 78.1°F25.6°C 70.3°F21.3°C 77% Calm Calm 6.9 mph11.1 kmh 29.44 in997.0 mb 0.00 in0.0 mm 0.00 in0.0 mm 1.68 in42.7 mm
06:28 PM 78.1°F25.6°C 70.3°F21.3°C 77% Calm Calm 6.9 mph11.1 kmh 29.44 in997.0 mb 0.00 in0.0 mm 0.00 in0.0 mm 1.68 in42.7 mm
06:29 PM 78.1°F25.6°C 70.3°F21.3°C 77% Calm Calm 6.9 mph11.1 kmh 29.44 in997.0 mb 0.00 in0.0 mm 0.00 in0.0 mm 1.68 in42.7 mm
06:30 PM 78.1°F25.6°C 70.3°F21.3°C 77% Calm Calm 6.9 mph11.1 kmh 29.45 in997.3 mb 0.00 in0.0 mm 0.00 in0.0 mm 1.68 in42.7 mm
06:31 PM 78.1°F25.6°C 70.3°F21.3°C 77% Calm Calm 3.8 mph6.1 kmh 29.45 in997.3 mb 0.00 in0.0 mm 0.00 in0.0 mm 1.68 in42.7 mm
06:32 PM 78.1°F25.6°C 70.7°F21.5°C 78% Calm Calm 3.1 mph5.0 kmh 29.46 in997.6 mb 0.00 in0.0 mm 0.00 in0.0 mm 1.68 in42.7 mm
06:33 PM 78.1°F25.6°C 70.7°F21.5°C 78% Calm Calm 1.6 mph2.6 kmh 29.46 in997.6 mb 0.00 in0.0 mm 0.00 in0.0 mm 1.68 in42.7 mm
06:34 PM 78.1°F25.6°C 70.7°F21.5°C 78% Calm Calm 0.7 mph1.1 kmh 29.46 in997.6 mb 0.00 in0.0 mm 0.00 in0.0 mm 1.68 in42.7 mm
06:35 PM 78.1°F25.6°C 70.7°F21.5°C 78% 0.7 mph SW1.1 kmh SW 2.2 mph3.5 kmh 29.46 in997.6 mb 0.00 in0.0 mm 0.00 in0.0 mm 1.68 in42.7 mm
06:36 PM 78.1°F25.6°C 70.7°F21.5°C 78% Calm Calm 2.2 mph3.5 kmh 29.46 in997.6 mb 0.00 in0.0 mm 0.00 in0.0 mm 1.68 in42.7 mm
06:37 PM 78.1°F25.6°C 70.7°F21.5°C 78% Calm Calm 2.2 mph3.5 kmh 29.46 in997.6 mb 0.00 in0.0 mm 0.00 in0.0 mm 1.68 in42.7 mm
06:38 PM 78.1°F25.6°C 70.7°F21.5°C 78% 0.7 mph SW1.1 kmh SW 3.1 mph5.0 kmh 29.47 in998.0 mb 0.00 in0.0 mm 0.00 in0.0 mm 1.68 in42.7 mm
06:39 PM 78.1°F25.6°C 70.7°F21.5°C 78% 2.2 mph SW3.5 kmh SW 3.1 mph5.0 kmh 29.47 in998.0 mb 0.00 in0.0 mm 0.00 in0.0 mm 1.68 in42.7 mm
06:40 PM 78.1°F25.6°C 70.7°F21.5°C 78% 1.6 mph SW2.6 kmh SW 3.1 mph5.0 kmh 29.47 in998.0 mb 0.00 in0.0 mm 0.00 in0.0 mm 1.68 in42.7 mm
06:41 PM 78.1°F25.6°C 70.7°F21.5°C 78% 3.1 mph SW5.0 kmh SW 3.8 mph6.1 kmh 29.47 in998.0 mb 0.00 in0.0 mm 0.00 in0.0 mm 1.68 in42.7 mm
06:43 PM 78.1°F25.6°C 70.7°F21.5°C 78% 2.2 mph SW3.5 kmh SW 3.8 mph6.1 kmh 29.48 in998.3 mb 0.00 in0.0 mm 0.00 in0.0 mm 1.68 in42.7 mm
06:44 PM 78.1°F25.6°C 70.7°F21.5°C 78% 1.6 mph SW2.6 kmh SW 3.8 mph6.1 kmh 29.48 in998.3 mb 0.00 in0.0 mm 0.00 in0.0 mm 1.68 in42.7 mm
06:45 PM 78.1°F25.6°C 70.7°F21.5°C 78% 2.2 mph SW3.5 kmh SW 3.8 mph6.1 kmh 29.48 in998.3 mb 0.00 in0.0 mm 0.00 in0.0 mm 1.68 in42.7 mm
06:46 PM 78.1°F25.6°C 70.7°F21.5°C 78% 2.2 mph SSW3.5 kmh SSW 3.8 mph6.1 kmh 29.48 in998.3 mb 0.00 in0.0 mm 0.00 in0.0 mm 1.68 in42.7 mm
06:47 PM 77.9°F25.5°C 70.5°F21.4°C 78% 3.1 mph SSW5.0 kmh SSW 4.5 mph7.2 kmh 29.48 in998.3 mb 0.00 in0.0 mm 0.00 in0.0 mm 1.68 in42.7 mm
06:48 PM 77.9°F25.5°C 70.5°F21.4°C 78% 3.1 mph SSW5.0 kmh SSW 4.5 mph7.2 kmh 29.48 in998.3 mb 0.00 in0.0 mm 0.00 in0.0 mm 1.68 in42.7 mm
06:49 PM 77.9°F25.5°C 70.5°F21.4°C 78% 0.7 mph SSW1.1 kmh SSW 4.5 mph7.2 kmh 29.48 in998.3 mb 0.00 in0.0 mm 0.00 in0.0 mm 1.68 in42.7 mm
06:50 PM 77.9°F25.5°C 70.2°F21.2°C 77% 2.2 mph SSW3.5 kmh SSW 4.5 mph7.2 kmh 29.48 in998.3 mb 0.00 in0.0 mm 0.00 in0.0 mm 1.68 in42.7 mm
06:51 PM 77.9°F25.5°C 70.2°F21.2°C 77% 3.1 mph SSW5.0 kmh SSW 5.4 mph8.7 kmh 29.49 in998.6 mb 0.00 in0.0 mm 0.00 in0.0 mm 1.68 in42.7 mm
06:52 PM 78.1°F25.6°C 70.3°F21.3°C 77% 1.6 mph SSW2.6 kmh SSW 5.4 mph8.7 kmh 29.48 in998.3 mb 0.00 in0.0 mm 0.00 in0.0 mm 1.68 in42.7 mm
06:53 PM 78.1°F25.6°C 70.3°F21.3°C 77% Calm Calm 5.4 mph8.7 kmh 29.48 in998.3 mb 0.00 in0.0 mm 0.00 in0.0 mm 1.68 in42.7 mm
06:54 PM 78.1°F25.6°C 70.3°F21.3°C 77% 3.1 mph S5.0 kmh S 10.7 mph17.2 kmh 29.48 in998.3 mb 0.00 in0.0 mm 0.00 in0.0 mm 1.68 in42.7 mm
06:55 PM 78.1°F25.6°C 70.3°F21.3°C 77% 2.2 mph SSW3.5 kmh SSW 10.7 mph17.2 kmh 29.47 in998.0 mb 0.00 in0.0 mm 0.00 in0.0 mm 1.68 in42.7 mm
06:56 PM 78.1°F25.6°C 70.3°F21.3°C 77% 2.2 mph SSW3.5 kmh SSW 10.7 mph17.2 kmh 29.47 in998.0 mb 0.00 in0.0 mm 0.00 in0.0 mm 1.68 in42.7 mm
06:58 PM 78.1°F25.6°C 70.7°F21.5°C 78% 5.4 mph S8.7 kmh S 10.7 mph17.2 kmh 29.47 in998.0 mb 0.00 in0.0 mm 0.00 in0.0 mm 1.68 in42.7 mm
06:59 PM 77.9°F25.5°C 70.9°F21.6°C 79% 4.5 mph SSW7.2 kmh SSW 10.7 mph17.2 kmh 29.47 in998.0 mb 0.00 in0.0 mm 0.00 in0.0 mm 1.68 in42.7 mm
07:00 PM 77.9°F25.5°C 70.9°F21.6°C 79% 5.4 mph S8.7 kmh S 10.7 mph17.2 kmh 29.47 in998.0 mb 0.00 in0.0 mm 0.00 in0.0 mm 1.68 in42.7 mm
07:01 PM 77.7°F25.4°C 70.7°F21.5°C 79% 6.0 mph S9.7 kmh S 10.7 mph17.2 kmh 29.47 in998.0 mb 0.00 in0.0 mm 0.00 in0.0 mm 1.68 in42.7 mm
07:02 PM 77.7°F25.4°C 71.1°F21.7°C 80% 3.8 mph S6.1 kmh S 10.7 mph17.2 kmh 29.47 in998.0 mb 0.00 in0.0 mm 0.00 in0.0 mm 1.68 in42.7 mm
07:03 PM 77.5°F25.3°C 70.9°F21.6°C 80% 5.4 mph SSE8.7 kmh SSE 10.7 mph17.2 kmh 29.46 in997.6 mb 0.00 in0.0 mm 0.00 in0.0 mm 1.68 in42.7 mm
07:04 PM 77.4°F25.2°C 71.1°F21.7°C 81% 3.1 mph SSE5.0 kmh SSE 10.7 mph17.2 kmh 29.46 in997.6 mb 0.00 in0.0 mm 0.00 in0.0 mm 1.68 in42.7 mm
07:05 PM 77.4°F25.2°C 71.1°F21.7°C 81% 3.8 mph SE6.1 kmh SE 8.3 mph13.4 kmh 29.46 in997.6 mb 0.00 in0.0 mm 0.00 in0.0 mm 1.68 in42.7 mm
07:07 PM 77.0°F25.0°C 71.1°F21.7°C 82% 3.8 mph SSE6.1 kmh SSE 8.3 mph13.4 kmh 29.46 in997.6 mb 0.00 in0.0 mm 0.00 in0.0 mm 1.68 in42.7 mm
07:08 PM 77.0°F25.0°C 71.1°F21.7°C 82% 2.2 mph SSE3.5 kmh SSE 8.3 mph13.4 kmh 29.46 in997.6 mb 0.00 in0.0 mm 0.00 in0.0 mm 1.68 in42.7 mm
07:09 PM 77.0°F25.0°C 71.5°F21.9°C 83% 2.2 mph SSE3.5 kmh SSE 8.3 mph13.4 kmh 29.46 in997.6 mb 0.00 in0.0 mm 0.00 in0.0 mm 1.68 in42.7 mm
07:10 PM 76.8°F24.9°C 71.7°F22.1°C 84% 2.2 mph SSE3.5 kmh SSE 8.3 mph13.4 kmh 29.46 in997.6 mb 0.00 in0.0 mm 0.00 in0.0 mm 1.68 in42.7 mm
07:12 PM 76.6°F24.8°C 71.5°F21.9°C 84% 1.6 mph SSE2.6 kmh SSE 8.3 mph13.4 kmh 29.46 in997.6 mb 0.00 in0.0 mm 0.00 in0.0 mm 1.68 in42.7 mm
07:13 PM 76.5°F24.7°C 71.3°F21.8°C 84% 3.8 mph S6.1 kmh S 7.6 mph12.2 kmh 29.46 in997.6 mb 0.00 in0.0 mm 0.00 in0.0 mm 1.68 in42.7 mm
07:14 PM 76.5°F24.7°C 71.7°F22.1°C 85% 3.1 mph S5.0 kmh S 7.6 mph12.2 kmh 29.46 in997.6 mb 0.00 in0.0 mm 0.00 in0.0 mm 1.68 in42.7 mm
07:15 PM 76.3°F24.6°C 71.5°F21.9°C 85% 4.5 mph S7.2 kmh S 10.7 mph17.2 kmh 29.46 in997.6 mb 0.00 in0.0 mm 0.00 in0.0 mm 1.68 in42.7 mm
07:16 PM 76.1°F24.5°C 71.3°F21.8°C 85% 2.2 mph S3.5 kmh S 10.7 mph17.2 kmh 29.46 in997.6 mb 0.00 in0.0 mm 0.00 in0.0 mm 1.68 in42.7 mm
07:17 PM 76.1°F24.5°C 71.3°F21.8°C 85% 4.5 mph S7.2 kmh S 10.7 mph17.2 kmh 29.47 in998.0 mb 0.00 in0.0 mm 0.00 in0.0 mm 1.68 in42.7 mm
07:18 PM 76.1°F24.5°C 71.3°F21.8°C 85% 4.5 mph S7.2 kmh S 10.7 mph17.2 kmh 29.47 in998.0 mb 0.00 in0.0 mm 0.00 in0.0 mm 1.68 in42.7 mm
07:19 PM 75.9°F24.4°C 71.1°F21.7°C 85% 3.8 mph S6.1 kmh S 10.7 mph17.2 kmh 29.47 in998.0 mb 0.00 in0.0 mm 0.00 in0.0 mm 1.68 in42.7 mm
07:20 PM 75.7°F24.3°C 71.3°F21.8°C 86% 3.1 mph S5.0 kmh S 10.7 mph17.2 kmh 29.47 in998.0 mb 0.00 in0.0 mm 0.00 in0.0 mm 1.68 in42.7 mm
07:21 PM 75.7°F24.3°C 71.3°F21.8°C 86% 3.1 mph S5.0 kmh S 10.7 mph17.2 kmh 29.48 in998.3 mb 0.00 in0.0 mm 0.00 in0.0 mm 1.68 in42.7 mm
07:22 PM 75.7°F24.3°C 71.3°F21.8°C 86% 2.2 mph S3.5 kmh S 10.7 mph17.2 kmh 29.48 in998.3 mb 0.01 in0.3 mm 0.60 in15.2 mm 1.70 in43.2 mm
07:23 PM 75.6°F24.2°C 71.1°F21.7°C 86% 3.8 mph S6.1 kmh S 10.7 mph17.2 kmh 29.49 in998.6 mb 0.01 in0.3 mm 0.00 in0.0 mm 1.70 in43.2 mm
07:24 PM 75.6°F24.2°C 71.1°F21.7°C 86% 5.4 mph S8.7 kmh S 10.7 mph17.2 kmh 29.49 in998.6 mb 0.04 in1.0 mm 1.80 in45.7 mm 1.73 in43.9 mm
07:25 PM 75.6°F24.2°C 71.1°F21.7°C 86% 5.4 mph S8.7 kmh S 9.8 mph15.8 kmh 29.49 in998.6 mb 0.04 in1.0 mm 0.00 in0.0 mm 1.73 in43.9 mm
07:26 PM 75.4°F24.1°C 70.9°F21.6°C 86% 1.6 mph S2.6 kmh S 6.9 mph11.1 kmh 29.50 in999.0 mb 0.10 in2.5 mm 3.60 in91.4 mm 1.79 in45.5 mm
07:27 PM 75.4°F24.1°C 70.9°F21.6°C 86% 0.7 mph S1.1 kmh S 6.9 mph11.1 kmh 29.50 in999.0 mb 0.12 in3.0 mm 1.20 in30.5 mm 1.80 in45.7 mm
07:28 PM 75.4°F24.1°C 70.9°F21.6°C 86% 1.6 mph S2.6 kmh S 6.9 mph11.1 kmh 29.50 in999.0 mb 0.13 in3.3 mm 0.60 in15.2 mm 1.81 in46.0 mm
07:29 PM 75.2°F24.0°C 70.8°F21.6°C 86% 1.6 mph S2.6 kmh S 6.9 mph11.1 kmh 29.50 in999.0 mb 0.14 in3.6 mm 0.60 in15.2 mm 1.83 in46.5 mm
07:30 PM 75.2°F24.0°C 71.1°F21.7°C 87% 1.6 mph S2.6 kmh S 6.9 mph11.1 kmh 29.49 in998.6 mb 0.16 in4.1 mm 1.20 in30.5 mm 1.84 in46.7 mm
07:31 PM 75.2°F24.0°C 71.1°F21.7°C 87% 3.1 mph S5.0 kmh S 6.9 mph11.1 kmh 29.49 in998.6 mb 0.16 in4.1 mm 0.00 in0.0 mm 1.84 in46.7 mm
07:32 PM 75.0°F23.9°C 71.3°F21.8°C 88% 2.2 mph SSE3.5 kmh SSE 6.9 mph11.1 kmh 29.50 in999.0 mb 0.16 in4.1 mm 0.00 in0.0 mm 1.84 in46.7 mm
07:33 PM 75.0°F23.9°C 71.3°F21.8°C 88% 1.6 mph SSE2.6 kmh SSE 6.9 mph11.1 kmh 29.49 in998.6 mb 0.16 in4.1 mm 0.00 in0.0 mm 1.84 in46.7 mm
07:34 PM 75.0°F23.9°C 71.3°F21.8°C 88% 1.6 mph SSE2.6 kmh SSE 6.9 mph11.1 kmh 29.49 in998.6 mb 0.16 in4.1 mm 0.00 in0.0 mm 1.84 in46.7 mm
07:35 PM 75.0°F23.9°C 71.3°F21.8°C 88% 2.2 mph SE3.5 kmh SE 6.9 mph11.1 kmh 29.48 in998.3 mb 0.19 in4.8 mm 1.80 in45.7 mm 1.87 in47.5 mm
07:36 PM 74.8°F23.8°C 71.4°F21.9°C 89% 2.2 mph SE3.5 kmh SE 5.4 mph8.7 kmh 29.49 in998.6 mb 0.20 in5.1 mm 0.60 in15.2 mm 1.89 in48.0 mm
07:37 PM 74.7°F23.7°C 71.2°F21.8°C 89% 3.1 mph SE5.0 kmh SE 5.4 mph8.7 kmh 29.49 in998.6 mb 0.22 in5.6 mm 1.20 in30.5 mm 1.90 in48.3 mm
07:38 PM 74.7°F23.7°C 71.2°F21.8°C 89% 5.4 mph SE8.7 kmh SE 6.0 mph9.7 kmh 29.49 in998.6 mb 0.22 in5.6 mm 0.00 in0.0 mm 1.90 in48.3 mm
07:40 PM 74.7°F23.7°C 71.2°F21.8°C 89% 3.8 mph SSE6.1 kmh SSE 6.0 mph9.7 kmh 29.49 in998.6 mb 0.22 in5.6 mm 0.00 in0.0 mm 1.90 in48.3 mm
07:41 PM 74.7°F23.7°C 71.2°F21.8°C 89% 2.2 mph SSE3.5 kmh SSE 6.0 mph9.7 kmh 29.48 in998.3 mb 0.22 in5.6 mm 0.00 in0.0 mm 1.90 in48.3 mm
07:42 PM 74.7°F23.7°C 71.2°F21.8°C 89% 2.2 mph SSE3.5 kmh SSE 6.0 mph9.7 kmh 29.49 in998.6 mb 0.22 in5.6 mm 0.00 in0.0 mm 1.90 in48.3 mm
07:43 PM 74.7°F23.7°C 71.2°F21.8°C 89% 2.2 mph SE3.5 kmh SE 6.0 mph9.7 kmh 29.49 in998.6 mb 0.22 in5.6 mm 0.00 in0.0 mm 1.90 in48.3 mm
07:44 PM 74.7°F23.7°C 71.2°F21.8°C 89% 2.2 mph SE3.5 kmh SE 6.0 mph9.7 kmh 29.50 in999.0 mb 0.22 in5.6 mm 0.00 in0.0 mm 1.90 in48.3 mm
07:45 PM 74.7°F23.7°C 71.2°F21.8°C 89% 2.2 mph SE3.5 kmh SE 6.0 mph9.7 kmh 29.50 in999.0 mb 0.22 in5.6 mm 0.00 in0.0 mm 1.90 in48.3 mm
07:46 PM 74.7°F23.7°C 71.2°F21.8°C 89% 2.2 mph SE3.5 kmh SE 6.0 mph9.7 kmh 29.50 in999.0 mb 0.22 in5.6 mm 0.00 in0.0 mm 1.90 in48.3 mm
07:47 PM 74.7°F23.7°C 71.2°F21.8°C 89% 2.2 mph SE3.5 kmh SE 6.0 mph9.7 kmh 29.50 in999.0 mb 0.22 in5.6 mm 0.00 in0.0 mm 1.90 in48.3 mm
07:48 PM 74.7°F23.7°C 71.2°F21.8°C 89% 2.2 mph SE3.5 kmh SE 6.0 mph9.7 kmh 29.50 in999.0 mb 0.22 in5.6 mm 0.00 in0.0 mm 1.90 in48.3 mm
07:49 PM 74.7°F23.7°C 71.2°F21.8°C 89% 2.2 mph SE3.5 kmh SE 5.4 mph8.7 kmh 29.50 in999.0 mb 0.22 in5.6 mm 0.00 in0.0 mm 1.90 in48.3 mm
07:50 PM 74.7°F23.7°C 71.2°F21.8°C 89% 2.2 mph SE3.5 kmh SE 5.4 mph8.7 kmh 29.50 in999.0 mb 0.22 in5.6 mm 0.00 in0.0 mm 1.90 in48.3 mm
07:51 PM 74.7°F23.7°C 71.2°F21.8°C 89% 2.2 mph SE3.5 kmh SE 5.4 mph8.7 kmh 29.49 in998.6 mb 0.22 in5.6 mm 0.00 in0.0 mm 1.90 in48.3 mm
07:52 PM 74.7°F23.7°C 71.2°F21.8°C 89% 2.2 mph SE3.5 kmh SE 5.4 mph8.7 kmh 29.49 in998.6 mb 0.22 in5.6 mm 0.00 in0.0 mm 1.90 in48.3 mm
07:53 PM 74.7°F23.7°C 71.2°F21.8°C 89% 2.2 mph SE3.5 kmh SE 5.4 mph8.7 kmh 29.49 in998.6 mb 0.22 in5.6 mm 0.00 in0.0 mm 1.90 in48.3 mm
07:54 PM 74.7°F23.7°C 71.2°F21.8°C 89% 2.2 mph SE3.5 kmh SE 5.4 mph8.7 kmh 29.49 in998.6 mb 0.22 in5.6 mm 0.00 in0.0 mm 1.90 in48.3 mm
07:55 PM 74.7°F23.7°C 71.2°F21.8°C 89% 2.2 mph SE3.5 kmh SE 5.4 mph8.7 kmh 29.47 in998.0 mb 0.22 in5.6 mm 0.00 in0.0 mm 1.90 in48.3 mm
07:56 PM 74.7°F23.7°C 71.2°F21.8°C 89% 2.2 mph SE3.5 kmh SE 5.4 mph8.7 kmh 29.48 in998.3 mb 0.22 in5.6 mm 0.00 in0.0 mm 1.90 in48.3 mm
07:57 PM 74.7°F23.7°C 71.2°F21.8°C 89% 2.2 mph SE3.5 kmh SE 5.4 mph8.7 kmh 29.47 in998.0 mb 0.22 in5.6 mm 0.00 in0.0 mm 1.90 in48.3 mm
07:58 PM 74.7°F23.7°C 71.2°F21.8°C 89% 2.2 mph SE3.5 kmh SE 5.4 mph8.7 kmh 29.48 in998.3 mb 0.22 in5.6 mm 0.00 in0.0 mm 1.90 in48.3 mm
07:59 PM 74.7°F23.7°C 71.2°F21.8°C 89% 2.2 mph SE3.5 kmh SE 5.4 mph8.7 kmh 29.48 in998.3 mb 0.22 in5.6 mm 0.00 in0.0 mm 1.90 in48.3 mm
08:00 PM 74.7°F23.7°C 71.2°F21.8°C 89% 2.2 mph SE3.5 kmh SE 5.4 mph8.7 kmh 29.48 in998.3 mb 0.22 in5.6 mm 0.00 in0.0 mm 1.90 in48.3 mm
08:01 PM 74.7°F23.7°C 71.2°F21.8°C 89% 2.2 mph SE3.5 kmh SE 5.4 mph8.7 kmh 29.47 in998.0 mb 0.22 in5.6 mm 0.00 in0.0 mm 1.90 in48.3 mm
08:02 PM 74.7°F23.7°C 71.2°F21.8°C 89% 2.2 mph SE3.5 kmh SE 5.4 mph8.7 kmh 29.48 in998.3 mb 0.22 in5.6 mm 0.00 in0.0 mm 1.90 in48.3 mm
08:03 PM 74.7°F23.7°C 71.2°F21.8°C 89% 2.2 mph SE3.5 kmh SE 5.4 mph8.7 kmh 29.48 in998.3 mb 0.22 in5.6 mm 0.00 in0.0 mm 1.90 in48.3 mm
08:04 PM 74.7°F23.7°C 71.2°F21.8°C 89% 2.2 mph SE3.5 kmh SE 5.4 mph8.7 kmh 29.48 in998.3 mb 0.22 in5.6 mm 0.00 in0.0 mm 1.90 in48.3 mm
08:05 PM 74.7°F23.7°C 71.2°F21.8°C 89% 2.2 mph SE3.5 kmh SE 5.4 mph8.7 kmh 29.48 in998.3 mb 0.22 in5.6 mm 0.00 in0.0 mm 1.90 in48.3 mm
08:06 PM 74.7°F23.7°C 71.2°F21.8°C 89% 2.2 mph SE3.5 kmh SE 5.4 mph8.7 kmh 29.49 in998.6 mb 0.22 in5.6 mm 0.00 in0.0 mm 1.90 in48.3 mm
08:07 PM 74.7°F23.7°C 71.2°F21.8°C 89% 2.2 mph SE3.5 kmh SE 5.4 mph8.7 kmh 29.48 in998.3 mb 0.22 in5.6 mm 0.00 in0.0 mm 1.90 in48.3 mm
08:08 PM 74.7°F23.7°C 71.2°F21.8°C 89% 2.2 mph SE3.5 kmh SE 5.4 mph8.7 kmh 29.48 in998.3 mb 0.22 in5.6 mm 0.00 in0.0 mm 1.90 in48.3 mm
08:09 PM 74.7°F23.7°C 71.2°F21.8°C 89% 2.2 mph SE3.5 kmh SE 5.4 mph8.7 kmh 29.48 in998.3 mb 0.22 in5.6 mm 0.00 in0.0 mm 1.90 in48.3 mm
08:10 PM 74.7°F23.7°C 71.2°F21.8°C 89% 2.2 mph SE3.5 kmh SE 5.4 mph8.7 kmh 29.47 in998.0 mb 0.22 in5.6 mm 0.00 in0.0 mm 1.90 in48.3 mm
08:11 PM 74.7°F23.7°C 71.2°F21.8°C 89% 2.2 mph SE3.5 kmh SE 5.4 mph8.7 kmh 29.47 in998.0 mb 0.22 in5.6 mm 0.00 in0.0 mm 1.90 in48.3 mm
08:12 PM 74.7°F23.7°C 71.2°F21.8°C 89% 2.2 mph SE3.5 kmh SE 5.4 mph8.7 kmh 29.48 in998.3 mb 0.22 in5.6 mm 0.00 in0.0 mm 1.90 in48.3 mm
08:13 PM 74.7°F23.7°C 71.2°F21.8°C 89% 2.2 mph SE3.5 kmh SE 5.4 mph8.7 kmh 29.47 in998.0 mb 0.22 in5.6 mm 0.00 in0.0 mm 1.90 in48.3 mm
08:14 PM 74.7°F23.7°C 71.2°F21.8°C 89% 2.2 mph SE3.5 kmh SE 5.4 mph8.7 kmh 29.47 in998.0 mb 0.22 in5.6 mm 0.00 in0.0 mm 1.90 in48.3 mm
08:15 PM 74.7°F23.7°C 71.2°F21.8°C 89% 2.2 mph SE3.5 kmh SE 5.4 mph8.7 kmh 29.47 in998.0 mb 0.22 in5.6 mm 0.00 in0.0 mm 1.90 in48.3 mm
08:16 PM 74.7°F23.7°C 71.2°F21.8°C 89% 2.2 mph SE3.5 kmh SE 5.4 mph8.7 kmh 29.47 in998.0 mb 0.22 in5.6 mm 0.00 in0.0 mm 1.90 in48.3 mm
08:17 PM 73.9°F23.3°C 71.5°F21.9°C 92% 0.7 mph SE1.1 kmh SE 2.2 mph3.5 kmh 29.47 in998.0 mb 0.22 in5.6 mm 0.00 in0.0 mm 1.90 in48.3 mm
08:18 PM 73.9°F23.3°C 71.5°F21.9°C 92% 0.7 mph SE1.1 kmh SE 2.2 mph3.5 kmh 29.47 in998.0 mb 0.22 in5.6 mm 0.00 in0.0 mm 1.90 in48.3 mm
08:19 PM 73.9°F23.3°C 71.5°F21.9°C 92% 2.2 mph SE3.5 kmh SE 4.5 mph7.2 kmh 29.47 in998.0 mb 0.22 in5.6 mm 0.00 in0.0 mm 1.90 in48.3 mm
08:20 PM 73.9°F23.3°C 71.5°F21.9°C 92% 1.6 mph SE2.6 kmh SE 4.5 mph7.2 kmh 29.46 in997.6 mb 0.22 in5.6 mm 0.00 in0.0 mm 1.90 in48.3 mm
08:21 PM 73.9°F23.3°C 71.5°F21.9°C 92% 1.6 mph SE2.6 kmh SE 4.5 mph7.2 kmh 29.47 in998.0 mb 0.20 in5.1 mm 0.00 in0.0 mm 1.90 in48.3 mm
08:22 PM 73.9°F23.3°C 71.5°F21.9°C 92% 1.6 mph SE2.6 kmh SE 4.5 mph7.2 kmh 29.47 in998.0 mb 0.20 in5.1 mm 0.00 in0.0 mm 1.90 in48.3 mm
08:23 PM 73.9°F23.3°C 71.5°F21.9°C 92% Calm Calm 4.5 mph7.2 kmh 29.47 in998.0 mb 0.17 in4.3 mm 0.00 in0.0 mm 1.90 in48.3 mm
08:24 PM 73.9°F23.3°C 71.5°F21.9°C 92% Calm Calm 4.5 mph7.2 kmh 29.46 in997.6 mb 0.17 in4.3 mm 0.00 in0.0 mm 1.90 in48.3 mm
08:25 PM 73.9°F23.3°C 71.5°F21.9°C 92% 1.6 mph ESE2.6 kmh ESE 4.5 mph7.2 kmh 29.47 in998.0 mb 0.12 in3.0 mm 0.00 in0.0 mm 1.90 in48.3 mm
08:26 PM 73.9°F23.3°C 71.5°F21.9°C 92% 0.7 mph E1.1 kmh E 4.5 mph7.2 kmh 29.47 in998.0 mb 0.10 in2.5 mm 0.00 in0.0 mm 1.90 in48.3 mm
08:27 PM 73.9°F23.3°C 71.5°F21.9°C 92% 0.7 mph E1.1 kmh E 4.5 mph7.2 kmh 29.47 in998.0 mb 0.09 in2.3 mm 0.00 in0.0 mm 1.90 in48.3 mm
08:28 PM 73.8°F23.2°C 71.3°F21.8°C 92% Calm Calm 4.5 mph7.2 kmh 29.47 in998.0 mb 0.07 in1.8 mm 0.00 in0.0 mm 1.90 in48.3 mm
08:29 PM 73.8°F23.2°C 71.3°F21.8°C 92% Calm Calm 3.8 mph6.1 kmh 29.46 in997.6 mb 0.06 in1.5 mm 0.00 in0.0 mm 1.90 in48.3 mm
08:30 PM 73.8°F23.2°C 71.3°F21.8°C 92% 1.6 mph E2.6 kmh E 3.8 mph6.1 kmh 29.47 in998.0 mb 0.06 in1.5 mm 0.00 in0.0 mm 1.90 in48.3 mm
08:31 PM 73.8°F23.2°C 71.3°F21.8°C 92% Calm Calm 3.8 mph6.1 kmh 29.48 in998.3 mb 0.06 in1.5 mm 0.00 in0.0 mm 1.90 in48.3 mm
08:32 PM 73.8°F23.2°C 71.3°F21.8&d